PWSweather.com
Personal Weather Stations
Station Observations
KV9EWX
Winnebago, Il, Winnebago, IL 61088

Winnebago, IlWinnebago, IL 61088

Lat: 42.261175, Lon: -89.236369

Elevation: 892

Station Type: Lacrosse ws-2811

Latest ConditionsUpdated 2:12:51 PM CDT Saturday, Jul 23, 2016
Currently Today's Max Today's Min Today's Average
Temperature 85.7°F29.8°C 92.3°F33.5°C 66.8°F19.3°C 75.7°F24.3°C
Dew Point 38.7°F3.7°C 68.5°F20.3°C -23.4°F-30.8°C 3.0°F-16.1°C
Winds 0.3 mph SE0.5 kmh SE 6.1 mph SE9.8 kmh SE - 0.9 mph 1.4 kmh
Wind Gusts 4.4 mph7.1 kmh 8.2 mph13.2 kmh - -
Humidity 19% 49% 1% 10%
Pressure 29.57 in1001.4 mb 29.61 in1002.7 mb 29.57 in1001.4 mb -
Hour Temp Dew Point Humidity Winds Wind Gusts Pressure Precip Precip Rate Daily Precip Total
02:12 PM 85.7°F29.8°C 38.7°F3.7°C 19% 0.4 mph SE0.6 kmh SE 4.4 mph7.1 kmh 29.57 in1001.4 mb 0.00 in0.0 mm 0.00 in0.0 mm 0.00 in0.0 mm
02:11 PM 85.7°F29.8°C 40.0°F4.4°C 20% 0.6 mph SSE1.0 kmh SSE 4.4 mph7.1 kmh 29.57 in1001.4 mb 0.00 in0.0 mm 0.00 in0.0 mm 0.00 in0.0 mm
02:10 PM 85.7°F29.8°C 41.3°F5.2°C 21% 0.7 mph S1.1 kmh S 4.4 mph7.1 kmh 29.57 in1001.4 mb 0.00 in0.0 mm 0.00 in0.0 mm 0.00 in0.0 mm
02:09 PM 85.6°F29.8°C 41.1°F5.1°C 21% 0.5 mph S0.8 kmh S 4.4 mph7.1 kmh 29.57 in1001.4 mb 0.00 in0.0 mm 0.00 in0.0 mm 0.00 in0.0 mm
02:08 PM 85.6°F29.8°C 42.3°F5.7°C 22% 0.5 mph S0.8 kmh S 4.4 mph7.1 kmh 29.57 in1001.4 mb 0.00 in0.0 mm 0.00 in0.0 mm 0.00 in0.0 mm
02:07 PM 85.6°F29.8°C 42.3°F5.7°C 22% 0.7 mph S1.1 kmh S 4.4 mph7.1 kmh 29.57 in1001.4 mb 0.00 in0.0 mm 0.00 in0.0 mm 0.00 in0.0 mm
02:06 PM 85.7°F29.8°C 42.5°F5.8°C 22% 1.2 mph SE1.9 kmh SE 4.4 mph7.1 kmh 29.57 in1001.4 mb 0.00 in0.0 mm 0.00 in0.0 mm 0.00 in0.0 mm
02:05 PM 85.6°F29.8°C 42.3°F5.7°C 22% 1.4 mph SSE2.3 kmh SSE 4.4 mph7.1 kmh 29.57 in1001.4 mb 0.00 in0.0 mm 0.00 in0.0 mm 0.00 in0.0 mm
02:04 PM 85.6°F29.8°C 41.1°F5.1°C 21% 1.8 mph S2.9 kmh S 4.4 mph7.1 kmh 29.57 in1001.4 mb 0.00 in0.0 mm 0.00 in0.0 mm 0.00 in0.0 mm
02:03 PM 85.6°F29.8°C 38.6°F3.7°C 19% 1.4 mph S2.3 kmh S 4.4 mph7.1 kmh 29.57 in1001.4 mb 0.00 in0.0 mm 0.00 in0.0 mm 0.00 in0.0 mm
02:02 PM 85.6°F29.8°C 39.9°F4.4°C 20% 0.8 mph SW1.3 kmh SW 4.4 mph7.1 kmh 29.57 in1001.4 mb 0.00 in0.0 mm 0.00 in0.0 mm 0.00 in0.0 mm
02:01 PM 85.6°F29.8°C 39.9°F4.4°C 20% 1.2 mph S1.9 kmh S 4.4 mph7.1 kmh 29.57 in1001.4 mb 0.00 in0.0 mm 0.00 in0.0 mm 0.00 in0.0 mm
02:00 PM 85.6°F29.8°C 41.1°F5.1°C 21% 2.4 mph SSE3.9 kmh SSE 4.4 mph7.1 kmh 29.57 in1001.4 mb 0.00 in0.0 mm 0.00 in0.0 mm 0.00 in0.0 mm
01:59 PM 85.6°F29.8°C 41.1°F5.1°C 21% 2.6 mph SSE4.2 kmh SSE 5.4 mph8.7 kmh 29.57 in1001.4 mb 0.00 in0.0 mm 0.00 in0.0 mm 0.00 in0.0 mm
01:58 PM 85.6°F29.8°C 39.9°F4.4°C 20% 2.9 mph S4.7 kmh S 5.4 mph8.7 kmh 29.57 in1001.4 mb 0.00 in0.0 mm 0.00 in0.0 mm 0.00 in0.0 mm
01:57 PM 85.4°F29.7°C 38.4°F3.6°C 19% 2.5 mph S4.0 kmh S 5.4 mph8.7 kmh 29.57 in1001.4 mb 0.00 in0.0 mm 0.00 in0.0 mm 0.00 in0.0 mm
01:56 PM 85.4°F29.7°C 38.4°F3.6°C 19% 1.0 mph SSE1.6 kmh SSE 5.4 mph8.7 kmh 29.57 in1001.4 mb 0.00 in0.0 mm 0.00 in0.0 mm 0.00 in0.0 mm
01:55 PM 85.4°F29.7°C 38.4°F3.6°C 19% 1.6 mph SSE2.6 kmh SSE 5.4 mph8.7 kmh 29.57 in1001.4 mb 0.00 in0.0 mm 0.00 in0.0 mm 0.00 in0.0 mm
01:54 PM 85.4°F29.7°C 37.0°F2.8°C 18% 2.3 mph SSE3.7 kmh SSE 5.4 mph8.7 kmh 29.57 in1001.4 mb 0.00 in0.0 mm 0.00 in0.0 mm 0.00 in0.0 mm
01:53 PM 85.4°F29.7°C 37.0°F2.8°C 18% 2.1 mph SSE3.4 kmh SSE 5.4 mph8.7 kmh 29.57 in1001.4 mb 0.00 in0.0 mm 0.00 in0.0 mm 0.00 in0.0 mm
01:52 PM 85.4°F29.7°C 37.0°F2.8°C 18% 2.1 mph SE3.4 kmh SE 5.4 mph8.7 kmh 29.57 in1001.4 mb 0.00 in0.0 mm 0.00 in0.0 mm 0.00 in0.0 mm
01:51 PM 85.4°F29.7°C 35.6°F2.0°C 17% 2.2 mph SSE3.5 kmh SSE 6.7 mph10.8 kmh 29.58 in1001.7 mb 0.00 in0.0 mm 0.00 in0.0 mm 0.00 in0.0 mm
01:50 PM 85.4°F29.7°C 35.6°F2.0°C 17% 2.4 mph SSE3.9 kmh SSE 6.7 mph10.8 kmh 29.57 in1001.4 mb 0.00 in0.0 mm 0.00 in0.0 mm 0.00 in0.0 mm
01:49 PM 85.2°F29.6°C 35.4°F1.9°C 17% 2.2 mph SE3.5 kmh SE 6.7 mph10.8 kmh 29.58 in1001.7 mb 0.00 in0.0 mm 0.00 in0.0 mm 0.00 in0.0 mm
01:48 PM 85.2°F29.6°C 28.6°F-1.9°C 13% 2.6 mph SSE4.2 kmh SSE 6.7 mph10.8 kmh 29.58 in1001.7 mb 0.00 in0.0 mm 0.00 in0.0 mm 0.00 in0.0 mm
01:47 PM 85.1°F29.5°C 26.6°F-3.0°C 12% 2.4 mph SSE3.9 kmh SSE 6.7 mph10.8 kmh 29.58 in1001.7 mb 0.00 in0.0 mm 0.00 in0.0 mm 0.00 in0.0 mm
01:46 PM 85.1°F29.5°C 24.4°F-4.2°C 11% 1.5 mph SSE2.4 kmh SSE 6.7 mph10.8 kmh 29.58 in1001.7 mb 0.00 in0.0 mm 0.00 in0.0 mm 0.00 in0.0 mm
01:45 PM 85.1°F29.5°C 24.4°F-4.2°C 11% 0.6 mph S1.0 kmh S 6.7 mph10.8 kmh 29.58 in1001.7 mb 0.00 in0.0 mm 0.00 in0.0 mm 0.00 in0.0 mm
01:44 PM 84.9°F29.4°C 24.3°F-4.3°C 11% 1.4 mph S2.3 kmh S 6.7 mph10.8 kmh 29.58 in1001.7 mb 0.00 in0.0 mm 0.00 in0.0 mm 0.00 in0.0 mm
01:43 PM 84.9°F29.4°C 26.4°F-3.1°C 12% 2.8 mph SSE4.5 kmh SSE 6.7 mph10.8 kmh 29.58 in1001.7 mb 0.00 in0.0 mm 0.00 in0.0 mm 0.00 in0.0 mm
01:42 PM 84.7°F29.3°C 21.8°F-5.7°C 10% 2.6 mph SE4.2 kmh SE 6.7 mph10.8 kmh 29.58 in1001.7 mb 0.00 in0.0 mm 0.00 in0.0 mm 0.00 in0.0 mm
01:41 PM 84.5°F29.2°C 13.4°F-10.3°C 7% 1.4 mph SSE2.3 kmh SSE 3.9 mph6.3 kmh 29.58 in1001.7 mb 0.00 in0.0 mm 0.00 in0.0 mm 0.00 in0.0 mm
01:40 PM 84.5°F29.2°C 16.4°F-8.7°C 8% 0.7 mph SSE1.1 kmh SSE 3.9 mph6.3 kmh 29.58 in1001.7 mb 0.00 in0.0 mm 0.00 in0.0 mm 0.00 in0.0 mm
01:39 PM 84.5°F29.2°C 21.6°F-5.8°C 10% 0.7 mph SSE1.1 kmh SSE 3.9 mph6.3 kmh 29.58 in1001.7 mb 0.00 in0.0 mm 0.00 in0.0 mm 0.00 in0.0 mm
01:38 PM 84.5°F29.2°C 21.6°F-5.8°C 10% 1.5 mph SSE2.4 kmh SSE 3.9 mph6.3 kmh 29.58 in1001.7 mb 0.00 in0.0 mm 0.00 in0.0 mm 0.00 in0.0 mm
01:37 PM 84.3°F29.1°C 21.5°F-5.8°C 10% 1.9 mph SSE3.1 kmh SSE 3.9 mph6.3 kmh 29.58 in1001.7 mb 0.00 in0.0 mm 0.00 in0.0 mm 0.00 in0.0 mm
01:36 PM 84.3°F29.1°C 21.5°F-5.8°C 10% 1.7 mph S2.7 kmh S 3.9 mph6.3 kmh 29.58 in1001.7 mb 0.00 in0.0 mm 0.00 in0.0 mm 0.00 in0.0 mm
01:35 PM 84.3°F29.1°C 21.5°F-5.8°C 10% 1.1 mph SSE1.8 kmh SSE 3.9 mph6.3 kmh 29.58 in1001.7 mb 0.00 in0.0 mm 0.00 in0.0 mm 0.00 in0.0 mm
01:34 PM 84.3°F29.1°C 21.5°F-5.8°C 10% 1.0 mph S1.6 kmh S 2.8 mph4.5 kmh 29.58 in1001.7 mb 0.00 in0.0 mm 0.00 in0.0 mm 0.00 in0.0 mm
01:33 PM 84.3°F29.1°C 21.5°F-5.8°C 10% 1.3 mph S2.1 kmh S 2.8 mph4.5 kmh 29.58 in1001.7 mb 0.00 in0.0 mm 0.00 in0.0 mm 0.00 in0.0 mm
01:32 PM 84.2°F29.0°C 21.4°F-5.9°C 10% 1.4 mph S2.3 kmh S 2.8 mph4.5 kmh 29.58 in1001.7 mb 0.00 in0.0 mm 0.00 in0.0 mm 0.00 in0.0 mm
01:31 PM 84.2°F29.0°C 21.4°F-5.9°C 10% 1.3 mph S2.1 kmh S 2.8 mph4.5 kmh 29.59 in1002.0 mb 0.00 in0.0 mm 0.00 in0.0 mm 0.00 in0.0 mm
01:30 PM 84.2°F29.0°C 23.7°F-4.6°C 11% 1.6 mph S2.6 kmh S 2.8 mph4.5 kmh 29.59 in1002.0 mb 0.00 in0.0 mm 0.00 in0.0 mm 0.00 in0.0 mm
01:29 PM 84.3°F29.1°C 23.8°F-4.6°C 11% 1.2 mph SSE1.9 kmh SSE 2.8 mph4.5 kmh 29.59 in1002.0 mb 0.00 in0.0 mm 0.00 in0.0 mm 0.00 in0.0 mm
01:28 PM 84.3°F29.1°C 28.0°F-2.2°C 13% 0.6 mph S1.0 kmh S 2.8 mph4.5 kmh 29.59 in1002.0 mb 0.00 in0.0 mm 0.00 in0.0 mm 0.00 in0.0 mm
01:27 PM 84.3°F29.1°C 28.0°F-2.2°C 13% 0.6 mph SW1.0 kmh SW 4.4 mph7.1 kmh 29.59 in1002.0 mb 0.00 in0.0 mm 0.00 in0.0 mm 0.00 in0.0 mm
01:26 PM 84.3°F29.1°C 28.0°F-2.2°C 13% 0.6 mph WSW1.0 kmh WSW 4.4 mph7.1 kmh 29.59 in1002.0 mb 0.00 in0.0 mm 0.00 in0.0 mm 0.00 in0.0 mm
01:25 PM 84.3°F29.1°C 28.0°F-2.2°C 13% 0.8 mph W1.3 kmh W 4.4 mph7.1 kmh 29.60 in1002.4 mb 0.00 in0.0 mm 0.00 in0.0 mm 0.00 in0.0 mm
01:24 PM 84.5°F29.2°C 31.7°F-0.2°C 15% 0.7 mph WSW1.1 kmh WSW 4.4 mph7.1 kmh 29.60 in1002.4 mb 0.00 in0.0 mm 0.00 in0.0 mm 0.00 in0.0 mm
01:23 PM 84.3°F29.1°C 31.6°F-0.2°C 15% 0.3 mph WSW0.5 kmh WSW 4.4 mph7.1 kmh 29.59 in1002.0 mb 0.00 in0.0 mm 0.00 in0.0 mm 0.00 in0.0 mm
01:22 PM 84.5°F29.2°C 33.3°F0.7°C 16% 0.5 mph SW0.8 kmh SW 4.4 mph7.1 kmh 29.60 in1002.4 mb 0.00 in0.0 mm 0.00 in0.0 mm 0.00 in0.0 mm
01:21 PM 84.5°F29.2°C 33.3°F0.7°C 16% 0.6 mph SSW1.0 kmh SSW 4.4 mph7.1 kmh 29.60 in1002.4 mb 0.00 in0.0 mm 0.00 in0.0 mm 0.00 in0.0 mm
01:20 PM 84.5°F29.2°C 34.9°F1.6°C 17% 0.7 mph S1.1 kmh S 4.4 mph7.1 kmh 29.60 in1002.4 mb 0.00 in0.0 mm 0.00 in0.0 mm 0.00 in0.0 mm
01:19 PM 84.7°F29.3°C 35.0°F1.7°C 17% 1.8 mph S2.9 kmh S 4.4 mph7.1 kmh 29.60 in1002.4 mb 0.00 in0.0 mm 0.00 in0.0 mm 0.00 in0.0 mm
01:18 PM 84.5°F29.2°C 36.3°F2.4°C 18% 2.7 mph SSE4.3 kmh SSE 4.4 mph7.1 kmh 29.59 in1002.0 mb 0.00 in0.0 mm 0.00 in0.0 mm 0.00 in0.0 mm
01:17 PM 84.7°F29.3°C 36.5°F2.5°C 18% 2.2 mph SE3.5 kmh SE 4.4 mph7.1 kmh 29.59 in1002.0 mb 0.00 in0.0 mm 0.00 in0.0 mm 0.00 in0.0 mm
01:16 PM 84.7°F29.3°C 36.5°F2.5°C 18% 1.8 mph SSE2.9 kmh SSE 3.9 mph6.3 kmh 29.59 in1002.0 mb 0.00 in0.0 mm 0.00 in0.0 mm 0.00 in0.0 mm
01:15 PM 84.9°F29.4°C 36.6°F2.6°C 18% 1.9 mph S3.1 kmh S 3.9 mph6.3 kmh 29.59 in1002.0 mb 0.00 in0.0 mm 0.00 in0.0 mm 0.00 in0.0 mm
01:14 PM 84.9°F29.4°C 38.0°F3.3°C 19% 1.9 mph S3.1 kmh S 3.9 mph6.3 kmh 29.59 in1002.0 mb 0.00 in0.0 mm 0.00 in0.0 mm 0.00 in0.0 mm
01:13 PM 84.9°F29.4°C 38.0°F3.3°C 19% 1.5 mph SSE2.4 kmh SSE 3.9 mph6.3 kmh 29.59 in1002.0 mb 0.00 in0.0 mm 0.00 in0.0 mm 0.00 in0.0 mm
01:12 PM 84.9°F29.4°C 38.0°F3.3°C 19% 1.0 mph S1.6 kmh S 3.9 mph6.3 kmh 29.59 in1002.0 mb 0.00 in0.0 mm 0.00 in0.0 mm 0.00 in0.0 mm
01:11 PM 85.1°F29.5°C 38.2°F3.4°C 19% 1.8 mph S2.9 kmh S 5.1 mph8.2 kmh 29.59 in1002.0 mb 0.00 in0.0 mm 0.00 in0.0 mm 0.00 in0.0 mm
01:10 PM 85.1°F29.5°C 38.2°F3.4°C 19% 1.8 mph SSE2.9 kmh SSE 5.1 mph8.2 kmh 29.59 in1002.0 mb 0.00 in0.0 mm 0.00 in0.0 mm 0.00 in0.0 mm
01:09 PM 85.1°F29.5°C 40.7°F4.8°C 21% 1.3 mph SSE2.1 kmh SSE 5.1 mph8.2 kmh 29.59 in1002.0 mb 0.00 in0.0 mm 0.00 in0.0 mm 0.00 in0.0 mm
01:08 PM 85.1°F29.5°C 40.7°F4.8°C 21% 1.6 mph SE2.6 kmh SE 6.0 mph9.7 kmh 29.59 in1002.0 mb 0.00 in0.0 mm 0.00 in0.0 mm 0.00 in0.0 mm
01:07 PM 85.1°F29.5°C 40.7°F4.8°C 21% 1.9 mph SE3.1 kmh SE 6.0 mph9.7 kmh 29.59 in1002.0 mb 0.00 in0.0 mm 0.00 in0.0 mm 0.00 in0.0 mm
01:06 PM 85.1°F29.5°C 40.7°F4.8°C 21% 1.7 mph S2.7 kmh S 6.0 mph9.7 kmh 29.59 in1002.0 mb 0.00 in0.0 mm 0.00 in0.0 mm 0.00 in0.0 mm
01:05 PM 85.1°F29.5°C 41.9°F5.5°C 22% 1.4 mph S2.3 kmh S 6.0 mph9.7 kmh 29.58 in1001.7 mb 0.00 in0.0 mm 0.00 in0.0 mm 0.00 in0.0 mm
01:04 PM 85.2°F29.6°C 42.0°F5.6°C 22% 1.6 mph SSE2.6 kmh SSE 6.0 mph9.7 kmh 29.58 in1001.7 mb 0.00 in0.0 mm 0.00 in0.0 mm 0.00 in0.0 mm
01:03 PM 85.2°F29.6°C 43.1°F6.2°C 23% 2.3 mph SSE3.7 kmh SSE 6.0 mph9.7 kmh 29.58 in1001.7 mb 0.00 in0.0 mm 0.00 in0.0 mm 0.00 in0.0 mm
01:02 PM 85.2°F29.6°C 42.0°F5.6°C 22% 2.5 mph SSE4.0 kmh SSE 6.0 mph9.7 kmh 29.58 in1001.7 mb 0.00 in0.0 mm 0.00 in0.0 mm 0.00 in0.0 mm
01:01 PM 85.2°F29.6°C 42.0°F5.6°C 22% 1.9 mph S3.1 kmh S 6.0 mph9.7 kmh 29.59 in1002.0 mb 0.00 in0.0 mm 0.00 in0.0 mm 0.00 in0.0 mm
01:00 PM 85.4°F29.7°C 42.2°F5.7°C 22% 2.8 mph SSE4.5 kmh SSE 6.0 mph9.7 kmh 29.58 in1001.7 mb 0.00 in0.0 mm 0.00 in0.0 mm 0.00 in0.0 mm
12:59 PM 85.4°F29.7°C 42.2°F5.7°C 22% 3.2 mph SSE5.1 kmh SSE 6.0 mph9.7 kmh 29.58 in1001.7 mb 0.00 in0.0 mm 0.00 in0.0 mm 0.00 in0.0 mm
12:58 PM 85.4°F29.7°C 41.0°F5.0°C 21% 1.7 mph S2.7 kmh S 4.7 mph7.6 kmh 29.58 in1001.7 mb 0.00 in0.0 mm 0.00 in0.0 mm 0.00 in0.0 mm
12:57 PM 85.4°F29.7°C 42.2°F5.7°C 22% 1.5 mph SSW2.4 kmh SSW 3.9 mph6.3 kmh 29.58 in1001.7 mb 0.00 in0.0 mm 0.00 in0.0 mm 0.00 in0.0 mm
12:56 PM 85.4°F29.7°C 42.2°F5.7°C 22% 1.6 mph S2.6 kmh S 3.9 mph6.3 kmh 29.58 in1001.7 mb 0.00 in0.0 mm 0.00 in0.0 mm 0.00 in0.0 mm
12:55 PM 85.4°F29.7°C 42.2°F5.7°C 22% 1.7 mph S2.7 kmh S 3.9 mph6.3 kmh 29.58 in1001.7 mb 0.00 in0.0 mm 0.00 in0.0 mm 0.00 in0.0 mm
12:54 PM 85.4°F29.7°C 42.2°F5.7°C 22% 2.1 mph S3.4 kmh S 3.5 mph5.6 kmh 29.58 in1001.7 mb 0.00 in0.0 mm 0.00 in0.0 mm 0.00 in0.0 mm
12:53 PM 85.4°F29.7°C 42.2°F5.7°C 22% 2.0 mph SSE3.2 kmh SSE 4.4 mph7.1 kmh 29.58 in1001.7 mb 0.00 in0.0 mm 0.00 in0.0 mm 0.00 in0.0 mm
12:52 PM 85.4°F29.7°C 42.2°F5.7°C 22% 2.1 mph SSE3.4 kmh SSE 4.4 mph7.1 kmh 29.58 in1001.7 mb 0.00 in0.0 mm 0.00 in0.0 mm 0.00 in0.0 mm
12:51 PM 85.4°F29.7°C 42.2°F5.7°C 22% 2.1 mph S3.4 kmh S 4.4 mph7.1 kmh 29.58 in1001.7 mb 0.00 in0.0 mm 0.00 in0.0 mm 0.00 in0.0 mm
12:50 PM 85.4°F29.7°C 42.2°F5.7°C 22% 1.5 mph S2.4 kmh S 5.4 mph8.7 kmh 29.58 in1001.7 mb 0.00 in0.0 mm 0.00 in0.0 mm 0.00 in0.0 mm
12:49 PM 85.4°F29.7°C 41.0°F5.0°C 21% 1.3 mph S2.1 kmh S 5.4 mph8.7 kmh 29.58 in1001.7 mb 0.00 in0.0 mm 0.00 in0.0 mm 0.00 in0.0 mm
12:48 PM 85.4°F29.7°C 41.0°F5.0°C 21% 1.4 mph S2.3 kmh S 5.4 mph8.7 kmh 29.58 in1001.7 mb 0.00 in0.0 mm 0.00 in0.0 mm 0.00 in0.0 mm
12:47 PM 85.4°F29.7°C 42.2°F5.7°C 22% 1.9 mph S3.1 kmh S 6.0 mph9.7 kmh 29.58 in1001.7 mb 0.00 in0.0 mm 0.00 in0.0 mm 0.00 in0.0 mm
12:46 PM 85.4°F29.7°C 42.2°F5.7°C 22% 2.3 mph S3.7 kmh S 6.0 mph9.7 kmh 29.58 in1001.7 mb 0.00 in0.0 mm 0.00 in0.0 mm 0.00 in0.0 mm
12:45 PM 85.4°F29.7°C 42.2°F5.7°C 22% 2.3 mph S3.7 kmh S 6.3 mph10.1 kmh 29.58 in1001.7 mb 0.00 in0.0 mm 0.00 in0.0 mm 0.00 in0.0 mm
12:44 PM 85.4°F29.7°C 43.3°F6.3°C 23% 1.9 mph S3.1 kmh S 6.3 mph10.1 kmh 29.58 in1001.7 mb 0.00 in0.0 mm 0.00 in0.0 mm 0.00 in0.0 mm
12:43 PM 85.2°F29.6°C 43.1°F6.2°C 23% 2.0 mph S3.2 kmh S 6.3 mph10.1 kmh 29.58 in1001.7 mb 0.00 in0.0 mm 0.00 in0.0 mm 0.00 in0.0 mm
12:42 PM 85.4°F29.7°C 43.3°F6.3°C 23% 3.1 mph S5.0 kmh S 6.3 mph10.1 kmh 29.58 in1001.7 mb 0.00 in0.0 mm 0.00 in0.0 mm 0.00 in0.0 mm
12:41 PM 85.4°F29.7°C 43.3°F6.3°C 23% 3.4 mph SSE5.5 kmh SSE 6.3 mph10.1 kmh 29.58 in1001.7 mb 0.00 in0.0 mm 0.00 in0.0 mm 0.00 in0.0 mm
12:40 PM 85.4°F29.7°C 42.2°F5.7°C 22% 2.9 mph SSE4.7 kmh SSE 6.3 mph10.1 kmh 29.58 in1001.7 mb 0.00 in0.0 mm 0.00 in0.0 mm 0.00 in0.0 mm
12:39 PM 85.4°F29.7°C 43.3°F6.3°C 23% 3.0 mph S4.8 kmh S 6.3 mph10.1 kmh 29.58 in1001.7 mb 0.00 in0.0 mm 0.00 in0.0 mm 0.00 in0.0 mm
12:38 PM 85.6°F29.8°C 43.5°F6.4°C 23% 3.2 mph SSE5.1 kmh SSE 6.3 mph10.1 kmh 29.58 in1001.7 mb 0.00 in0.0 mm 0.00 in0.0 mm 0.00 in0.0 mm
12:37 PM 85.6°F29.8°C 43.5°F6.4°C 23% 3.7 mph SSE6.0 kmh SSE 6.3 mph10.1 kmh 29.58 in1001.7 mb 0.00 in0.0 mm 0.00 in0.0 mm 0.00 in0.0 mm
12:36 PM 85.4°F29.7°C 43.3°F6.3°C 23% 3.6 mph SSE5.8 kmh SSE 6.3 mph10.1 kmh 29.58 in1001.7 mb 0.00 in0.0 mm 0.00 in0.0 mm 0.00 in0.0 mm
12:35 PM 85.6°F29.8°C 43.5°F6.4°C 23% 2.3 mph SSE3.7 kmh SSE 6.0 mph9.7 kmh 29.58 in1001.7 mb 0.00 in0.0 mm 0.00 in0.0 mm 0.00 in0.0 mm
12:34 PM 85.6°F29.8°C 44.6°F7.0°C 24% 2.2 mph SSE3.5 kmh SSE 5.4 mph8.7 kmh 29.58 in1001.7 mb 0.00 in0.0 mm 0.00 in0.0 mm 0.00 in0.0 mm
12:33 PM 85.6°F29.8°C 44.6°F7.0°C 24% 2.6 mph SE4.2 kmh SE 5.4 mph8.7 kmh 29.58 in1001.7 mb 0.00 in0.0 mm 0.00 in0.0 mm 0.00 in0.0 mm
12:32 PM 85.6°F29.8°C 44.6°F7.0°C 24% 2.5 mph SE4.0 kmh SE 5.4 mph8.7 kmh 29.58 in1001.7 mb 0.00 in0.0 mm 0.00 in0.0 mm 0.00 in0.0 mm
12:31 PM 85.6°F29.8°C 44.6°F7.0°C 24% 3.0 mph SSE4.8 kmh SSE 5.4 mph8.7 kmh 29.58 in1001.7 mb 0.00 in0.0 mm 0.00 in0.0 mm 0.00 in0.0 mm
12:30 PM 85.6°F29.8°C 45.6°F7.6°C 25% 3.4 mph S5.5 kmh S 5.4 mph8.7 kmh 29.58 in1001.7 mb 0.00 in0.0 mm 0.00 in0.0 mm 0.00 in0.0 mm
12:29 PM 85.6°F29.8°C 45.6°F7.6°C 25% 2.9 mph S4.7 kmh S 5.4 mph8.7 kmh 29.58 in1001.7 mb 0.00 in0.0 mm 0.00 in0.0 mm 0.00 in0.0 mm
12:28 PM 85.6°F29.8°C 45.6°F7.6°C 25% 3.3 mph S5.3 kmh S 5.4 mph8.7 kmh 29.58 in1001.7 mb 0.00 in0.0 mm 0.00 in0.0 mm 0.00 in0.0 mm
12:27 PM 85.6°F29.8°C 45.6°F7.6°C 25% 3.3 mph S5.3 kmh S 5.4 mph8.7 kmh 29.58 in1001.7 mb 0.00 in0.0 mm 0.00 in0.0 mm 0.00 in0.0 mm
12:26 PM 85.6°F29.8°C 45.6°F7.6°C 25% 2.6 mph S4.2 kmh S 5.4 mph8.7 kmh 29.58 in1001.7 mb 0.00 in0.0 mm 0.00 in0.0 mm 0.00 in0.0 mm
12:25 PM 85.6°F29.8°C 46.7°F8.2°C 26% 2.0 mph S3.2 kmh S 5.4 mph8.7 kmh 29.59 in1002.0 mb 0.00 in0.0 mm 0.00 in0.0 mm 0.00 in0.0 mm
12:24 PM 85.6°F29.8°C 46.7°F8.2°C 26% 2.4 mph SE3.9 kmh SE 6.0 mph9.7 kmh 29.59 in1002.0 mb 0.00 in0.0 mm 0.00 in0.0 mm 0.00 in0.0 mm
12:23 PM 85.6°F29.8°C 48.6°F9.2°C 28% 3.0 mph SE4.8 kmh SE 6.0 mph9.7 kmh 29.59 in1002.0 mb 0.00 in0.0 mm 0.00 in0.0 mm 0.00 in0.0 mm
12:22 PM 85.6°F29.8°C 48.6°F9.2°C 28% 3.4 mph SE5.5 kmh SE 6.0 mph9.7 kmh 29.59 in1002.0 mb 0.00 in0.0 mm 0.00 in0.0 mm 0.00 in0.0 mm
12:21 PM 85.6°F29.8°C 48.6°F9.2°C 28% 3.5 mph SSE5.6 kmh SSE 7.0 mph11.3 kmh 29.59 in1002.0 mb 0.00 in0.0 mm 0.00 in0.0 mm 0.00 in0.0 mm
12:20 PM 85.6°F29.8°C 46.7°F8.2°C 26% 2.8 mph SSE4.5 kmh SSE 7.0 mph11.3 kmh 29.59 in1002.0 mb 0.00 in0.0 mm 0.00 in0.0 mm 0.00 in0.0 mm
12:19 PM 85.6°F29.8°C 47.6°F8.7°C 27% 1.9 mph SSE3.1 kmh SSE 7.0 mph11.3 kmh 29.59 in1002.0 mb 0.00 in0.0 mm 0.00 in0.0 mm 0.00 in0.0 mm
12:18 PM 85.7°F29.8°C 48.8°F9.3°C 28% 2.4 mph SSE3.9 kmh SSE 7.0 mph11.3 kmh 29.59 in1002.0 mb 0.00 in0.0 mm 0.00 in0.0 mm 0.00 in0.0 mm
12:17 PM 85.6°F29.8°C 49.5°F9.7°C 29% 3.0 mph SSE4.8 kmh SSE 7.0 mph11.3 kmh 29.59 in1002.0 mb 0.00 in0.0 mm 0.00 in0.0 mm 0.00 in0.0 mm
12:16 PM 85.7°F29.8°C 49.7°F9.8°C 29% 3.1 mph SSE5.0 kmh SSE 7.0 mph11.3 kmh 29.59 in1002.0 mb 0.00 in0.0 mm 0.00 in0.0 mm 0.00 in0.0 mm
12:15 PM 85.9°F29.9°C 50.8°F10.4°C 30% 3.3 mph S5.3 kmh S 7.0 mph11.3 kmh 29.59 in1002.0 mb 0.00 in0.0 mm 0.00 in0.0 mm 0.00 in0.0 mm
12:14 PM 85.9°F29.9°C 50.8°F10.4°C 30% 3.3 mph S5.3 kmh S 7.0 mph11.3 kmh 29.59 in1002.0 mb 0.00 in0.0 mm 0.00 in0.0 mm 0.00 in0.0 mm
12:13 PM 85.9°F29.9°C 52.5°F11.4°C 32% 3.5 mph S5.6 kmh S 7.0 mph11.3 kmh 29.59 in1002.0 mb 0.00 in0.0 mm 0.00 in0.0 mm 0.00 in0.0 mm
12:12 PM 86.0°F30.0°C 53.5°F11.9°C 33% 4.1 mph S6.6 kmh S 7.0 mph11.3 kmh 29.59 in1002.0 mb 0.00 in0.0 mm 0.00 in0.0 mm 0.00 in0.0 mm
12:11 PM 86.0°F30.0°C 53.5°F11.9°C 33% 4.6 mph SE7.4 kmh SE 7.0 mph11.3 kmh 29.59 in1002.0 mb 0.00 in0.0 mm 0.00 in0.0 mm 0.00 in0.0 mm
12:10 PM 86.0°F30.0°C 49.0°F9.4°C 28% 3.8 mph SE6.1 kmh SE 6.7 mph10.8 kmh 29.58 in1001.7 mb 0.00 in0.0 mm 0.00 in0.0 mm 0.00 in0.0 mm
12:09 PM 86.0°F30.0°C 46.0°F7.8°C 25% 2.9 mph SE4.7 kmh SE 6.7 mph10.8 kmh 29.58 in1001.7 mb 0.00 in0.0 mm 0.00 in0.0 mm 0.00 in0.0 mm
12:08 PM 86.0°F30.0°C 46.0°F7.8°C 25% 2.5 mph SE4.0 kmh SE 6.7 mph10.8 kmh 29.58 in1001.7 mb 0.00 in0.0 mm 0.00 in0.0 mm 0.00 in0.0 mm
12:07 PM 86.2°F30.1°C 46.2°F7.9°C 25% 2.4 mph SE3.9 kmh SE 6.7 mph10.8 kmh 29.58 in1001.7 mb 0.00 in0.0 mm 0.00 in0.0 mm 0.00 in0.0 mm
12:06 PM 86.2°F30.1°C 45.1°F7.3°C 24% 2.4 mph ESE3.9 kmh ESE 6.7 mph10.8 kmh 29.58 in1001.7 mb 0.00 in0.0 mm 0.00 in0.0 mm 0.00 in0.0 mm
12:05 PM 86.2°F30.1°C 44.0°F6.7°C 23% 2.6 mph SE4.2 kmh SE 6.7 mph10.8 kmh 29.58 in1001.7 mb 0.00 in0.0 mm 0.00 in0.0 mm 0.00 in0.0 mm
12:04 PM 86.2°F30.1°C 41.7°F5.4°C 21% 2.2 mph SE3.5 kmh SE 6.7 mph10.8 kmh 29.58 in1001.7 mb 0.00 in0.0 mm 0.00 in0.0 mm 0.00 in0.0 mm
12:03 PM 86.2°F30.1°C 42.9°F6.1°C 22% 3.1 mph SE5.0 kmh SE 6.7 mph10.8 kmh 29.58 in1001.7 mb 0.00 in0.0 mm 0.00 in0.0 mm 0.00 in0.0 mm
12:02 PM 86.2°F30.1°C 44.0°F6.7°C 23% 3.4 mph SSE5.5 kmh SSE 6.7 mph10.8 kmh 29.58 in1001.7 mb 0.00 in0.0 mm 0.00 in0.0 mm 0.00 in0.0 mm
12:01 PM 86.2°F30.1°C 44.0°F6.7°C 23% 2.9 mph SSE4.7 kmh SSE 6.7 mph10.8 kmh 29.58 in1001.7 mb 0.00 in0.0 mm 0.00 in0.0 mm 0.00 in0.0 mm
12:00 PM 86.2°F30.1°C 44.0°F6.7°C 23% 3.5 mph SSE5.6 kmh SSE 5.4 mph8.7 kmh 29.58 in1001.7 mb 0.00 in0.0 mm 0.00 in0.0 mm 0.00 in0.0 mm
11:59 AM 86.2°F30.1°C 44.0°F6.7°C 23% 3.8 mph SSE6.1 kmh SSE 5.4 mph8.7 kmh 29.58 in1001.7 mb 0.00 in0.0 mm 0.00 in0.0 mm 0.00 in0.0 mm
11:58 AM 86.2°F30.1°C 45.1°F7.3°C 24% 3.4 mph SSE5.5 kmh SSE 5.4 mph8.7 kmh 29.58 in1001.7 mb 0.00 in0.0 mm 0.00 in0.0 mm 0.00 in0.0 mm
11:57 AM 86.4°F30.2°C 46.4°F8.0°C 25% 3.1 mph SE5.0 kmh SE 5.4 mph8.7 kmh 29.58 in1001.7 mb 0.00 in0.0 mm 0.00 in0.0 mm 0.00 in0.0 mm
11:56 AM 86.2°F30.1°C 44.0°F6.7°C 23% 2.1 mph SE3.4 kmh SE 5.4 mph8.7 kmh 29.58 in1001.7 mb 0.00 in0.0 mm 0.00 in0.0 mm 0.00 in0.0 mm
11:55 AM 86.2°F30.1°C 44.0°F6.7°C 23% 1.7 mph SE2.7 kmh SE 4.4 mph7.1 kmh 29.58 in1001.7 mb 0.00 in0.0 mm 0.00 in0.0 mm 0.00 in0.0 mm
11:54 AM 86.4°F30.2°C 45.3°F7.4°C 24% 2.4 mph SSE3.9 kmh SSE 4.4 mph7.1 kmh 29.58 in1001.7 mb 0.00 in0.0 mm 0.00 in0.0 mm 0.00 in0.0 mm
11:53 AM 86.4°F30.2°C 45.3°F7.4°C 24% 2.4 mph SSE3.9 kmh SSE 4.4 mph7.1 kmh 29.58 in1001.7 mb 0.00 in0.0 mm 0.00 in0.0 mm 0.00 in0.0 mm
11:52 AM 86.4°F30.2°C 47.4°F8.6°C 26% 2.0 mph SE3.2 kmh SE 4.4 mph7.1 kmh 29.58 in1001.7 mb 0.00 in0.0 mm 0.00 in0.0 mm 0.00 in0.0 mm
11:51 AM 86.4°F30.2°C 45.3°F7.4°C 24% 1.4 mph ESE2.3 kmh ESE 6.7 mph10.8 kmh 29.58 in1001.7 mb 0.00 in0.0 mm 0.00 in0.0 mm 0.00 in0.0 mm
11:50 AM 86.4°F30.2°C 44.2°F6.8°C 23% 1.2 mph E1.9 kmh E 6.7 mph10.8 kmh 29.58 in1001.7 mb 0.00 in0.0 mm 0.00 in0.0 mm 0.00 in0.0 mm
11:49 AM 86.4°F30.2°C 45.3°F7.4°C 24% 1.0 mph E1.6 kmh E 6.7 mph10.8 kmh 29.58 in1001.7 mb 0.00 in0.0 mm 0.00 in0.0 mm 0.00 in0.0 mm
11:48 AM 86.4°F30.2°C 45.3°F7.4°C 24% 1.8 mph E2.9 kmh E 6.7 mph10.8 kmh 29.58 in1001.7 mb 0.00 in0.0 mm 0.00 in0.0 mm 0.00 in0.0 mm
11:47 AM 86.4°F30.2°C 45.3°F7.4°C 24% 2.3 mph E3.7 kmh E 6.7 mph10.8 kmh 29.58 in1001.7 mb 0.00 in0.0 mm 0.00 in0.0 mm 0.00 in0.0 mm
11:46 AM 86.4°F30.2°C 44.2°F6.8°C 23% 1.9 mph SE3.1 kmh SE 6.7 mph10.8 kmh 29.58 in1001.7 mb 0.00 in0.0 mm 0.00 in0.0 mm 0.00 in0.0 mm
11:45 AM 86.4°F30.2°C 43.0°F6.1°C 22% 1.2 mph SSE1.9 kmh SSE 6.7 mph10.8 kmh 29.58 in1001.7 mb 0.00 in0.0 mm 0.00 in0.0 mm 0.00 in0.0 mm
11:44 AM 86.4°F30.2°C 44.2°F6.8°C 23% 1.3 mph SSE2.1 kmh SSE 6.7 mph10.8 kmh 29.58 in1001.7 mb 0.00 in0.0 mm 0.00 in0.0 mm 0.00 in0.0 mm
11:43 AM 86.4°F30.2°C 44.2°F6.8°C 23% 2.7 mph SSE4.3 kmh SSE 6.7 mph10.8 kmh 29.58 in1001.7 mb 0.00 in0.0 mm 0.00 in0.0 mm 0.00 in0.0 mm
11:42 AM 86.4°F30.2°C 44.2°F6.8°C 23% 3.3 mph SE5.3 kmh SE 6.7 mph10.8 kmh 29.58 in1001.7 mb 0.00 in0.0 mm 0.00 in0.0 mm 0.00 in0.0 mm
11:41 AM 86.4°F30.2°C 43.0°F6.1°C 22% 2.0 mph SE3.2 kmh SE 6.7 mph10.8 kmh 29.58 in1001.7 mb 0.00 in0.0 mm 0.00 in0.0 mm 0.00 in0.0 mm
11:40 AM 86.2°F30.1°C 42.9°F6.1°C 22% 1.6 mph SE2.6 kmh SE 5.4 mph8.7 kmh 29.58 in1001.7 mb 0.00 in0.0 mm 0.00 in0.0 mm 0.00 in0.0 mm
11:39 AM 86.2°F30.1°C 44.0°F6.7°C 23% 2.3 mph SE3.7 kmh SE 5.4 mph8.7 kmh 29.58 in1001.7 mb 0.00 in0.0 mm 0.00 in0.0 mm 0.00 in0.0 mm
11:38 AM 86.2°F30.1°C 44.0°F6.7°C 23% 2.8 mph SE4.5 kmh SE 5.4 mph8.7 kmh 29.59 in1002.0 mb 0.00 in0.0 mm 0.00 in0.0 mm 0.00 in0.0 mm
11:37 AM 86.4°F30.2°C 44.2°F6.8°C 23% 2.2 mph SSE3.5 kmh SSE 5.4 mph8.7 kmh 29.59 in1002.0 mb 0.00 in0.0 mm 0.00 in0.0 mm 0.00 in0.0 mm
11:36 AM 86.2°F30.1°C 45.1°F7.3°C 24% 2.0 mph SSE3.2 kmh SSE 5.4 mph8.7 kmh 29.59 in1002.0 mb 0.00 in0.0 mm 0.00 in0.0 mm 0.00 in0.0 mm
11:35 AM 86.2°F30.1°C 45.1°F7.3°C 24% 2.7 mph SE4.3 kmh SE 5.4 mph8.7 kmh 29.59 in1002.0 mb 0.00 in0.0 mm 0.00 in0.0 mm 0.00 in0.0 mm
11:34 AM 86.2°F30.1°C 47.2°F8.4°C 26% 2.9 mph ESE4.7 kmh ESE 5.4 mph8.7 kmh 29.59 in1002.0 mb 0.00 in0.0 mm 0.00 in0.0 mm 0.00 in0.0 mm
11:33 AM 86.2°F30.1°C 46.2°F7.9°C 25% 2.3 mph SE3.7 kmh SE 4.4 mph7.1 kmh 29.59 in1002.0 mb 0.00 in0.0 mm 0.00 in0.0 mm 0.00 in0.0 mm
11:32 AM 86.2°F30.1°C 47.2°F8.4°C 26% 1.7 mph SE2.7 kmh SE 4.4 mph7.1 kmh 29.59 in1002.0 mb 0.00 in0.0 mm 0.00 in0.0 mm 0.00 in0.0 mm
11:31 AM 86.2°F30.1°C 46.2°F7.9°C 25% 1.1 mph SE1.8 kmh SE 5.4 mph8.7 kmh 29.59 in1002.0 mb 0.00 in0.0 mm 0.00 in0.0 mm 0.00 in0.0 mm
11:30 AM 86.2°F30.1°C 46.2°F7.9°C 25% 1.1 mph SE1.8 kmh SE 5.4 mph8.7 kmh 29.59 in1002.0 mb 0.00 in0.0 mm 0.00 in0.0 mm 0.00 in0.0 mm
11:29 AM 86.2°F30.1°C 46.2°F7.9°C 25% 1.7 mph SE2.7 kmh SE 7.0 mph11.3 kmh 29.59 in1002.0 mb 0.00 in0.0 mm 0.00 in0.0 mm 0.00 in0.0 mm
11:28 AM 86.2°F30.1°C 44.0°F6.7°C 23% 2.4 mph SE3.9 kmh SE 7.0 mph11.3 kmh 29.59 in1002.0 mb 0.00 in0.0 mm 0.00 in0.0 mm 0.00 in0.0 mm
11:27 AM 86.2°F30.1°C 45.1°F7.3°C 24% 2.3 mph SE3.7 kmh SE 7.0 mph11.3 kmh 29.59 in1002.0 mb 0.00 in0.0 mm 0.00 in0.0 mm 0.00 in0.0 mm
11:26 AM 86.2°F30.1°C 42.9°F6.1°C 22% 1.4 mph SSE2.3 kmh SSE 7.0 mph11.3 kmh 29.59 in1002.0 mb 0.00 in0.0 mm 0.00 in0.0 mm 0.00 in0.0 mm
11:25 AM 86.0°F30.0°C 42.7°F5.9°C 22% 1.5 mph SSE2.4 kmh SSE 7.0 mph11.3 kmh 29.59 in1002.0 mb 0.00 in0.0 mm 0.00 in0.0 mm 0.00 in0.0 mm
11:24 AM 86.0°F30.0°C 42.7°F5.9°C 22% 2.0 mph SSE3.2 kmh SSE 7.0 mph11.3 kmh 29.59 in1002.0 mb 0.00 in0.0 mm 0.00 in0.0 mm 0.00 in0.0 mm
11:23 AM 86.0°F30.0°C 43.9°F6.6°C 23% 2.8 mph SSE4.5 kmh SSE 7.0 mph11.3 kmh 29.59 in1002.0 mb 0.00 in0.0 mm 0.00 in0.0 mm 0.00 in0.0 mm
11:22 AM 86.0°F30.0°C 43.9°F6.6°C 23% 2.5 mph SSE4.0 kmh SSE 7.0 mph11.3 kmh 29.59 in1002.0 mb 0.00 in0.0 mm 0.00 in0.0 mm 0.00 in0.0 mm
11:21 AM 85.9°F29.9°C 42.6°F5.9°C 22% 3.3 mph SE5.3 kmh SE 7.0 mph11.3 kmh 29.59 in1002.0 mb 0.00 in0.0 mm 0.00 in0.0 mm 0.00 in0.0 mm
11:20 AM 85.9°F29.9°C 42.6°F5.9°C 22% 5.1 mph SE8.2 kmh SE 7.0 mph11.3 kmh 29.59 in1002.0 mb 0.00 in0.0 mm 0.00 in0.0 mm 0.00 in0.0 mm
11:19 AM 85.9°F29.9°C 42.6°F5.9°C 22% 4.7 mph SE7.6 kmh SE 7.0 mph11.3 kmh 29.59 in1002.0 mb 0.00 in0.0 mm 0.00 in0.0 mm 0.00 in0.0 mm
11:18 AM 85.7°F29.8°C 43.6°F6.4°C 23% 2.8 mph SE4.5 kmh SE 6.0 mph9.7 kmh 29.59 in1002.0 mb 0.00 in0.0 mm 0.00 in0.0 mm 0.00 in0.0 mm
11:17 AM 85.7°F29.8°C 41.3°F5.2°C 21% 2.2 mph SE3.5 kmh SE 4.7 mph7.6 kmh 29.59 in1002.0 mb 0.00 in0.0 mm 0.00 in0.0 mm 0.00 in0.0 mm
11:16 AM 85.7°F29.8°C 42.5°F5.8°C 22% 2.5 mph SSE4.0 kmh SSE 4.7 mph7.6 kmh 29.59 in1002.0 mb 0.00 in0.0 mm 0.00 in0.0 mm 0.00 in0.0 mm
11:15 AM 85.6°F29.8°C 42.3°F5.7°C 22% 2.4 mph SE3.9 kmh SE 4.7 mph7.6 kmh 29.59 in1002.0 mb 0.00 in0.0 mm 0.00 in0.0 mm 0.00 in0.0 mm
11:14 AM 85.6°F29.8°C 42.3°F5.7°C 22% 2.5 mph SE4.0 kmh SE 4.4 mph7.1 kmh 29.59 in1002.0 mb 0.00 in0.0 mm 0.00 in0.0 mm 0.00 in0.0 mm
11:13 AM 85.6°F29.8°C 42.3°F5.7°C 22% 2.8 mph SE4.5 kmh SE 5.1 mph8.2 kmh 29.59 in1002.0 mb 0.00 in0.0 mm 0.00 in0.0 mm 0.00 in0.0 mm
11:12 AM 85.6°F29.8°C 42.3°F5.7°C 22% 2.3 mph SE3.7 kmh SE 6.7 mph10.8 kmh 29.59 in1002.0 mb 0.00 in0.0 mm 0.00 in0.0 mm 0.00 in0.0 mm
11:11 AM 85.4°F29.7°C 42.2°F5.7°C 22% 1.6 mph SE2.6 kmh SE 6.7 mph10.8 kmh 29.59 in1002.0 mb 0.00 in0.0 mm 0.00 in0.0 mm 0.00 in0.0 mm
11:10 AM 85.4°F29.7°C 41.0°F5.0°C 21% 1.8 mph SE2.9 kmh SE 6.7 mph10.8 kmh 29.59 in1002.0 mb 0.00 in0.0 mm 0.00 in0.0 mm 0.00 in0.0 mm
11:09 AM 85.4°F29.7°C 41.0°F5.0°C 21% 2.4 mph S3.9 kmh S 6.7 mph10.8 kmh 29.60 in1002.4 mb 0.00 in0.0 mm 0.00 in0.0 mm 0.00 in0.0 mm
11:08 AM 85.4°F29.7°C 42.2°F5.7°C 22% 2.6 mph S4.2 kmh S 6.7 mph10.8 kmh 29.59 in1002.0 mb 0.00 in0.0 mm 0.00 in0.0 mm 0.00 in0.0 mm
11:07 AM 85.4°F29.7°C 42.2°F5.7°C 22% 2.3 mph SSE3.7 kmh SSE 6.7 mph10.8 kmh 29.59 in1002.0 mb 0.00 in0.0 mm 0.00 in0.0 mm 0.00 in0.0 mm
11:06 AM 85.6°F29.8°C 44.6°F7.0°C 24% 2.4 mph SSE3.9 kmh SSE 6.7 mph10.8 kmh 29.59 in1002.0 mb 0.00 in0.0 mm 0.00 in0.0 mm 0.00 in0.0 mm
11:05 AM 85.6°F29.8°C 45.6°F7.6°C 25% 3.4 mph S5.5 kmh S 6.7 mph10.8 kmh 29.59 in1002.0 mb 0.00 in0.0 mm 0.00 in0.0 mm 0.00 in0.0 mm
11:04 AM 85.6°F29.8°C 45.6°F7.6°C 25% 4.4 mph S7.1 kmh S 6.7 mph10.8 kmh 29.59 in1002.0 mb 0.00 in0.0 mm 0.00 in0.0 mm 0.00 in0.0 mm
11:03 AM 85.7°F29.8°C 45.8°F7.7°C 25% 4.2 mph S6.8 kmh S 6.7 mph10.8 kmh 29.59 in1002.0 mb 0.00 in0.0 mm 0.00 in0.0 mm 0.00 in0.0 mm
11:02 AM 85.7°F29.8°C 44.7°F7.1°C 24% 3.2 mph SE5.1 kmh SE 7.9 mph12.7 kmh 29.59 in1002.0 mb 0.00 in0.0 mm 0.00 in0.0 mm 0.00 in0.0 mm
11:01 AM 85.7°F29.8°C 43.6°F6.4°C 23% 2.7 mph SE4.3 kmh SE 7.9 mph12.7 kmh 29.59 in1002.0 mb 0.00 in0.0 mm 0.00 in0.0 mm 0.00 in0.0 mm
11:00 AM 85.9°F29.9°C 44.9°F7.2°C 24% 2.2 mph SE3.5 kmh SE 7.9 mph12.7 kmh 29.59 in1002.0 mb 0.00 in0.0 mm 0.00 in0.0 mm 0.00 in0.0 mm
10:59 AM 85.9°F29.9°C 44.9°F7.2°C 24% 2.5 mph SE4.0 kmh SE 7.9 mph12.7 kmh 29.59 in1002.0 mb 0.00 in0.0 mm 0.00 in0.0 mm 0.00 in0.0 mm
10:58 AM 85.7°F29.8°C 45.8°F7.7°C 25% 2.7 mph SSE4.3 kmh SSE 7.9 mph12.7 kmh 29.59 in1002.0 mb 0.00 in0.0 mm 0.00 in0.0 mm 0.00 in0.0 mm
10:57 AM 85.7°F29.8°C 44.7°F7.1°C 24% 2.5 mph SE4.0 kmh SE 7.9 mph12.7 kmh 29.59 in1002.0 mb 0.00 in0.0 mm 0.00 in0.0 mm 0.00 in0.0 mm
10:56 AM 85.7°F29.8°C 45.8°F7.7°C 25% 2.2 mph ESE3.5 kmh ESE 7.9 mph12.7 kmh 29.58 in1001.7 mb 0.00 in0.0 mm 0.00 in0.0 mm 0.00 in0.0 mm
10:55 AM 85.7°F29.8°C 45.8°F7.7°C 25% 2.2 mph ESE3.5 kmh ESE 7.9 mph12.7 kmh 29.59 in1002.0 mb 0.00 in0.0 mm 0.00 in0.0 mm 0.00 in0.0 mm
10:54 AM 85.7°F29.8°C 45.8°F7.7°C 25% 3.9 mph SE6.3 kmh SE 7.9 mph12.7 kmh 29.59 in1002.0 mb 0.00 in0.0 mm 0.00 in0.0 mm 0.00 in0.0 mm
10:53 AM 85.7°F29.8°C 45.8°F7.7°C 25% 4.2 mph SE6.8 kmh SE 7.9 mph12.7 kmh 29.58 in1001.7 mb 0.00 in0.0 mm 0.00 in0.0 mm 0.00 in0.0 mm
10:52 AM 85.7°F29.8°C 46.8°F8.2°C 26% 2.8 mph SE4.5 kmh SE 7.0 mph11.3 kmh 29.59 in1002.0 mb 0.00 in0.0 mm 0.00 in0.0 mm 0.00 in0.0 mm
10:51 AM 85.7°F29.8°C 46.8°F8.2°C 26% 2.6 mph SE4.2 kmh SE 7.0 mph11.3 kmh 29.59 in1002.0 mb 0.00 in0.0 mm 0.00 in0.0 mm 0.00 in0.0 mm
10:50 AM 85.7°F29.8°C 46.8°F8.2°C 26% 2.3 mph SE3.7 kmh SE 7.0 mph11.3 kmh 29.59 in1002.0 mb 0.00 in0.0 mm 0.00 in0.0 mm 0.00 in0.0 mm
10:49 AM 85.9°F29.9°C 48.0°F8.9°C 27% 2.5 mph SSE4.0 kmh SSE 7.0 mph11.3 kmh 29.59 in1002.0 mb 0.00 in0.0 mm 0.00 in0.0 mm 0.00 in0.0 mm
10:48 AM 85.9°F29.9°C 49.9°F9.9°C 29% 3.9 mph SSE6.3 kmh SSE 7.0 mph11.3 kmh 29.59 in1002.0 mb 0.00 in0.0 mm 0.00 in0.0 mm 0.00 in0.0 mm
10:47 AM 85.9°F29.9°C 50.8°F10.4°C 30% 4.1 mph SSE6.6 kmh SSE 7.0 mph11.3 kmh 29.59 in1002.0 mb 0.00 in0.0 mm 0.00 in0.0 mm 0.00 in0.0 mm
10:46 AM 85.9°F29.9°C 50.8°F10.4°C 30% 3.6 mph S5.8 kmh S 5.4 mph8.7 kmh 29.59 in1002.0 mb 0.00 in0.0 mm 0.00 in0.0 mm 0.00 in0.0 mm
10:45 AM 86.0°F30.0°C 52.6°F11.4°C 32% 4.0 mph S6.4 kmh S 5.4 mph8.7 kmh 29.59 in1002.0 mb 0.00 in0.0 mm 0.00 in0.0 mm 0.00 in0.0 mm
10:44 AM 86.0°F30.0°C 52.6°F11.4°C 32% 4.1 mph SSE6.6 kmh SSE 5.4 mph8.7 kmh 29.59 in1002.0 mb 0.00 in0.0 mm 0.00 in0.0 mm 0.00 in0.0 mm
10:43 AM 86.2°F30.1°C 52.8°F11.6°C 32% 3.3 mph SSE5.3 kmh SSE 5.4 mph8.7 kmh 29.59 in1002.0 mb 0.00 in0.0 mm 0.00 in0.0 mm 0.00 in0.0 mm
10:42 AM 86.2°F30.1°C 53.6°F12.0°C 33% 2.9 mph SE4.7 kmh SE 5.4 mph8.7 kmh 29.59 in1002.0 mb 0.00 in0.0 mm 0.00 in0.0 mm 0.00 in0.0 mm
10:41 AM 86.4°F30.2°C 53.8°F12.1°C 33% 3.0 mph SE4.8 kmh SE 5.4 mph8.7 kmh 29.59 in1002.0 mb 0.00 in0.0 mm 0.00 in0.0 mm 0.00 in0.0 mm
10:40 AM 86.6°F30.3°C 54.0°F12.2°C 33% 2.5 mph SSE4.0 kmh SSE 5.1 mph8.2 kmh 29.59 in1002.0 mb 0.00 in0.0 mm 0.00 in0.0 mm 0.00 in0.0 mm
10:39 AM 86.6°F30.3°C 53.1°F11.7°C 32% 2.4 mph SSE3.9 kmh SSE 5.1 mph8.2 kmh 29.59 in1002.0 mb 0.00 in0.0 mm 0.00 in0.0 mm 0.00 in0.0 mm
10:38 AM 86.6°F30.3°C 53.1°F11.7°C 32% 2.7 mph SSE4.3 kmh SSE 5.1 mph8.2 kmh 29.60 in1002.4 mb 0.00 in0.0 mm 0.00 in0.0 mm 0.00 in0.0 mm
10:37 AM 86.8°F30.4°C 54.1°F12.3°C 33% 3.3 mph SE5.3 kmh SE 5.1 mph8.2 kmh 29.60 in1002.4 mb 0.00 in0.0 mm 0.00 in0.0 mm 0.00 in0.0 mm
10:36 AM 86.6°F30.3°C 53.1°F11.7°C 32% 3.5 mph SE5.6 kmh SE 5.1 mph8.2 kmh 29.60 in1002.4 mb 0.00 in0.0 mm 0.00 in0.0 mm 0.00 in0.0 mm
10:35 AM 86.6°F30.3°C 51.4°F10.8°C 30% 3.1 mph SE5.0 kmh SE 5.1 mph8.2 kmh 29.60 in1002.4 mb 0.00 in0.0 mm 0.00 in0.0 mm 0.00 in0.0 mm
10:34 AM 86.6°F30.3°C 51.4°F10.8°C 30% 2.3 mph SE3.7 kmh SE 4.7 mph7.6 kmh 29.60 in1002.4 mb 0.00 in0.0 mm 0.00 in0.0 mm 0.00 in0.0 mm
10:33 AM 86.6°F30.3°C 50.5°F10.3°C 29% 2.2 mph SSE3.5 kmh SSE 4.4 mph7.1 kmh 29.60 in1002.4 mb 0.00 in0.0 mm 0.00 in0.0 mm 0.00 in0.0 mm
10:32 AM 86.8°F30.4°C 51.5°F10.8°C 30% 2.3 mph SSE3.7 kmh SSE 4.4 mph7.1 kmh 29.60 in1002.4 mb 0.00 in0.0 mm 0.00 in0.0 mm 0.00 in0.0 mm
10:31 AM 86.6°F30.3°C 51.4°F10.8°C 30% 1.7 mph SSE2.7 kmh SSE 4.4 mph7.1 kmh 29.60 in1002.4 mb 0.00 in0.0 mm 0.00 in0.0 mm 0.00 in0.0 mm
10:30 AM 86.6°F30.3°C 51.4°F10.8°C 30% 1.3 mph SE2.1 kmh SE 4.4 mph7.1 kmh 29.60 in1002.4 mb 0.00 in0.0 mm 0.00 in0.0 mm 0.00 in0.0 mm
10:29 AM 86.6°F30.3°C 51.4°F10.8°C 30% 1.6 mph SE2.6 kmh SE 4.4 mph7.1 kmh 29.60 in1002.4 mb 0.00 in0.0 mm 0.00 in0.0 mm 0.00 in0.0 mm
10:28 AM 86.6°F30.3°C 53.1°F11.7°C 32% 2.4 mph SE3.9 kmh SE 4.4 mph7.1 kmh 29.59 in1002.0 mb 0.00 in0.0 mm 0.00 in0.0 mm 0.00 in0.0 mm
10:27 AM 86.6°F30.3°C 54.0°F12.2°C 33% 2.2 mph SE3.5 kmh SE 4.7 mph7.6 kmh 29.60 in1002.4 mb 0.00 in0.0 mm 0.00 in0.0 mm 0.00 in0.0 mm
10:26 AM 86.8°F30.4°C 54.1°F12.3°C 33% 2.1 mph SE3.4 kmh SE 4.7 mph7.6 kmh 29.60 in1002.4 mb 0.00 in0.0 mm 0.00 in0.0 mm 0.00 in0.0 mm
10:25 AM 86.8°F30.4°C 54.1°F12.3°C 33% 2.2 mph SE3.5 kmh SE 4.7 mph7.6 kmh 29.60 in1002.4 mb 0.00 in0.0 mm 0.00 in0.0 mm 0.00 in0.0 mm
10:24 AM 86.8°F30.4°C 53.3°F11.8°C 32% 1.8 mph SE2.9 kmh SE 4.7 mph7.6 kmh 29.60 in1002.4 mb 0.00 in0.0 mm 0.00 in0.0 mm 0.00 in0.0 mm
10:23 AM 86.8°F30.4°C 54.1°F12.3°C 33% 1.7 mph SE2.7 kmh SE 4.7 mph7.6 kmh 29.60 in1002.4 mb 0.00 in0.0 mm 0.00 in0.0 mm 0.00 in0.0 mm
10:22 AM 86.8°F30.4°C 54.1°F12.3°C 33% 2.0 mph SE3.2 kmh SE 4.7 mph7.6 kmh 29.60 in1002.4 mb 0.00 in0.0 mm 0.00 in0.0 mm 0.00 in0.0 mm
10:21 AM 86.8°F30.4°C 55.0°F12.8°C 34% 2.0 mph SE3.2 kmh SE 4.7 mph7.6 kmh 29.60 in1002.4 mb 0.00 in0.0 mm 0.00 in0.0 mm 0.00 in0.0 mm
10:20 AM 86.8°F30.4°C 51.5°F10.8°C 30% 1.9 mph SE3.1 kmh SE 4.7 mph7.6 kmh 29.59 in1002.0 mb 0.00 in0.0 mm 0.00 in0.0 mm 0.00 in0.0 mm
10:19 AM 86.8°F30.4°C 51.5°F10.8°C 30% 2.4 mph SE3.9 kmh SE 4.7 mph7.6 kmh 29.60 in1002.4 mb 0.00 in0.0 mm 0.00 in0.0 mm 0.00 in0.0 mm
10:18 AM 86.8°F30.4°C 50.6°F10.3°C 29% 3.2 mph SE5.1 kmh SE 4.7 mph7.6 kmh 29.59 in1002.0 mb 0.00 in0.0 mm 0.00 in0.0 mm 0.00 in0.0 mm
10:17 AM 86.6°F30.3°C 51.4°F10.8°C 30% 3.3 mph SE5.3 kmh SE 4.7 mph7.6 kmh 29.59 in1002.0 mb 0.00 in0.0 mm 0.00 in0.0 mm 0.00 in0.0 mm
10:16 AM 86.6°F30.3°C 51.4°F10.8°C 30% 2.4 mph SE3.9 kmh SE 4.4 mph7.1 kmh 29.59 in1002.0 mb 0.00 in0.0 mm 0.00 in0.0 mm 0.00 in0.0 mm
10:15 AM 86.6°F30.3°C 53.1°F11.7°C 32% 1.5 mph SE2.4 kmh SE 4.4 mph7.1 kmh 29.60 in1002.4 mb 0.00 in0.0 mm 0.00 in0.0 mm 0.00 in0.0 mm
10:14 AM 86.8°F30.4°C 53.3°F11.8°C 32% 2.0 mph SSE3.2 kmh SSE 4.4 mph7.1 kmh 29.60 in1002.4 mb 0.00 in0.0 mm 0.00 in0.0 mm 0.00 in0.0 mm
10:13 AM 86.8°F30.4°C 53.3°F11.8°C 32% 2.7 mph S4.3 kmh S 4.4 mph7.1 kmh 29.60 in1002.4 mb 0.00 in0.0 mm 0.00 in0.0 mm 0.00 in0.0 mm
10:12 AM 86.8°F30.4°C 54.1°F12.3°C 33% 2.2 mph S3.5 kmh S 4.4 mph7.1 kmh 29.60 in1002.4 mb 0.00 in0.0 mm 0.00 in0.0 mm 0.00 in0.0 mm
10:11 AM 86.9°F30.5°C 55.9°F13.3°C 35% 1.9 mph S3.1 kmh S 4.4 mph7.1 kmh 29.60 in1002.4 mb 0.00 in0.0 mm 0.00 in0.0 mm 0.00 in0.0 mm
10:10 AM 86.9°F30.5°C 56.6°F13.7°C 36% 2.1 mph S3.4 kmh S 4.4 mph7.1 kmh 29.59 in1002.0 mb 0.00 in0.0 mm 0.00 in0.0 mm 0.00 in0.0 mm
10:09 AM 87.3°F30.7°C 57.0°F13.9°C 36% 2.2 mph SSE3.5 kmh SSE 4.4 mph7.1 kmh 29.59 in1002.0 mb 0.00 in0.0 mm 0.00 in0.0 mm 0.00 in0.0 mm
10:08 AM 87.3°F30.7°C 57.0°F13.9°C 36% 2.6 mph SSE4.2 kmh SSE 4.4 mph7.1 kmh 29.59 in1002.0 mb 0.00 in0.0 mm 0.00 in0.0 mm 0.00 in0.0 mm
10:07 AM 87.5°F30.8°C 57.2°F14.0°C 36% 2.9 mph S4.7 kmh S 4.4 mph7.1 kmh 29.59 in1002.0 mb 0.00 in0.0 mm 0.00 in0.0 mm 0.00 in0.0 mm
10:06 AM 87.7°F30.9°C 59.6°F15.3°C 39% 2.7 mph S4.3 kmh S 4.4 mph7.1 kmh 29.59 in1002.0 mb 0.00 in0.0 mm 0.00 in0.0 mm 0.00 in0.0 mm
10:05 AM 87.8°F31.0°C 57.4°F14.1°C 36% 2.0 mph S3.2 kmh S 4.4 mph7.1 kmh 29.59 in1002.0 mb 0.00 in0.0 mm 0.00 in0.0 mm 0.00 in0.0 mm
10:04 AM 88.0°F31.1°C 58.4°F14.7°C 37% 1.3 mph SE2.1 kmh SE 4.4 mph7.1 kmh 29.59 in1002.0 mb 0.00 in0.0 mm 0.00 in0.0 mm 0.00 in0.0 mm
10:03 AM 88.0°F31.1°C 59.9°F15.5°C 39% 1.4 mph ESE2.3 kmh ESE 7.0 mph11.3 kmh 29.59 in1002.0 mb 0.00 in0.0 mm 0.00 in0.0 mm 0.00 in0.0 mm
10:02 AM 88.0°F31.1°C 59.9°F15.5°C 39% 2.4 mph SE3.9 kmh SE 7.0 mph11.3 kmh 29.59 in1002.0 mb 0.00 in0.0 mm 0.00 in0.0 mm 0.00 in0.0 mm
10:01 AM 88.0°F31.1°C 60.6°F15.9°C 40% 3.1 mph SE5.0 kmh SE 7.5 mph12.1 kmh 29.59 in1002.0 mb 0.00 in0.0 mm 0.00 in0.0 mm 0.00 in0.0 mm
10:00 AM 88.2°F31.2°C 60.8°F16.0°C 40% 2.4 mph SE3.9 kmh SE 7.5 mph12.1 kmh 29.59 in1002.0 mb 0.00 in0.0 mm 0.00 in0.0 mm 0.00 in0.0 mm
09:59 AM 88.2°F31.2°C 60.0°F15.6°C 39% 1.7 mph ESE2.7 kmh ESE 7.5 mph12.1 kmh 29.59 in1002.0 mb 0.00 in0.0 mm 0.00 in0.0 mm 0.00 in0.0 mm
09:58 AM 88.4°F31.3°C 61.0°F16.1°C 40% 1.7 mph ESE2.7 kmh ESE 7.5 mph12.1 kmh 29.59 in1002.0 mb 0.00 in0.0 mm 0.00 in0.0 mm 0.00 in0.0 mm
09:57 AM 88.4°F31.3°C 61.0°F16.1°C 40% 1.8 mph SE2.9 kmh SE 7.5 mph12.1 kmh 29.59 in1002.0 mb 0.00 in0.0 mm 0.00 in0.0 mm 0.00 in0.0 mm
09:56 AM 88.6°F31.4°C 63.2°F17.3°C 43% 1.6 mph SSE2.6 kmh SSE 7.5 mph12.1 kmh 29.59 in1002.0 mb 0.00 in0.0 mm 0.00 in0.0 mm 0.00 in0.0 mm
09:55 AM 88.7°F31.5°C 62.6°F17.0°C 42% 2.1 mph SSE3.4 kmh SSE 8.2 mph13.2 kmh 29.59 in1002.0 mb 0.00 in0.0 mm 0.00 in0.0 mm 0.00 in0.0 mm
09:54 AM 88.9°F31.6°C 63.5°F17.5°C 43% 3.9 mph SSE6.3 kmh SSE 8.2 mph13.2 kmh 29.59 in1002.0 mb 0.00 in0.0 mm 0.00 in0.0 mm 0.00 in0.0 mm
09:53 AM 89.2°F31.8°C 63.9°F17.7°C 43% 4.2 mph SSE6.8 kmh SSE 8.2 mph13.2 kmh 29.58 in1001.7 mb 0.00 in0.0 mm 0.00 in0.0 mm 0.00 in0.0 mm
09:52 AM 89.2°F31.8°C 64.5°F18.1°C 44% 2.7 mph SE4.3 kmh SE 8.2 mph13.2 kmh 29.58 in1001.7 mb 0.00 in0.0 mm 0.00 in0.0 mm 0.00 in0.0 mm
09:51 AM 89.4°F31.9°C 64.7°F18.2°C 44% 1.8 mph ESE2.9 kmh ESE 8.2 mph13.2 kmh 29.58 in1001.7 mb 0.00 in0.0 mm 0.00 in0.0 mm 0.00 in0.0 mm
09:50 AM 89.5°F31.9°C 65.5°F18.6°C 45% 2.8 mph ESE4.5 kmh ESE 8.2 mph13.2 kmh 29.58 in1001.7 mb 0.00 in0.0 mm 0.00 in0.0 mm 0.00 in0.0 mm
09:49 AM 89.5°F31.9°C 66.1°F18.9°C 46% 3.6 mph ESE5.8 kmh ESE 8.2 mph13.2 kmh 29.58 in1001.7 mb 0.00 in0.0 mm 0.00 in0.0 mm 0.00 in0.0 mm
09:48 AM 89.7°F32.1°C 65.0°F18.3°C 44% 2.5 mph ESE4.0 kmh ESE 8.2 mph13.2 kmh 29.58 in1001.7 mb 0.00 in0.0 mm 0.00 in0.0 mm 0.00 in0.0 mm
09:47 AM 89.9°F32.2°C 63.8°F17.7°C 42% 3.9 mph SE6.3 kmh SE 8.2 mph13.2 kmh 29.58 in1001.7 mb 0.00 in0.0 mm 0.00 in0.0 mm 0.00 in0.0 mm
09:46 AM 90.1°F32.3°C 64.6°F18.1°C 43% 5.7 mph SE9.2 kmh SE 8.2 mph13.2 kmh 29.58 in1001.7 mb 0.00 in0.0 mm 0.00 in0.0 mm 0.00 in0.0 mm
09:45 AM 90.1°F32.3°C 68.5°F20.3°C 49% 4.5 mph SE7.2 kmh SE 8.2 mph13.2 kmh 29.58 in1001.7 mb 0.00 in0.0 mm 0.00 in0.0 mm 0.00 in0.0 mm
09:44 AM 90.3°F32.4°C 64.8°F18.2°C 43% 3.2 mph S5.1 kmh S 7.0 mph11.3 kmh 29.58 in1001.7 mb 0.00 in0.0 mm 0.00 in0.0 mm 0.00 in0.0 mm
09:43 AM 90.4°F32.4°C 64.2°F17.9°C 42% 2.7 mph S4.3 kmh S 6.0 mph9.7 kmh 29.58 in1001.7 mb 0.00 in0.0 mm 0.00 in0.0 mm 0.00 in0.0 mm
09:42 AM 90.6°F32.6°C 64.4°F18.0°C 42% 2.5 mph S4.0 kmh S 6.0 mph9.7 kmh 29.58 in1001.7 mb 0.00 in0.0 mm 0.00 in0.0 mm 0.00 in0.0 mm
09:41 AM 91.0°F32.8°C 67.4°F19.7°C 46% 3.7 mph S6.0 kmh S 6.0 mph9.7 kmh 29.58 in1001.7 mb 0.00 in0.0 mm 0.00 in0.0 mm 0.00 in0.0 mm
09:40 AM 91.2°F32.9°C 66.3°F19.1°C 44% 4.1 mph S6.6 kmh S 7.9 mph12.7 kmh 29.58 in1001.7 mb 0.00 in0.0 mm 0.00 in0.0 mm 0.00 in0.0 mm
09:39 AM 91.3°F32.9°C 68.4°F20.2°C 47% 3.5 mph SSE5.6 kmh SSE 7.9 mph12.7 kmh 29.58 in1001.7 mb 0.00 in0.0 mm 0.00 in0.0 mm 0.00 in0.0 mm
09:38 AM 91.5°F33.1°C 65.2°F18.4°C 42% 3.1 mph SE5.0 kmh SE 7.9 mph12.7 kmh 29.58 in1001.7 mb 0.00 in0.0 mm 0.00 in0.0 mm 0.00 in0.0 mm
09:37 AM 91.3°F32.9°C 64.3°F17.9°C 41% 2.8 mph SE4.5 kmh SE 7.9 mph12.7 kmh 29.58 in1001.7 mb 0.00 in0.0 mm 0.00 in0.0 mm 0.00 in0.0 mm
09:36 AM 91.3°F32.9°C 64.3°F17.9°C 41% 1.9 mph ESE3.1 kmh ESE 7.9 mph12.7 kmh 29.58 in1001.7 mb 0.00 in0.0 mm 0.00 in0.0 mm 0.00 in0.0 mm
09:35 AM 91.2°F32.9°C 62.7°F17.1°C 39% 1.6 mph E2.6 kmh E 7.9 mph12.7 kmh 29.58 in1001.7 mb 0.00 in0.0 mm 0.00 in0.0 mm 0.00 in0.0 mm
09:34 AM 91.2°F32.9°C 61.2°F16.2°C 37% 1.5 mph ENE2.4 kmh ENE 7.9 mph12.7 kmh 29.58 in1001.7 mb 0.00 in0.0 mm 0.00 in0.0 mm 0.00 in0.0 mm
09:33 AM 91.2°F32.9°C 60.4°F15.8°C 36% 2.4 mph NE3.9 kmh NE 7.9 mph12.7 kmh 29.58 in1001.7 mb 0.00 in0.0 mm 0.00 in0.0 mm 0.00 in0.0 mm
09:32 AM 91.2°F32.9°C 60.4°F15.8°C 36% 3.5 mph NE5.6 kmh NE 7.9 mph12.7 kmh 29.58 in1001.7 mb 0.00 in0.0 mm 0.00 in0.0 mm 0.00 in0.0 mm
09:31 AM 91.0°F32.8°C 62.6°F17.0°C 39% 2.7 mph NE4.3 kmh NE 7.9 mph12.7 kmh 29.58 in1001.7 mb 0.00 in0.0 mm 0.00 in0.0 mm 0.00 in0.0 mm
09:30 AM 90.6°F32.6°C 59.1°F15.1°C 35% 1.6 mph ESE2.6 kmh ESE 6.0 mph9.7 kmh 29.58 in1001.7 mb 0.00 in0.0 mm 0.00 in0.0 mm 0.00 in0.0 mm
09:29 AM 90.4°F32.4°C 58.9°F14.9°C 35% 2.7 mph ESE4.3 kmh ESE 6.0 mph9.7 kmh 29.58 in1001.7 mb 0.00 in0.0 mm 0.00 in0.0 mm 0.00 in0.0 mm
09:28 AM 90.3°F32.4°C 58.9°F14.9°C 35% 2.5 mph ESE4.0 kmh ESE 6.0 mph9.7 kmh 29.58 in1001.7 mb 0.00 in0.0 mm 0.00 in0.0 mm 0.00 in0.0 mm
09:27 AM 90.3°F32.4°C 58.9°F14.9°C 35% 2.0 mph SE3.2 kmh SE 6.0 mph9.7 kmh 29.58 in1001.7 mb 0.00 in0.0 mm 0.00 in0.0 mm 0.00 in0.0 mm
09:26 AM 90.4°F32.4°C 62.0°F16.7°C 39% 2.5 mph SE4.0 kmh SE 7.0 mph11.3 kmh 29.58 in1001.7 mb 0.00 in0.0 mm 0.00 in0.0 mm 0.00 in0.0 mm
09:25 AM 90.4°F32.4°C 63.5°F17.5°C 41% 3.2 mph SE5.1 kmh SE 7.0 mph11.3 kmh 29.58 in1001.7 mb 0.00 in0.0 mm 0.00 in0.0 mm 0.00 in0.0 mm
09:24 AM 90.6°F32.6°C 65.8°F18.8°C 44% 3.0 mph SE4.8 kmh SE 7.0 mph11.3 kmh 29.58 in1001.7 mb 0.00 in0.0 mm 0.00 in0.0 mm 0.00 in0.0 mm
09:23 AM 90.8°F32.7°C 64.6°F18.1°C 42% 2.5 mph SSE4.0 kmh SSE 7.0 mph11.3 kmh 29.58 in1001.7 mb 0.00 in0.0 mm 0.00 in0.0 mm 0.00 in0.0 mm
09:22 AM 91.5°F33.1°C 67.2°F19.6°C 45% 2.9 mph SSE4.7 kmh SSE 7.0 mph11.3 kmh 29.58 in1001.7 mb 0.00 in0.0 mm 0.00 in0.0 mm 0.00 in0.0 mm
09:21 AM 91.5°F33.1°C 67.2°F19.6°C 45% 2.8 mph SSE4.5 kmh SSE 7.0 mph11.3 kmh 29.58 in1001.7 mb 0.00 in0.0 mm 0.00 in0.0 mm 0.00 in0.0 mm
09:20 AM 91.9°F33.3°C 66.2°F19.0°C 43% 2.4 mph SE3.9 kmh SE 7.0 mph11.3 kmh 29.58 in1001.7 mb 0.00 in0.0 mm 0.00 in0.0 mm 0.00 in0.0 mm
09:19 AM 92.1°F33.4°C 65.0°F18.3°C 41% 2.9 mph SE4.7 kmh SE 7.0 mph11.3 kmh 29.58 in1001.7 mb 0.00 in0.0 mm 0.00 in0.0 mm 0.00 in0.0 mm
09:18 AM 92.2°F33.4°C 65.8°F18.8°C 42% 4.3 mph SE6.9 kmh SE 7.0 mph11.3 kmh 29.58 in1001.7 mb 0.00 in0.0 mm 0.00 in0.0 mm 0.00 in0.0 mm
09:17 AM 92.2°F33.4°C 65.1°F18.4°C 41% 4.0 mph SE6.4 kmh SE 7.0 mph11.3 kmh 29.58 in1001.7 mb 0.00 in0.0 mm 0.00 in0.0 mm 0.00 in0.0 mm
09:16 AM 92.2°F33.4°C 63.6°F17.6°C 39% 3.2 mph SE5.1 kmh SE 7.0 mph11.3 kmh 29.58 in1001.7 mb 0.00 in0.0 mm 0.00 in0.0 mm 0.00 in0.0 mm
09:15 AM 92.1°F33.4°C 56.1°F13.4°C 30% 2.6 mph SE4.2 kmh SE 6.0 mph9.7 kmh 29.58 in1001.7 mb 0.00 in0.0 mm 0.00 in0.0 mm 0.00 in0.0 mm
09:14 AM 91.9°F33.3°C 52.0°F11.1°C 26% 1.4 mph ESE2.3 kmh ESE 4.4 mph7.1 kmh 29.58 in1001.7 mb 0.00 in0.0 mm 0.00 in0.0 mm 0.00 in0.0 mm
09:13 AM 91.7°F33.2°C 50.8°F10.4°C 25% 1.2 mph E1.9 kmh E 4.4 mph7.1 kmh 29.58 in1001.7 mb 0.00 in0.0 mm 0.00 in0.0 mm 0.00 in0.0 mm
09:12 AM 91.5°F33.1°C 50.6°F10.3°C 25% 1.8 mph E2.9 kmh E 4.4 mph7.1 kmh 29.58 in1001.7 mb 0.00 in0.0 mm 0.00 in0.0 mm 0.00 in0.0 mm
09:11 AM 91.5°F33.1°C 51.7°F10.9°C 26% 3.0 mph E4.8 kmh E 4.4 mph7.1 kmh 29.58 in1001.7 mb 0.00 in0.0 mm 0.00 in0.0 mm 0.00 in0.0 mm
09:10 AM 91.0°F32.8°C 43.0°F6.1°C 19% 2.4 mph E3.9 kmh E 4.4 mph7.1 kmh 29.58 in1001.7 mb 0.00 in0.0 mm 0.00 in0.0 mm 0.00 in0.0 mm
09:09 AM 91.0°F32.8°C 43.0°F6.1°C 19% 1.4 mph E2.3 kmh E 4.4 mph7.1 kmh 29.58 in1001.7 mb 0.00 in0.0 mm 0.00 in0.0 mm 0.00 in0.0 mm
09:08 AM 90.6°F32.6°C 42.7°F5.9°C 19% 2.4 mph E3.9 kmh E 4.4 mph7.1 kmh 29.58 in1001.7 mb 0.00 in0.0 mm 0.00 in0.0 mm 0.00 in0.0 mm
09:07 AM 90.3°F32.4°C 38.0°F3.3°C 16% 2.2 mph E3.5 kmh E 4.4 mph7.1 kmh 29.58 in1001.7 mb 0.00 in0.0 mm 0.00 in0.0 mm 0.00 in0.0 mm
09:06 AM 90.3°F32.4°C 36.3°F2.4°C 15% 1.3 mph E2.1 kmh E 3.5 mph5.6 kmh 29.58 in1001.7 mb 0.00 in0.0 mm 0.00 in0.0 mm 0.00 in0.0 mm
09:05 AM 90.1°F32.3°C 36.2°F2.3°C 15% 1.3 mph ESE2.1 kmh ESE 4.4 mph7.1 kmh 29.58 in1001.7 mb 0.00 in0.0 mm 0.00 in0.0 mm 0.00 in0.0 mm
09:04 AM 89.7°F32.1°C 25.6°F-3.6°C 10% 1.0 mph S1.6 kmh S 4.4 mph7.1 kmh 29.58 in1001.7 mb 0.00 in0.0 mm 0.00 in0.0 mm 0.00 in0.0 mm
09:03 AM 89.7°F32.1°C 28.0°F-2.2°C 11% 0.9 mph SSE1.4 kmh SSE 4.4 mph7.1 kmh 29.58 in1001.7 mb 0.00 in0.0 mm 0.00 in0.0 mm 0.00 in0.0 mm
09:02 AM 89.7°F32.1°C 28.0°F-2.2°C 11% 1.1 mph SE1.8 kmh SE 4.4 mph7.1 kmh 29.58 in1001.7 mb 0.00 in0.0 mm 0.00 in0.0 mm 0.00 in0.0 mm
09:01 AM 89.5°F31.9°C 32.1°F0.1°C 13% 1.6 mph ESE2.6 kmh ESE 4.4 mph7.1 kmh 29.58 in1001.7 mb 0.00 in0.0 mm 0.00 in0.0 mm 0.00 in0.0 mm
09:00 AM 89.0°F31.7°C 13.3°F-10.4°C 6% 1.8 mph ESE2.9 kmh ESE 4.4 mph7.1 kmh 29.58 in1001.7 mb 0.00 in0.0 mm 0.00 in0.0 mm 0.00 in0.0 mm
08:59 AM 89.0°F31.7°C 13.3°F-10.4°C 6% 2.2 mph SE3.5 kmh SE 4.4 mph7.1 kmh 29.58 in1001.7 mb 0.00 in0.0 mm 0.00 in0.0 mm 0.00 in0.0 mm
08:58 AM 89.0°F31.7°C 19.7°F-6.8°C 8% 2.2 mph SE3.5 kmh SE 4.4 mph7.1 kmh 29.58 in1001.7 mb 0.00 in0.0 mm 0.00 in0.0 mm 0.00 in0.0 mm
08:57 AM 88.6°F31.4°C -9.5°F-23.1°C 1% 2.5 mph SE4.0 kmh SE 4.4 mph7.1 kmh 29.58 in1001.7 mb 0.00 in0.0 mm 0.00 in0.0 mm 0.00 in0.0 mm
08:56 AM 87.7°F30.9°C -10.1°F-23.4°C 1% 2.2 mph SE3.5 kmh SE 4.4 mph7.1 kmh 29.58 in1001.7 mb 0.00 in0.0 mm 0.00 in0.0 mm 0.00 in0.0 mm
08:55 AM 86.8°F30.4°C -10.6°F-23.7°C 1% 0.9 mph SE1.4 kmh SE 3.1 mph5.0 kmh 29.58 in1001.7 mb 0.00 in0.0 mm 0.00 in0.0 mm 0.00 in0.0 mm
08:54 AM 86.0°F30.0°C -11.1°F-23.9°C 1% 0.4 mph E0.6 kmh E 2.3 mph3.7 kmh 29.58 in1001.7 mb 0.00 in0.0 mm 0.00 in0.0 mm 0.00 in0.0 mm
08:53 AM 85.6°F29.8°C -11.4°F-24.1°C 1% 0.6 mph E1.0 kmh E 7.0 mph11.3 kmh 29.58 in1001.7 mb 0.00 in0.0 mm 0.00 in0.0 mm 0.00 in0.0 mm
08:52 AM 85.1°F29.5°C -11.7°F-24.3°C 1% 0.8 mph ENE1.3 kmh ENE 7.0 mph11.3 kmh 29.58 in1001.7 mb 0.00 in0.0 mm 0.00 in0.0 mm 0.00 in0.0 mm
08:51 AM 84.3°F29.1°C -12.2°F-24.6°C 1% 0.9 mph E1.4 kmh E 7.0 mph11.3 kmh 29.58 in1001.7 mb 0.00 in0.0 mm 0.00 in0.0 mm 0.00 in0.0 mm
08:50 AM 83.6°F28.7°C -12.7°F-24.8°C 1% 1.1 mph E1.8 kmh E 7.0 mph11.3 kmh 29.58 in1001.7 mb 0.00 in0.0 mm 0.00 in0.0 mm 0.00 in0.0 mm
08:49 AM 83.3°F28.5°C -12.8°F-24.9°C 1% 1.2 mph E1.9 kmh E 7.0 mph11.3 kmh 29.58 in1001.7 mb 0.00 in0.0 mm 0.00 in0.0 mm 0.00 in0.0 mm
08:48 AM 83.1°F28.4°C -13.0°F-25.0°C 1% 0.9 mph E1.4 kmh E 7.0 mph11.3 kmh 29.58 in1001.7 mb 0.00 in0.0 mm 0.00 in0.0 mm 0.00 in0.0 mm
08:47 AM 82.4°F28.0°C -13.4°F-25.2°C 1% 0.8 mph NE1.3 kmh NE 7.0 mph11.3 kmh 29.58 in1001.7 mb 0.00 in0.0 mm 0.00 in0.0 mm 0.00 in0.0 mm
08:46 AM 82.1°F27.8°C -13.6°F-25.3°C 1% 1.2 mph NE1.9 kmh NE 7.0 mph11.3 kmh 29.58 in1001.7 mb 0.00 in0.0 mm 0.00 in0.0 mm 0.00 in0.0 mm
08:45 AM 81.4°F27.4°C -14.1°F-25.6°C 1% 2.5 mph ENE4.0 kmh ENE 7.0 mph11.3 kmh 29.58 in1001.7 mb 0.00 in0.0 mm 0.00 in0.0 mm 0.00 in0.0 mm
08:44 AM 80.7°F27.1°C -14.5°F-25.8°C 1% 3.3 mph E5.3 kmh E 7.0 mph11.3 kmh 29.58 in1001.7 mb 0.00 in0.0 mm 0.00 in0.0 mm 0.00 in0.0 mm
08:43 AM 79.6°F26.4°C -15.2°F-26.2°C 1% 2.0 mph E3.2 kmh E 7.0 mph11.3 kmh 29.58 in1001.7 mb 0.00 in0.0 mm 0.00 in0.0 mm 0.00 in0.0 mm
08:42 AM 78.8°F26.0°C -15.7°F-26.5°C 1% 1.0 mph SE1.6 kmh SE 3.9 mph6.3 kmh 29.58 in1001.7 mb 0.00 in0.0 mm 0.00 in0.0 mm 0.00 in0.0 mm
08:41 AM 78.2°F25.7°C -16.1°F-26.7°C 1% 0.9 mph SE1.4 kmh SE 6.0 mph9.7 kmh 29.58 in1001.7 mb 0.00 in0.0 mm 0.00 in0.0 mm 0.00 in0.0 mm
08:40 AM 78.2°F25.7°C -16.1°F-26.7°C 1% 1.7 mph SE2.7 kmh SE 6.0 mph9.7 kmh 29.58 in1001.7 mb 0.00 in0.0 mm 0.00 in0.0 mm 0.00 in0.0 mm
08:39 AM 77.7°F25.4°C -16.4°F-26.9°C 1% 1.6 mph SE2.6 kmh SE 6.0 mph9.7 kmh 29.58 in1001.7 mb 0.00 in0.0 mm 0.00 in0.0 mm 0.00 in0.0 mm
08:38 AM 77.5°F25.3°C -16.6°F-27.0°C 1% 1.7 mph SE2.7 kmh SE 6.0 mph9.7 kmh 29.58 in1001.7 mb 0.00 in0.0 mm 0.00 in0.0 mm 0.00 in0.0 mm
08:37 AM 77.3°F25.2°C -16.7°F-27.1°C 1% 1.7 mph SE2.7 kmh SE 6.0 mph9.7 kmh 29.58 in1001.7 mb 0.00 in0.0 mm 0.00 in0.0 mm 0.00 in0.0 mm
08:36 AM 77.2°F25.1°C -16.7°F-27.1°C 1% 1.6 mph SSE2.6 kmh SSE 6.0 mph9.7 kmh 29.58 in1001.7 mb 0.00 in0.0 mm 0.00 in0.0 mm 0.00 in0.0 mm
08:35 AM 77.0°F25.0°C -16.9°F-27.2°C 1% 2.3 mph SE3.7 kmh SE 6.0 mph9.7 kmh 29.58 in1001.7 mb 0.00 in0.0 mm 0.00 in0.0 mm 0.00 in0.0 mm
08:34 AM 77.0°F25.0°C -16.9°F-27.2°C 1% 2.8 mph SE4.5 kmh SE 6.0 mph9.7 kmh 29.58 in1001.7 mb 0.00 in0.0 mm 0.00 in0.0 mm 0.00 in0.0 mm
08:33 AM 76.8°F24.9°C -17.0°F-27.2°C 1% 2.8 mph SE4.5 kmh SE 6.0 mph9.7 kmh 29.57 in1001.4 mb 0.00 in0.0 mm 0.00 in0.0 mm 0.00 in0.0 mm
08:32 AM 76.4°F24.7°C -17.2°F-27.3°C 1% 2.7 mph SE4.3 kmh SE 6.0 mph9.7 kmh 29.57 in1001.4 mb 0.00 in0.0 mm 0.00 in0.0 mm 0.00 in0.0 mm
08:31 AM 76.1°F24.5°C -17.4°F-27.4°C 1% 2.7 mph SSE4.3 kmh SSE 4.4 mph7.1 kmh 29.57 in1001.4 mb 0.00 in0.0 mm 0.00 in0.0 mm 0.00 in0.0 mm
08:30 AM 76.1°F24.5°C -17.4°F-27.4°C 1% 3.1 mph SSE5.0 kmh SSE 4.4 mph7.1 kmh 29.57 in1001.4 mb 0.00 in0.0 mm 0.00 in0.0 mm 0.00 in0.0 mm
08:29 AM 75.8°F24.3°C -17.7°F-27.6°C 1% Calm Calm -- 29.57 in1001.4 mb 0.00 in0.0 mm 0.00 in0.0 mm 0.00 in0.0 mm
08:28 AM 75.8°F24.3°C -17.7°F-27.6°C 1% Calm Calm -- 29.57 in1001.4 mb 0.00 in0.0 mm 0.00 in0.0 mm 0.00 in0.0 mm
08:27 AM 75.5°F24.2°C -17.9°F-27.7°C 1% Calm Calm -- 29.57 in1001.4 mb 0.00 in0.0 mm 0.00 in0.0 mm 0.00 in0.0 mm
08:26 AM 75.3°F24.1°C -18.0°F-27.8°C 1% Calm Calm -- 29.57 in1001.4 mb 0.00 in0.0 mm 0.00 in0.0 mm 0.00 in0.0 mm
08:25 AM 75.1°F23.9°C -18.1°F-27.8°C 1% Calm Calm -- 29.57 in1001.4 mb 0.00 in0.0 mm 0.00 in0.0 mm 0.00 in0.0 mm
08:24 AM 74.7°F23.7°C -18.4°F-28.0°C 1% Calm Calm -- 29.57 in1001.4 mb 0.00 in0.0 mm 0.00 in0.0 mm 0.00 in0.0 mm
08:23 AM 74.6°F23.7°C -18.4°F-28.0°C 1% Calm Calm -- 29.57 in1001.4 mb 0.00 in0.0 mm 0.00 in0.0 mm 0.00 in0.0 mm
08:22 AM 74.4°F23.6°C -18.5°F-28.1°C 1% Calm Calm -- 29.58 in1001.7 mb 0.00 in0.0 mm 0.00 in0.0 mm 0.00 in0.0 mm
08:21 AM 74.2°F23.4°C -18.7°F-28.2°C 1% Calm Calm -- 29.58 in1001.7 mb 0.00 in0.0 mm 0.00 in0.0 mm 0.00 in0.0 mm
08:20 AM 74.0°F23.3°C -18.8°F-28.2°C 1% Calm Calm -- 29.58 in1001.7 mb 0.00 in0.0 mm 0.00 in0.0 mm 0.00 in0.0 mm
08:19 AM 73.7°F23.2°C -19.0°F-28.3°C 1% Calm Calm -- 29.58 in1001.7 mb 0.00 in0.0 mm 0.00 in0.0 mm 0.00 in0.0 mm
08:18 AM 73.7°F23.2°C -19.0°F-28.3°C 1% Calm Calm -- 29.58 in1001.7 mb 0.00 in0.0 mm 0.00 in0.0 mm 0.00 in0.0 mm
08:17 AM 73.5°F23.1°C -19.1°F-28.4°C 1% Calm Calm -- 29.58 in1001.7 mb 0.00 in0.0 mm 0.00 in0.0 mm 0.00 in0.0 mm
08:16 AM 73.3°F22.9°C -19.2°F-28.4°C 1% Calm Calm -- 29.58 in1001.7 mb 0.00 in0.0 mm 0.00 in0.0 mm 0.00 in0.0 mm
08:15 AM 73.3°F22.9°C -19.2°F-28.4°C 1% Calm Calm -- 29.58 in1001.7 mb 0.00 in0.0 mm 0.00 in0.0 mm 0.00 in0.0 mm
08:14 AM 72.9°F22.7°C -19.5°F-28.6°C 1% Calm Calm -- 29.58 in1001.7 mb 0.00 in0.0 mm 0.00 in0.0 mm 0.00 in0.0 mm
08:13 AM 72.9°F22.7°C -19.5°F-28.6°C 1% Calm Calm -- 29.58 in1001.7 mb 0.00 in0.0 mm 0.00 in0.0 mm 0.00 in0.0 mm
08:12 AM 72.7°F22.6°C -19.7°F-28.7°C 1% Calm Calm -- 29.58 in1001.7 mb 0.00 in0.0 mm 0.00 in0.0 mm 0.00 in0.0 mm
08:11 AM 72.7°F22.6°C -19.7°F-28.7°C 1% Calm Calm -- 29.58 in1001.7 mb 0.00 in0.0 mm 0.00 in0.0 mm 0.00 in0.0 mm
08:10 AM 72.7°F22.6°C -19.7°F-28.7°C 1% Calm Calm -- 29.58 in1001.7 mb 0.00 in0.0 mm 0.00 in0.0 mm 0.00 in0.0 mm
08:09 AM 72.5°F22.5°C -19.8°F-28.8°C 1% Calm Calm -- 29.58 in1001.7 mb 0.00 in0.0 mm 0.00 in0.0 mm 0.00 in0.0 mm
08:08 AM 72.3°F22.4°C -19.9°F-28.8°C 1% Calm Calm -- 29.58 in1001.7 mb 0.00 in0.0 mm 0.00 in0.0 mm 0.00 in0.0 mm
08:07 AM 72.3°F22.4°C -19.9°F-28.8°C 1% Calm Calm -- 29.58 in1001.7 mb 0.00 in0.0 mm 0.00 in0.0 mm 0.00 in0.0 mm
08:06 AM 72.1°F22.3°C -20.0°F-28.9°C 1% Calm Calm -- 29.58 in1001.7 mb 0.00 in0.0 mm 0.00 in0.0 mm 0.00 in0.0 mm
08:05 AM 72.1°F22.3°C -20.0°F-28.9°C 1% Calm Calm -- 29.58 in1001.7 mb 0.00 in0.0 mm 0.00 in0.0 mm 0.00 in0.0 mm
08:04 AM 72.0°F22.2°C -20.1°F-28.9°C 1% Calm Calm -- 29.58 in1001.7 mb 0.00 in0.0 mm 0.00 in0.0 mm 0.00 in0.0 mm
08:03 AM 71.8°F22.1°C -20.2°F-29.0°C 1% Calm Calm -- 29.58 in1001.7 mb 0.00 in0.0 mm 0.00 in0.0 mm 0.00 in0.0 mm
08:02 AM 71.8°F22.1°C -20.2°F-29.0°C 1% Calm Calm -- 29.58 in1001.7 mb 0.00 in0.0 mm 0.00 in0.0 mm 0.00 in0.0 mm
08:01 AM 71.8°F22.1°C -20.2°F-29.0°C 1% Calm Calm -- 29.58 in1001.7 mb 0.00 in0.0 mm 0.00 in0.0 mm 0.00 in0.0 mm
08:00 AM 71.8°F22.1°C -20.2°F-29.0°C 1% Calm Calm -- 29.58 in1001.7 mb 0.00 in0.0 mm 0.00 in0.0 mm 0.00 in0.0 mm
07:59 AM 71.6°F22.0°C -20.3°F-29.1°C 1% Calm Calm -- 29.58 in1001.7 mb 0.00 in0.0 mm 0.00 in0.0 mm 0.00 in0.0 mm
07:58 AM 71.4°F21.9°C -20.5°F-29.2°C 1% Calm Calm -- 29.58 in1001.7 mb 0.00 in0.0 mm 0.00 in0.0 mm 0.00 in0.0 mm
07:57 AM 71.4°F21.9°C -20.5°F-29.2°C 1% Calm Calm -- 29.58 in1001.7 mb 0.00 in0.0 mm 0.00 in0.0 mm 0.00 in0.0 mm
07:56 AM 71.4°F21.9°C -20.5°F-29.2°C 1% Calm Calm -- 29.58 in1001.7 mb 0.00 in0.0 mm 0.00 in0.0 mm 0.00 in0.0 mm
07:55 AM 71.4°F21.9°C -20.5°F-29.2°C 1% Calm Calm -- 29.58 in1001.7 mb 0.00 in0.0 mm 0.00 in0.0 mm 0.00 in0.0 mm
07:54 AM 71.2°F21.8°C -20.6°F-29.2°C 1% Calm Calm -- 29.58 in1001.7 mb 0.00 in0.0 mm 0.00 in0.0 mm 0.00 in0.0 mm
07:53 AM 71.2°F21.8°C -20.6°F-29.2°C 1% Calm Calm -- 29.58 in1001.7 mb 0.00 in0.0 mm 0.00 in0.0 mm 0.00 in0.0 mm
07:52 AM 71.2°F21.8°C -20.6°F-29.2°C 1% Calm Calm -- 29.58 in1001.7 mb 0.00 in0.0 mm 0.00 in0.0 mm 0.00 in0.0 mm
07:51 AM 71.1°F21.7°C -20.7°F-29.3°C 1% Calm Calm -- 29.58 in1001.7 mb 0.00 in0.0 mm 0.00 in0.0 mm 0.00 in0.0 mm
07:50 AM 71.1°F21.7°C -20.7°F-29.3°C 1% Calm Calm -- 29.58 in1001.7 mb 0.00 in0.0 mm 0.00 in0.0 mm 0.00 in0.0 mm
07:49 AM 70.9°F21.6°C -20.8°F-29.3°C 1% Calm Calm -- 29.58 in1001.7 mb 0.00 in0.0 mm 0.00 in0.0 mm 0.00 in0.0 mm
07:48 AM 70.9°F21.6°C -20.8°F-29.3°C 1% Calm Calm -- 29.58 in1001.7 mb 0.00 in0.0 mm 0.00 in0.0 mm 0.00 in0.0 mm
07:47 AM 70.9°F21.6°C -20.8°F-29.3°C 1% Calm Calm -- 29.58 in1001.7 mb 0.00 in0.0 mm 0.00 in0.0 mm 0.00 in0.0 mm
07:46 AM 70.9°F21.6°C -20.8°F-29.3°C 1% Calm Calm -- 29.58 in1001.7 mb 0.00 in0.0 mm 0.00 in0.0 mm 0.00 in0.0 mm
07:45 AM 70.9°F21.6°C -20.8°F-29.3°C 1% Calm Calm -- 29.58 in1001.7 mb 0.00 in0.0 mm 0.00 in0.0 mm 0.00 in0.0 mm
07:44 AM 70.7°F21.5°C -20.9°F-29.4°C 1% Calm Calm -- 29.58 in1001.7 mb 0.00 in0.0 mm 0.00 in0.0 mm 0.00 in0.0 mm
07:43 AM 70.7°F21.5°C -20.9°F-29.4°C 1% Calm Calm -- 29.59 in1002.0 mb 0.00 in0.0 mm 0.00 in0.0 mm 0.00 in0.0 mm
07:42 AM 70.5°F21.4°C -21.0°F-29.4°C 1% Calm Calm -- 29.59 in1002.0 mb 0.00 in0.0 mm 0.00 in0.0 mm 0.00 in0.0 mm
07:41 AM 70.5°F21.4°C -21.0°F-29.4°C 1% Calm Calm -- 29.59 in1002.0 mb 0.00 in0.0 mm 0.00 in0.0 mm 0.00 in0.0 mm
07:40 AM 70.5°F21.4°C -21.0°F-29.4°C 1% Calm Calm -- 29.59 in1002.0 mb 0.00 in0.0 mm 0.00 in0.0 mm 0.00 in0.0 mm
07:39 AM 70.5°F21.4°C -21.0°F-29.4°C 1% Calm Calm -- 29.59 in1002.0 mb 0.00 in0.0 mm 0.00 in0.0 mm 0.00 in0.0 mm
07:38 AM 70.3°F21.3°C -21.2°F-29.6°C 1% Calm Calm -- 29.59 in1002.0 mb 0.00 in0.0 mm 0.00 in0.0 mm 0.00 in0.0 mm
07:37 AM 70.3°F21.3°C -21.2°F-29.6°C 1% Calm Calm -- 29.59 in1002.0 mb 0.00 in0.0 mm 0.00 in0.0 mm 0.00 in0.0 mm
07:36 AM 70.3°F21.3°C -21.2°F-29.6°C 1% Calm Calm -- 29.59 in1002.0 mb 0.00 in0.0 mm 0.00 in0.0 mm 0.00 in0.0 mm
07:35 AM 70.3°F21.3°C -21.2°F-29.6°C 1% Calm Calm -- 29.59 in1002.0 mb 0.00 in0.0 mm 0.00 in0.0 mm 0.00 in0.0 mm
07:34 AM 70.3°F21.3°C -21.2°F-29.6°C 1% Calm Calm -- 29.59 in1002.0 mb 0.00 in0.0 mm 0.00 in0.0 mm 0.00 in0.0 mm
07:33 AM 70.3°F21.3°C -21.2°F-29.6°C 1% Calm Calm -- 29.59 in1002.0 mb 0.00 in0.0 mm 0.00 in0.0 mm 0.00 in0.0 mm
07:32 AM 70.3°F21.3°C -21.2°F-29.6°C 1% Calm Calm -- 29.59 in1002.0 mb 0.00 in0.0 mm 0.00 in0.0 mm 0.00 in0.0 mm
07:31 AM 70.2°F21.2°C -21.2°F-29.6°C 1% Calm Calm -- 29.59 in1002.0 mb 0.00 in0.0 mm 0.00 in0.0 mm 0.00 in0.0 mm
07:30 AM 70.2°F21.2°C -21.2°F-29.6°C 1% Calm Calm -- 29.59 in1002.0 mb 0.00 in0.0 mm 0.00 in0.0 mm 0.00 in0.0 mm
07:29 AM 70.2°F21.2°C -21.2°F-29.6°C 1% Calm Calm -- 29.59 in1002.0 mb 0.00 in0.0 mm 0.00 in0.0 mm 0.00 in0.0 mm
07:28 AM 70.0°F21.1°C -21.3°F-29.6°C 1% Calm Calm -- 29.59 in1002.0 mb 0.00 in0.0 mm 0.00 in0.0 mm 0.00 in0.0 mm
07:27 AM 70.0°F21.1°C -21.3°F-29.6°C 1% Calm Calm -- 29.59 in1002.0 mb 0.00 in0.0 mm 0.00 in0.0 mm 0.00 in0.0 mm
07:26 AM 70.0°F21.1°C -21.3°F-29.6°C 1% Calm Calm -- 29.59 in1002.0 mb 0.00 in0.0 mm 0.00 in0.0 mm 0.00 in0.0 mm
07:25 AM 70.0°F21.1°C -21.3°F-29.6°C 1% Calm Calm -- 29.59 in1002.0 mb 0.00 in0.0 mm 0.00 in0.0 mm 0.00 in0.0 mm
07:24 AM 69.8°F21.0°C -21.5°F-29.7°C 1% Calm Calm -- 29.59 in1002.0 mb 0.00 in0.0 mm 0.00 in0.0 mm 0.00 in0.0 mm
07:23 AM 69.8°F21.0°C -21.5°F-29.7°C 1% Calm Calm -- 29.59 in1002.0 mb 0.00 in0.0 mm 0.00 in0.0 mm 0.00 in0.0 mm
07:22 AM 69.8°F21.0°C -21.5°F-29.7°C 1% Calm Calm -- 29.59 in1002.0 mb 0.00 in0.0 mm 0.00 in0.0 mm 0.00 in0.0 mm
07:21 AM 69.8°F21.0°C -21.5°F-29.7°C 1% Calm Calm -- 29.59 in1002.0 mb 0.00 in0.0 mm 0.00 in0.0 mm 0.00 in0.0 mm
07:20 AM 69.6°F20.9°C -21.6°F-29.8°C 1% Calm Calm -- 29.59 in1002.0 mb 0.00 in0.0 mm 0.00 in0.0 mm 0.00 in0.0 mm
07:19 AM 69.8°F21.0°C -21.5°F-29.7°C 1% Calm Calm -- 29.59 in1002.0 mb 0.00 in0.0 mm 0.00 in0.0 mm 0.00 in0.0 mm
07:18 AM 69.6°F20.9°C -21.6°F-29.8°C 1% Calm Calm -- 29.59 in1002.0 mb 0.00 in0.0 mm 0.00 in0.0 mm 0.00 in0.0 mm
07:17 AM 69.6°F20.9°C -21.6°F-29.8°C 1% Calm Calm -- 29.59 in1002.0 mb 0.00 in0.0 mm 0.00 in0.0 mm 0.00 in0.0 mm
07:16 AM 69.6°F20.9°C -21.6°F-29.8°C 1% Calm Calm -- 29.59 in1002.0 mb 0.00 in0.0 mm 0.00 in0.0 mm 0.00 in0.0 mm
07:15 AM 69.6°F20.9°C -21.6°F-29.8°C 1% Calm Calm -- 29.59 in1002.0 mb 0.00 in0.0 mm 0.00 in0.0 mm 0.00 in0.0 mm
07:14 AM 69.5°F20.8°C -21.7°F-29.8°C 1% Calm Calm -- 29.58 in1001.7 mb 0.00 in0.0 mm 0.00 in0.0 mm 0.00 in0.0 mm
07:13 AM 69.6°F20.9°C -21.6°F-29.8°C 1% Calm Calm -- 29.59 in1002.0 mb 0.00 in0.0 mm 0.00 in0.0 mm 0.00 in0.0 mm
07:12 AM 69.5°F20.8°C -21.7°F-29.8°C 1% Calm Calm -- 29.59 in1002.0 mb 0.00 in0.0 mm 0.00 in0.0 mm 0.00 in0.0 mm
07:11 AM 69.5°F20.8°C -21.7°F-29.8°C 1% Calm Calm -- 29.59 in1002.0 mb 0.00 in0.0 mm 0.00 in0.0 mm 0.00 in0.0 mm
07:10 AM 69.5°F20.8°C -21.7°F-29.8°C 1% Calm Calm -- 29.59 in1002.0 mb 0.00 in0.0 mm 0.00 in0.0 mm 0.00 in0.0 mm
07:09 AM 69.5°F20.8°C -21.7°F-29.8°C 1% Calm Calm -- 29.59 in1002.0 mb 0.00 in0.0 mm 0.00 in0.0 mm 0.00 in0.0 mm
07:08 AM 69.5°F20.8°C -21.7°F-29.8°C 1% Calm Calm -- 29.59 in1002.0 mb 0.00 in0.0 mm 0.00 in0.0 mm 0.00 in0.0 mm
07:07 AM 69.4°F20.8°C -21.8°F-29.9°C 1% Calm Calm -- 29.59 in1002.0 mb 0.00 in0.0 mm 0.00 in0.0 mm 0.00 in0.0 mm
07:06 AM 69.4°F20.8°C -21.8°F-29.9°C 1% Calm Calm -- 29.59 in1002.0 mb 0.00 in0.0 mm 0.00 in0.0 mm 0.00 in0.0 mm
07:05 AM 69.4°F20.8°C -21.8°F-29.9°C 1% Calm Calm -- 29.59 in1002.0 mb 0.00 in0.0 mm 0.00 in0.0 mm 0.00 in0.0 mm
07:04 AM 69.2°F20.7°C -21.9°F-29.9°C 1% Calm Calm -- 29.59 in1002.0 mb 0.00 in0.0 mm 0.00 in0.0 mm 0.00 in0.0 mm
07:03 AM 69.2°F20.7°C -21.9°F-29.9°C 1% Calm Calm -- 29.59 in1002.0 mb 0.00 in0.0 mm 0.00 in0.0 mm 0.00 in0.0 mm
07:02 AM 69.2°F20.7°C -21.9°F-29.9°C 1% Calm Calm -- 29.59 in1002.0 mb 0.00 in0.0 mm 0.00 in0.0 mm 0.00 in0.0 mm
07:01 AM 69.2°F20.7°C -21.9°F-29.9°C 1% Calm Calm -- 29.59 in1002.0 mb 0.00 in0.0 mm 0.00 in0.0 mm 0.00 in0.0 mm
07:00 AM 69.2°F20.7°C -21.9°F-29.9°C 1% Calm Calm -- 29.59 in1002.0 mb 0.00 in0.0 mm 0.00 in0.0 mm 0.00 in0.0 mm
06:59 AM 69.2°F20.7°C -21.9°F-29.9°C 1% Calm Calm 0.3 mph0.5 kmh 29.59 in1002.0 mb 0.00 in0.0 mm 0.00 in0.0 mm 0.00 in0.0 mm
06:58 AM 69.2°F20.7°C -21.9°F-29.9°C 1% Calm Calm 0.3 mph0.5 kmh 29.59 in1002.0 mb 0.00 in0.0 mm 0.00 in0.0 mm 0.00 in0.0 mm
06:57 AM 69.2°F20.7°C -21.9°F-29.9°C 1% Calm Calm 0.3 mph0.5 kmh 29.59 in1002.0 mb 0.00 in0.0 mm 0.00 in0.0 mm 0.00 in0.0 mm
06:56 AM 69.2°F20.7°C -21.9°F-29.9°C 1% Calm Calm 0.3 mph0.5 kmh 29.59 in1002.0 mb 0.00 in0.0 mm 0.00 in0.0 mm 0.00 in0.0 mm
06:55 AM 69.0°F20.6°C -22.0°F-30.0°C 1% Calm Calm 0.3 mph0.5 kmh 29.59 in1002.0 mb 0.00 in0.0 mm 0.00 in0.0 mm 0.00 in0.0 mm
06:54 AM 69.0°F20.6°C -22.0°F-30.0°C 1% Calm Calm 0.3 mph0.5 kmh 29.59 in1002.0 mb 0.00 in0.0 mm 0.00 in0.0 mm 0.00 in0.0 mm
06:53 AM 69.0°F20.6°C -22.0°F-30.0°C 1% Calm Calm 0.3 mph0.5 kmh 29.59 in1002.0 mb 0.00 in0.0 mm 0.00 in0.0 mm 0.00 in0.0 mm
06:52 AM 69.0°F20.6°C -22.0°F-30.0°C 1% Calm Calm 0.3 mph0.5 kmh 29.59 in1002.0 mb 0.00 in0.0 mm 0.00 in0.0 mm 0.00 in0.0 mm
06:51 AM 68.8°F20.4°C -22.2°F-30.1°C 1% 0.3 mph NW0.5 kmh NW 0.3 mph0.5 kmh 29.59 in1002.0 mb 0.00 in0.0 mm 0.00 in0.0 mm 0.00 in0.0 mm
06:50 AM 69.0°F20.6°C -22.0°F-30.0°C 1% 0.3 mph NW0.5 kmh NW 0.3 mph0.5 kmh 29.59 in1002.0 mb 0.00 in0.0 mm 0.00 in0.0 mm 0.00 in0.0 mm
06:49 AM 68.8°F20.4°C -22.2°F-30.1°C 1% Calm Calm -- 29.59 in1002.0 mb 0.00 in0.0 mm 0.00 in0.0 mm 0.00 in0.0 mm
06:48 AM 68.8°F20.4°C -22.2°F-30.1°C 1% Calm Calm -- 29.59 in1002.0 mb 0.00 in0.0 mm 0.00 in0.0 mm 0.00 in0.0 mm
06:47 AM 68.8°F20.4°C -22.2°F-30.1°C 1% Calm Calm -- 29.59 in1002.0 mb 0.00 in0.0 mm 0.00 in0.0 mm 0.00 in0.0 mm
06:46 AM 68.8°F20.4°C -22.2°F-30.1°C 1% Calm Calm -- 29.59 in1002.0 mb 0.00 in0.0 mm 0.00 in0.0 mm 0.00 in0.0 mm
06:45 AM 68.6°F20.3°C -22.3°F-30.2°C 1% Calm Calm -- 29.59 in1002.0 mb 0.00 in0.0 mm 0.00 in0.0 mm 0.00 in0.0 mm
06:44 AM 68.8°F20.4°C -22.2°F-30.1°C 1% Calm Calm -- 29.59 in1002.0 mb 0.00 in0.0 mm 0.00 in0.0 mm 0.00 in0.0 mm
06:43 AM 68.8°F20.4°C -22.2°F-30.1°C 1% Calm Calm -- 29.59 in1002.0 mb 0.00 in0.0 mm 0.00 in0.0 mm 0.00 in0.0 mm
06:42 AM 68.6°F20.3°C -22.3°F-30.2°C 1% Calm Calm -- 29.59 in1002.0 mb 0.00 in0.0 mm 0.00 in0.0 mm 0.00 in0.0 mm
06:41 AM 68.6°F20.3°C -22.3°F-30.2°C 1% Calm Calm -- 29.59 in1002.0 mb 0.00 in0.0 mm 0.00 in0.0 mm 0.00 in0.0 mm
06:40 AM 68.6°F20.3°C -22.3°F-30.2°C 1% Calm Calm -- 29.59 in1002.0 mb 0.00 in0.0 mm 0.00 in0.0 mm 0.00 in0.0 mm
06:39 AM 68.5°F20.3°C -22.3°F-30.2°C 1% Calm Calm -- 29.59 in1002.0 mb 0.00 in0.0 mm 0.00 in0.0 mm 0.00 in0.0 mm
06:38 AM 68.6°F20.3°C -22.3°F-30.2°C 1% Calm Calm -- 29.59 in1002.0 mb 0.00 in0.0 mm 0.00 in0.0 mm 0.00 in0.0 mm
06:37 AM 68.5°F20.3°C -22.3°F-30.2°C 1% Calm Calm -- 29.59 in1002.0 mb 0.00 in0.0 mm 0.00 in0.0 mm 0.00 in0.0 mm
06:36 AM 68.5°F20.3°C -22.3°F-30.2°C 1% Calm Calm -- 29.59 in1002.0 mb 0.00 in0.0 mm 0.00 in0.0 mm 0.00 in0.0 mm
06:35 AM 68.5°F20.3°C -22.3°F-30.2°C 1% Calm Calm -- 29.59 in1002.0 mb 0.00 in0.0 mm 0.00 in0.0 mm 0.00 in0.0 mm
06:34 AM 68.5°F20.3°C -22.3°F-30.2°C 1% Calm Calm -- 29.59 in1002.0 mb 0.00 in0.0 mm 0.00 in0.0 mm 0.00 in0.0 mm
06:33 AM 68.5°F20.3°C -22.3°F-30.2°C 1% Calm Calm -- 29.59 in1002.0 mb 0.00 in0.0 mm 0.00 in0.0 mm 0.00 in0.0 mm
06:32 AM 68.5°F20.3°C -22.3°F-30.2°C 1% Calm Calm -- 29.59 in1002.0 mb 0.00 in0.0 mm 0.00 in0.0 mm 0.00 in0.0 mm
06:31 AM 68.5°F20.3°C -22.3°F-30.2°C 1% Calm Calm -- 29.59 in1002.0 mb 0.00 in0.0 mm 0.00 in0.0 mm 0.00 in0.0 mm
06:30 AM 68.5°F20.3°C -22.3°F-30.2°C 1% Calm Calm -- 29.59 in1002.0 mb 0.00 in0.0 mm 0.00 in0.0 mm 0.00 in0.0 mm
06:29 AM 68.5°F20.3°C -22.3°F-30.2°C 1% Calm Calm -- 29.59 in1002.0 mb 0.00 in0.0 mm 0.00 in0.0 mm 0.00 in0.0 mm
06:28 AM 68.5°F20.3°C -22.3°F-30.2°C 1% Calm Calm -- 29.59 in1002.0 mb 0.00 in0.0 mm 0.00 in0.0 mm 0.00 in0.0 mm
06:27 AM 68.5°F20.3°C -22.3°F-30.2°C 1% Calm Calm -- 29.59 in1002.0 mb 0.00 in0.0 mm 0.00 in0.0 mm 0.00 in0.0 mm
06:26 AM 68.5°F20.3°C -22.3°F-30.2°C 1% Calm Calm -- 29.59 in1002.0 mb 0.00 in0.0 mm 0.00 in0.0 mm 0.00 in0.0 mm
06:25 AM 68.3°F20.2°C -22.5°F-30.3°C 1% Calm Calm -- 29.59 in1002.0 mb 0.00 in0.0 mm 0.00 in0.0 mm 0.00 in0.0 mm
06:24 AM 68.3°F20.2°C -22.5°F-30.3°C 1% Calm Calm -- 29.60 in1002.4 mb 0.00 in0.0 mm 0.00 in0.0 mm 0.00 in0.0 mm
06:23 AM 68.1°F20.1°C -22.6°F-30.3°C 1% Calm Calm -- 29.59 in1002.0 mb 0.00 in0.0 mm 0.00 in0.0 mm 0.00 in0.0 mm
06:22 AM 68.1°F20.1°C -22.6°F-30.3°C 1% Calm Calm -- 29.60 in1002.4 mb 0.00 in0.0 mm 0.00 in0.0 mm 0.00 in0.0 mm
06:21 AM 68.1°F20.1°C -22.6°F-30.3°C 1% Calm Calm -- 29.60 in1002.4 mb 0.00 in0.0 mm 0.00 in0.0 mm 0.00 in0.0 mm
06:20 AM 68.1°F20.1°C -22.6°F-30.3°C 1% Calm Calm -- 29.60 in1002.4 mb 0.00 in0.0 mm 0.00 in0.0 mm 0.00 in0.0 mm
06:19 AM 68.1°F20.1°C -22.6°F-30.3°C 1% Calm Calm -- 29.60 in1002.4 mb 0.00 in0.0 mm 0.00 in0.0 mm 0.00 in0.0 mm
06:18 AM 68.1°F20.1°C -22.6°F-30.3°C 1% Calm Calm -- 29.60 in1002.4 mb 0.00 in0.0 mm 0.00 in0.0 mm 0.00 in0.0 mm
06:17 AM 68.1°F20.1°C -22.6°F-30.3°C 1% Calm Calm -- 29.60 in1002.4 mb 0.00 in0.0 mm 0.00 in0.0 mm 0.00 in0.0 mm
06:16 AM 68.1°F20.1°C -22.6°F-30.3°C 1% Calm Calm -- 29.60 in1002.4 mb 0.00 in0.0 mm 0.00 in0.0 mm 0.00 in0.0 mm
06:15 AM 68.1°F20.1°C -22.6°F-30.3°C 1% Calm Calm -- 29.60 in1002.4 mb 0.00 in0.0 mm 0.00 in0.0 mm 0.00 in0.0 mm
06:14 AM 68.1°F20.1°C -22.6°F-30.3°C 1% Calm Calm -- 29.60 in1002.4 mb 0.00 in0.0 mm 0.00 in0.0 mm 0.00 in0.0 mm
06:13 AM 68.1°F20.1°C -22.6°F-30.3°C 1% Calm Calm -- 29.60 in1002.4 mb 0.00 in0.0 mm 0.00 in0.0 mm 0.00 in0.0 mm
06:12 AM 68.1°F20.1°C -22.6°F-30.3°C 1% Calm Calm -- 29.60 in1002.4 mb 0.00 in0.0 mm 0.00 in0.0 mm 0.00 in0.0 mm
06:11 AM 68.1°F20.1°C -22.6°F-30.3°C 1% Calm Calm -- 29.60 in1002.4 mb 0.00 in0.0 mm 0.00 in0.0 mm 0.00 in0.0 mm
06:10 AM 68.1°F20.1°C -22.6°F-30.3°C 1% Calm Calm -- 29.59 in1002.0 mb 0.00 in0.0 mm 0.00 in0.0 mm 0.00 in0.0 mm
06:09 AM 68.1°F20.1°C -22.6°F-30.3°C 1% Calm Calm -- 29.59 in1002.0 mb 0.00 in0.0 mm 0.00 in0.0 mm 0.00 in0.0 mm
06:08 AM 68.1°F20.1°C -22.6°F-30.3°C 1% Calm Calm -- 29.60 in1002.4 mb 0.00 in0.0 mm 0.00 in0.0 mm 0.00 in0.0 mm
06:07 AM 68.1°F20.1°C -22.6°F-30.3°C 1% Calm Calm -- 29.60 in1002.4 mb 0.00 in0.0 mm 0.00 in0.0 mm 0.00 in0.0 mm
06:06 AM 68.1°F20.1°C -22.6°F-30.3°C 1% Calm Calm -- 29.60 in1002.4 mb 0.00 in0.0 mm 0.00 in0.0 mm 0.00 in0.0 mm
06:05 AM 68.1°F20.1°C -22.6°F-30.3°C 1% Calm Calm -- 29.60 in1002.4 mb 0.00 in0.0 mm 0.00 in0.0 mm 0.00 in0.0 mm
06:04 AM 68.1°F20.1°C -22.6°F-30.3°C 1% Calm Calm -- 29.60 in1002.4 mb 0.00 in0.0 mm 0.00 in0.0 mm 0.00 in0.0 mm
06:03 AM 68.1°F20.1°C -22.6°F-30.3°C 1% Calm Calm -- 29.60 in1002.4 mb 0.00 in0.0 mm 0.00 in0.0 mm 0.00 in0.0 mm
06:02 AM 68.1°F20.1°C -22.6°F-30.3°C 1% Calm Calm -- 29.60 in1002.4 mb 0.00 in0.0 mm 0.00 in0.0 mm 0.00 in0.0 mm
06:01 AM 68.1°F20.1°C -22.6°F-30.3°C 1% Calm Calm -- 29.60 in1002.4 mb 0.00 in0.0 mm 0.00 in0.0 mm 0.00 in0.0 mm
06:00 AM 68.1°F20.1°C -22.6°F-30.3°C 1% Calm Calm -- 29.60 in1002.4 mb 0.00 in0.0 mm 0.00 in0.0 mm 0.00 in0.0 mm
05:59 AM 68.1°F20.1°C -22.6°F-30.3°C 1% Calm Calm -- 29.60 in1002.4 mb 0.00 in0.0 mm 0.00 in0.0 mm 0.00 in0.0 mm
05:58 AM 68.1°F20.1°C -22.6°F-30.3°C 1% Calm Calm -- 29.60 in1002.4 mb 0.00 in0.0 mm 0.00 in0.0 mm 0.00 in0.0 mm
05:57 AM 68.1°F20.1°C -22.6°F-30.3°C 1% Calm Calm -- 29.60 in1002.4 mb 0.00 in0.0 mm 0.00 in0.0 mm 0.00 in0.0 mm
05:56 AM 68.1°F20.1°C -22.6°F-30.3°C 1% Calm Calm -- 29.60 in1002.4 mb 0.00 in0.0 mm 0.00 in0.0 mm 0.00 in0.0 mm
05:55 AM 68.1°F20.1°C -22.6°F-30.3°C 1% Calm Calm -- 29.60 in1002.4 mb 0.00 in0.0 mm 0.00 in0.0 mm 0.00 in0.0 mm
05:54 AM 68.1°F20.1°C -22.6°F-30.3°C 1% Calm Calm -- 29.60 in1002.4 mb 0.00 in0.0 mm 0.00 in0.0 mm 0.00 in0.0 mm
05:53 AM 68.1°F20.1°C -22.6°F-30.3°C 1% Calm Calm -- 29.60 in1002.4 mb 0.00 in0.0 mm 0.00 in0.0 mm 0.00 in0.0 mm
05:52 AM 68.1°F20.1°C -22.6°F-30.3°C 1% Calm Calm -- 29.60 in1002.4 mb 0.00 in0.0 mm 0.00 in0.0 mm 0.00 in0.0 mm
05:51 AM 68.1°F20.1°C -22.6°F-30.3°C 1% Calm Calm -- 29.60 in1002.4 mb 0.00 in0.0 mm 0.00 in0.0 mm 0.00 in0.0 mm
05:50 AM 68.1°F20.1°C -22.6°F-30.3°C 1% Calm Calm -- 29.60 in1002.4 mb 0.00 in0.0 mm 0.00 in0.0 mm 0.00 in0.0 mm
05:49 AM 67.9°F19.9°C -22.7°F-30.4°C 1% Calm Calm -- 29.60 in1002.4 mb 0.00 in0.0 mm 0.00 in0.0 mm 0.00 in0.0 mm
05:48 AM 67.9°F19.9°C -22.7°F-30.4°C 1% Calm Calm -- 29.60 in1002.4 mb 0.00 in0.0 mm 0.00 in0.0 mm 0.00 in0.0 mm
05:47 AM 67.9°F19.9°C -22.7°F-30.4°C 1% Calm Calm -- 29.60 in1002.4 mb 0.00 in0.0 mm 0.00 in0.0 mm 0.00 in0.0 mm
05:46 AM 67.9°F19.9°C -22.7°F-30.4°C 1% Calm Calm -- 29.60 in1002.4 mb 0.00 in0.0 mm 0.00 in0.0 mm 0.00 in0.0 mm
05:45 AM 67.9°F19.9°C -22.7°F-30.4°C 1% Calm Calm -- 29.60 in1002.4 mb 0.00 in0.0 mm 0.00 in0.0 mm 0.00 in0.0 mm
05:44 AM 67.9°F19.9°C -22.7°F-30.4°C 1% Calm Calm -- 29.60 in1002.4 mb 0.00 in0.0 mm 0.00 in0.0 mm 0.00 in0.0 mm
05:43 AM 67.9°F19.9°C -22.7°F-30.4°C 1% Calm Calm -- 29.60 in1002.4 mb 0.00 in0.0 mm 0.00 in0.0 mm 0.00 in0.0 mm
05:42 AM 67.7°F19.8°C -22.8°F-30.4°C 1% Calm Calm -- 29.61 in1002.7 mb 0.00 in0.0 mm 0.00 in0.0 mm 0.00 in0.0 mm
05:41 AM 67.7°F19.8°C -22.8°F-30.4°C 1% Calm Calm -- 29.60 in1002.4 mb 0.00 in0.0 mm 0.00 in0.0 mm 0.00 in0.0 mm
05:40 AM 67.7°F19.8°C -22.8°F-30.4°C 1% Calm Calm -- 29.61 in1002.7 mb 0.00 in0.0 mm 0.00 in0.0 mm 0.00 in0.0 mm
05:39 AM 67.7°F19.8°C -22.8°F-30.4°C 1% Calm Calm -- 29.60 in1002.4 mb 0.00 in0.0 mm 0.00 in0.0 mm 0.00 in0.0 mm
05:38 AM 67.7°F19.8°C -22.8°F-30.4°C 1% Calm Calm -- 29.60 in1002.4 mb 0.00 in0.0 mm 0.00 in0.0 mm 0.00 in0.0 mm
05:37 AM 67.7°F19.8°C -22.8°F-30.4°C 1% Calm Calm -- 29.60 in1002.4 mb 0.00 in0.0 mm 0.00 in0.0 mm 0.00 in0.0 mm
05:36 AM 67.7°F19.8°C -22.8°F-30.4°C 1% Calm Calm -- 29.60 in1002.4 mb 0.00 in0.0 mm 0.00 in0.0 mm 0.00 in0.0 mm
05:35 AM 67.7°F19.8°C -22.8°F-30.4°C 1% Calm Calm -- 29.60 in1002.4 mb 0.00 in0.0 mm 0.00 in0.0 mm 0.00 in0.0 mm
05:34 AM 67.6°F19.8°C -22.9°F-30.5°C 1% Calm Calm -- 29.60 in1002.4 mb 0.00 in0.0 mm 0.00 in0.0 mm 0.00 in0.0 mm
05:33 AM 67.6°F19.8°C -22.9°F-30.5°C 1% Calm Calm -- 29.60 in1002.4 mb 0.00 in0.0 mm 0.00 in0.0 mm 0.00 in0.0 mm
05:32 AM 67.6°F19.8°C -22.9°F-30.5°C 1% Calm Calm -- 29.60 in1002.4 mb 0.00 in0.0 mm 0.00 in0.0 mm 0.00 in0.0 mm
05:31 AM 67.6°F19.8°C -22.9°F-30.5°C 1% Calm Calm -- 29.60 in1002.4 mb 0.00 in0.0 mm 0.00 in0.0 mm 0.00 in0.0 mm
05:30 AM 67.6°F19.8°C -22.9°F-30.5°C 1% Calm Calm -- 29.60 in1002.4 mb 0.00 in0.0 mm 0.00 in0.0 mm 0.00 in0.0 mm
05:29 AM 67.6°F19.8°C -22.9°F-30.5°C 1% Calm Calm -- 29.60 in1002.4 mb 0.00 in0.0 mm 0.00 in0.0 mm 0.00 in0.0 mm
05:28 AM 67.4°F19.7°C -23.0°F-30.6°C 1% Calm Calm -- 29.60 in1002.4 mb 0.00 in0.0 mm 0.00 in0.0 mm 0.00 in0.0 mm
05:27 AM 67.4°F19.7°C -23.0°F-30.6°C 1% Calm Calm -- 29.60 in1002.4 mb 0.00 in0.0 mm 0.00 in0.0 mm 0.00 in0.0 mm
05:26 AM 67.4°F19.7°C -23.0°F-30.6°C 1% Calm Calm -- 29.59 in1002.0 mb 0.00 in0.0 mm 0.00 in0.0 mm 0.00 in0.0 mm
05:25 AM 67.4°F19.7°C -23.0°F-30.6°C 1% Calm Calm -- 29.59 in1002.0 mb 0.00 in0.0 mm 0.00 in0.0 mm 0.00 in0.0 mm
05:24 AM 67.4°F19.7°C -23.0°F-30.6°C 1% Calm Calm -- 29.59 in1002.0 mb 0.00 in0.0 mm 0.00 in0.0 mm 0.00 in0.0 mm
05:23 AM 67.4°F19.7°C -23.0°F-30.6°C 1% Calm Calm -- 29.59 in1002.0 mb 0.00 in0.0 mm 0.00 in0.0 mm 0.00 in0.0 mm
05:22 AM 67.4°F19.7°C -23.0°F-30.6°C 1% Calm Calm -- 29.59 in1002.0 mb 0.00 in0.0 mm 0.00 in0.0 mm 0.00 in0.0 mm
05:21 AM 67.4°F19.7°C -23.0°F-30.6°C 1% Calm Calm -- 29.59 in1002.0 mb 0.00 in0.0 mm 0.00 in0.0 mm 0.00 in0.0 mm
05:20 AM 67.4°F19.7°C -23.0°F-30.6°C 1% Calm Calm -- 29.59 in1002.0 mb 0.00 in0.0 mm 0.00 in0.0 mm 0.00 in0.0 mm
05:19 AM 67.4°F19.7°C -23.0°F-30.6°C 1% Calm Calm -- 29.59 in1002.0 mb 0.00 in0.0 mm 0.00 in0.0 mm 0.00 in0.0 mm
05:18 AM 67.4°F19.7°C -23.0°F-30.6°C 1% Calm Calm -- 29.59 in1002.0 mb 0.00 in0.0 mm 0.00 in0.0 mm 0.00 in0.0 mm
05:17 AM 67.4°F19.7°C -23.0°F-30.6°C 1% Calm Calm -- 29.59 in1002.0 mb 0.00 in0.0 mm 0.00 in0.0 mm 0.00 in0.0 mm
05:16 AM 67.4°F19.7°C -23.0°F-30.6°C 1% Calm Calm -- 29.60 in1002.4 mb 0.00 in0.0 mm 0.00 in0.0 mm 0.00 in0.0 mm
05:15 AM 67.4°F19.7°C -23.0°F-30.6°C 1% Calm Calm -- 29.60 in1002.4 mb 0.00 in0.0 mm 0.00 in0.0 mm 0.00 in0.0 mm
05:14 AM 67.4°F19.7°C -23.0°F-30.6°C 1% Calm Calm -- 29.59 in1002.0 mb 0.00 in0.0 mm 0.00 in0.0 mm 0.00 in0.0 mm
05:13 AM 67.4°F19.7°C -23.0°F-30.6°C 1% Calm Calm -- 29.59 in1002.0 mb 0.00 in0.0 mm 0.00 in0.0 mm 0.00 in0.0 mm
05:12 AM 67.4°F19.7°C -23.0°F-30.6°C 1% Calm Calm -- 29.59 in1002.0 mb 0.00 in0.0 mm 0.00 in0.0 mm 0.00 in0.0 mm
05:11 AM 67.4°F19.7°C -23.0°F-30.6°C 1% Calm Calm -- 29.59 in1002.0 mb 0.00 in0.0 mm 0.00 in0.0 mm 0.00 in0.0 mm
05:10 AM 67.4°F19.7°C -23.0°F-30.6°C 1% Calm Calm -- 29.59 in1002.0 mb 0.00 in0.0 mm 0.00 in0.0 mm 0.00 in0.0 mm
05:09 AM 67.4°F19.7°C -23.0°F-30.6°C 1% Calm Calm -- 29.59 in1002.0 mb 0.00 in0.0 mm 0.00 in0.0 mm 0.00 in0.0 mm
05:08 AM 67.4°F19.7°C -23.0°F-30.6°C 1% Calm Calm -- 29.59 in1002.0 mb 0.00 in0.0 mm 0.00 in0.0 mm 0.00 in0.0 mm
05:07 AM 67.4°F19.7°C -23.0°F-30.6°C 1% Calm Calm -- 29.59 in1002.0 mb 0.00 in0.0 mm 0.00 in0.0 mm 0.00 in0.0 mm
05:06 AM 67.4°F19.7°C -23.0°F-30.6°C 1% Calm Calm -- 29.59 in1002.0 mb 0.00 in0.0 mm 0.00 in0.0 mm 0.00 in0.0 mm
05:05 AM 67.4°F19.7°C -23.0°F-30.6°C 1% Calm Calm -- 29.59 in1002.0 mb 0.00 in0.0 mm 0.00 in0.0 mm 0.00 in0.0 mm
05:04 AM 67.4°F19.7°C -23.0°F-30.6°C 1% Calm Calm -- 29.59 in1002.0 mb 0.00 in0.0 mm 0.00 in0.0 mm 0.00 in0.0 mm
05:03 AM 67.4°F19.7°C -23.0°F-30.6°C 1% Calm Calm -- 29.59 in1002.0 mb 0.00 in0.0 mm 0.00 in0.0 mm 0.00 in0.0 mm
05:02 AM 67.2°F19.6°C -23.2°F-30.7°C 1% Calm Calm -- 29.59 in1002.0 mb 0.00 in0.0 mm 0.00 in0.0 mm 0.00 in0.0 mm
05:01 AM 67.2°F19.6°C -23.2°F-30.7°C 1% Calm Calm -- 29.59 in1002.0 mb 0.00 in0.0 mm 0.00 in0.0 mm 0.00 in0.0 mm
05:00 AM 67.2°F19.6°C -23.2°F-30.7°C 1% Calm Calm -- 29.59 in1002.0 mb 0.00 in0.0 mm 0.00 in0.0 mm 0.00 in0.0 mm
04:59 AM 67.2°F19.6°C -23.2°F-30.7°C 1% Calm Calm -- 29.59 in1002.0 mb 0.00 in0.0 mm 0.00 in0.0 mm 0.00 in0.0 mm
04:58 AM 67.2°F19.6°C -23.2°F-30.7°C 1% Calm Calm -- 29.59 in1002.0 mb 0.00 in0.0 mm 0.00 in0.0 mm 0.00 in0.0 mm
04:57 AM 67.2°F19.6°C -23.2°F-30.7°C 1% Calm Calm -- 29.58 in1001.7 mb 0.00 in0.0 mm 0.00 in0.0 mm 0.00 in0.0 mm
04:56 AM 67.2°F19.6°C -23.2°F-30.7°C 1% Calm Calm -- 29.59 in1002.0 mb 0.00 in0.0 mm 0.00 in0.0 mm 0.00 in0.0 mm
04:55 AM 67.2°F19.6°C -23.2°F-30.7°C 1% Calm Calm -- 29.58 in1001.7 mb 0.00 in0.0 mm 0.00 in0.0 mm 0.00 in0.0 mm
04:54 AM 67.2°F19.6°C -23.2°F-30.7°C 1% Calm Calm -- 29.58 in1001.7 mb 0.00 in0.0 mm 0.00 in0.0 mm 0.00 in0.0 mm
04:53 AM 67.2°F19.6°C -23.2°F-30.7°C 1% Calm Calm -- 29.58 in1001.7 mb 0.00 in0.0 mm 0.00 in0.0 mm 0.00 in0.0 mm
04:52 AM 67.2°F19.6°C -23.2°F-30.7°C 1% Calm Calm -- 29.58 in1001.7 mb 0.00 in0.0 mm 0.00 in0.0 mm 0.00 in0.0 mm
04:51 AM 67.2°F19.6°C -23.2°F-30.7°C 1% Calm Calm -- 29.58 in1001.7 mb 0.00 in0.0 mm 0.00 in0.0 mm 0.00 in0.0 mm
04:50 AM 67.2°F19.6°C -23.2°F-30.7°C 1% Calm Calm -- 29.58 in1001.7 mb 0.00 in0.0 mm 0.00 in0.0 mm 0.00 in0.0 mm
04:49 AM 67.2°F19.6°C -23.2°F-30.7°C 1% Calm Calm -- 29.58 in1001.7 mb 0.00 in0.0 mm 0.00 in0.0 mm 0.00 in0.0 mm
04:48 AM 67.2°F19.6°C -23.2°F-30.7°C 1% Calm Calm -- 29.58 in1001.7 mb 0.00 in0.0 mm 0.00 in0.0 mm 0.00 in0.0 mm
04:47 AM 67.2°F19.6°C -23.2°F-30.7°C 1% Calm Calm -- 29.58 in1001.7 mb 0.00 in0.0 mm 0.00 in0.0 mm 0.00 in0.0 mm
04:46 AM 67.2°F19.6°C -23.2°F-30.7°C 1% Calm Calm -- 29.58 in1001.7 mb 0.00 in0.0 mm 0.00 in0.0 mm 0.00 in0.0 mm
04:45 AM 67.2°F19.6°C -23.2°F-30.7°C 1% Calm Calm -- 29.58 in1001.7 mb 0.00 in0.0 mm 0.00 in0.0 mm 0.00 in0.0 mm
04:44 AM 67.2°F19.6°C -23.2°F-30.7°C 1% Calm Calm -- 29.58 in1001.7 mb 0.00 in0.0 mm 0.00 in0.0 mm 0.00 in0.0 mm
04:43 AM 67.2°F19.6°C -23.2°F-30.7°C 1% Calm Calm -- 29.58 in1001.7 mb 0.00 in0.0 mm 0.00 in0.0 mm 0.00 in0.0 mm
04:42 AM 67.2°F19.6°C -23.2°F-30.7°C 1% Calm Calm -- 29.59 in1002.0 mb 0.00 in0.0 mm 0.00 in0.0 mm 0.00 in0.0 mm
04:41 AM 67.2°F19.6°C -23.2°F-30.7°C 1% Calm Calm -- 29.59 in1002.0 mb 0.00 in0.0 mm 0.00 in0.0 mm 0.00 in0.0 mm
04:40 AM 67.0°F19.4°C -23.3°F-30.7°C 1% Calm Calm -- 29.59 in1002.0 mb 0.00 in0.0 mm 0.00 in0.0 mm 0.00 in0.0 mm
04:39 AM 67.0°F19.4°C -23.3°F-30.7°C 1% Calm Calm -- 29.58 in1001.7 mb 0.00 in0.0 mm 0.00 in0.0 mm 0.00 in0.0 mm
04:38 AM 67.0°F19.4°C -23.3°F-30.7°C 1% Calm Calm -- 29.59 in1002.0 mb 0.00 in0.0 mm 0.00 in0.0 mm 0.00 in0.0 mm
04:37 AM 67.0°F19.4°C -23.3°F-30.7°C 1% Calm Calm -- 29.59 in1002.0 mb 0.00 in0.0 mm 0.00 in0.0 mm 0.00 in0.0 mm
04:36 AM 67.0°F19.4°C -23.3°F-30.7°C 1% Calm Calm -- 29.59 in1002.0 mb 0.00 in0.0 mm 0.00 in0.0 mm 0.00 in0.0 mm
04:35 AM 67.0°F19.4°C -23.3°F-30.7°C 1% Calm Calm -- 29.58 in1001.7 mb 0.00 in0.0 mm 0.00 in0.0 mm 0.00 in0.0 mm
04:34 AM 67.0°F19.4°C -23.3°F-30.7°C 1% Calm Calm -- 29.59 in1002.0 mb 0.00 in0.0 mm 0.00 in0.0 mm 0.00 in0.0 mm
04:33 AM 67.0°F19.4°C -23.3°F-30.7°C 1% Calm Calm -- 29.59 in1002.0 mb 0.00 in0.0 mm 0.00 in0.0 mm 0.00 in0.0 mm
04:32 AM 67.0°F19.4°C -23.3°F-30.7°C 1% Calm Calm -- 29.59 in1002.0 mb 0.00 in0.0 mm 0.00 in0.0 mm 0.00 in0.0 mm
04:31 AM 66.8°F19.3°C -23.4°F-30.8°C 1% Calm Calm -- 29.59 in1002.0 mb 0.00 in0.0 mm 0.00 in0.0 mm 0.00 in0.0 mm
04:30 AM 67.0°F19.4°C -23.3°F-30.7°C 1% Calm Calm -- 29.59 in1002.0 mb 0.00 in0.0 mm 0.00 in0.0 mm 0.00 in0.0 mm
04:29 AM 67.0°F19.4°C -23.3°F-30.7°C 1% Calm Calm -- 29.59 in1002.0 mb 0.00 in0.0 mm 0.00 in0.0 mm 0.00 in0.0 mm
04:28 AM 67.0°F19.4°C -23.3°F-30.7°C 1% Calm Calm -- 29.59 in1002.0 mb 0.00 in0.0 mm 0.00 in0.0 mm 0.00 in0.0 mm
04:27 AM 67.0°F19.4°C -23.3°F-30.7°C 1% Calm Calm -- 29.59 in1002.0 mb 0.00 in0.0 mm 0.00 in0.0 mm 0.00 in0.0 mm
04:26 AM 67.0°F19.4°C -23.3°F-30.7°C 1% Calm Calm -- 29.59 in1002.0 mb 0.00 in0.0 mm 0.00 in0.0 mm 0.00 in0.0 mm
04:25 AM 67.0°F19.4°C -23.3°F-30.7°C 1% Calm Calm -- 29.59 in1002.0 mb 0.00 in0.0 mm 0.00 in0.0 mm 0.00 in0.0 mm
04:24 AM 67.0°F19.4°C -23.3°F-30.7°C 1% Calm Calm -- 29.59 in1002.0 mb 0.00 in0.0 mm 0.00 in0.0 mm 0.00 in0.0 mm
04:23 AM 67.0°F19.4°C -23.3°F-30.7°C 1% Calm Calm -- 29.59 in1002.0 mb 0.00 in0.0 mm 0.00 in0.0 mm 0.00 in0.0 mm
04:22 AM 67.0°F19.4°C -23.3°F-30.7°C 1% Calm Calm -- 29.59 in1002.0 mb 0.00 in0.0 mm 0.00 in0.0 mm 0.00 in0.0 mm
04:21 AM 67.0°F19.4°C -23.3°F-30.7°C 1% Calm Calm -- 29.59 in1002.0 mb 0.00 in0.0 mm 0.00 in0.0 mm 0.00 in0.0 mm
04:20 AM 67.0°F19.4°C -23.3°F-30.7°C 1% Calm Calm -- 29.59 in1002.0 mb 0.00 in0.0 mm 0.00 in0.0 mm 0.00 in0.0 mm
04:19 AM 67.0°F19.4°C -23.3°F-30.7°C 1% Calm Calm -- 29.59 in1002.0 mb 0.00 in0.0 mm 0.00 in0.0 mm 0.00 in0.0 mm
04:18 AM 67.0°F19.4°C -23.3°F-30.7°C 1% Calm Calm -- 29.59 in1002.0 mb 0.00 in0.0 mm 0.00 in0.0 mm 0.00 in0.0 mm
04:17 AM 67.0°F19.4°C -23.3°F-30.7°C 1% Calm Calm -- 29.58 in1001.7 mb 0.00 in0.0 mm 0.00 in0.0 mm 0.00 in0.0 mm
04:16 AM 67.0°F19.4°C -23.3°F-30.7°C 1% Calm Calm -- 29.59 in1002.0 mb 0.00 in0.0 mm 0.00 in0.0 mm 0.00 in0.0 mm
04:15 AM 67.0°F19.4°C -23.3°F-30.7°C 1% Calm Calm -- 29.58 in1001.7 mb 0.00 in0.0 mm 0.00 in0.0 mm 0.00 in0.0 mm
04:14 AM 67.0°F19.4°C -23.3°F-30.7°C 1% Calm Calm -- 29.58 in1001.7 mb 0.00 in0.0 mm 0.00 in0.0 mm 0.00 in0.0 mm
04:13 AM 67.0°F19.4°C -23.3°F-30.7°C 1% Calm Calm -- 29.58 in1001.7 mb 0.00 in0.0 mm 0.00 in0.0 mm 0.00 in0.0 mm
04:12 AM 67.0°F19.4°C -23.3°F-30.7°C 1% Calm Calm -- 29.58 in1001.7 mb 0.00 in0.0 mm 0.00 in0.0 mm 0.00 in0.0 mm
04:11 AM 67.0°F19.4°C -23.3°F-30.7°C 1% Calm Calm -- 29.58 in1001.7 mb 0.00 in0.0 mm 0.00 in0.0 mm 0.00 in0.0 mm
04:10 AM 67.0°F19.4°C -23.3°F-30.7°C 1% Calm Calm -- 29.58 in1001.7 mb 0.00 in0.0 mm 0.00 in0.0 mm 0.00 in0.0 mm
04:09 AM 67.0°F19.4°C -23.3°F-30.7°C 1% Calm Calm -- 29.58 in1001.7 mb 0.00 in0.0 mm 0.00 in0.0 mm 0.00 in0.0 mm
04:08 AM 67.0°F19.4°C -23.3°F-30.7°C 1% Calm Calm -- 29.59 in1002.0 mb 0.00 in0.0 mm 0.00 in0.0 mm 0.00 in0.0 mm
04:07 AM 67.2°F19.6°C -23.2°F-30.7°C 1% Calm Calm -- 29.58 in1001.7 mb 0.00 in0.0 mm 0.00 in0.0 mm 0.00 in0.0 mm
04:06 AM 67.0°F19.4°C -23.3°F-30.7°C 1% Calm Calm -- 29.58 in1001.7 mb 0.00 in0.0 mm 0.00 in0.0 mm 0.00 in0.0 mm
04:05 AM 67.2°F19.6°C -23.2°F-30.7°C 1% Calm Calm -- 29.59 in1002.0 mb 0.00 in0.0 mm 0.00 in0.0 mm 0.00 in0.0 mm
04:04 AM 67.2°F19.6°C -23.2°F-30.7°C 1% Calm Calm -- 29.59 in1002.0 mb 0.00 in0.0 mm 0.00 in0.0 mm 0.00 in0.0 mm
04:03 AM 67.2°F19.6°C -23.2°F-30.7°C 1% Calm Calm -- 29.58 in1001.7 mb 0.00 in0.0 mm 0.00 in0.0 mm 0.00 in0.0 mm
04:02 AM 67.2°F19.6°C -23.2°F-30.7°C 1% Calm Calm -- 29.59 in1002.0 mb 0.00 in0.0 mm 0.00 in0.0 mm 0.00 in0.0 mm
04:01 AM 67.2°F19.6°C -23.2°F-30.7°C 1% Calm Calm -- 29.59 in1002.0 mb 0.00 in0.0 mm 0.00 in0.0 mm 0.00 in0.0 mm
04:00 AM 67.4°F19.7°C -23.0°F-30.6°C 1% Calm Calm -- 29.59 in1002.0 mb 0.00 in0.0 mm 0.00 in0.0 mm 0.00 in0.0 mm
03:59 AM 67.4°F19.7°C -23.0°F-30.6°C 1% Calm Calm -- 29.58 in1001.7 mb 0.00 in0.0 mm 0.00 in0.0 mm 0.00 in0.0 mm
03:58 AM 67.4°F19.7°C -23.0°F-30.6°C 1% Calm Calm -- 29.59 in1002.0 mb 0.00 in0.0 mm 0.00 in0.0 mm 0.00 in0.0 mm
03:57 AM 67.4°F19.7°C -23.0°F-30.6°C 1% Calm Calm -- 29.59 in1002.0 mb 0.00 in0.0 mm 0.00 in0.0 mm 0.00 in0.0 mm
03:56 AM 67.4°F19.7°C -23.0°F-30.6°C 1% Calm Calm -- 29.59 in1002.0 mb 0.00 in0.0 mm 0.00 in0.0 mm 0.00 in0.0 mm
03:55 AM 67.4°F19.7°C -23.0°F-30.6°C 1% Calm Calm -- 29.59 in1002.0 mb 0.00 in0.0 mm 0.00 in0.0 mm 0.00 in0.0 mm
03:54 AM 67.4°F19.7°C -23.0°F-30.6°C 1% Calm Calm -- 29.59 in1002.0 mb 0.00 in0.0 mm 0.00 in0.0 mm 0.00 in0.0 mm
03:53 AM 67.4°F19.7°C -23.0°F-30.6°C 1% Calm Calm -- 29.59 in1002.0 mb 0.00 in0.0 mm 0.00 in0.0 mm 0.00 in0.0 mm
03:52 AM 67.4°F19.7°C -23.0°F-30.6°C 1% Calm Calm -- 29.58 in1001.7 mb 0.00 in0.0 mm 0.00 in0.0 mm 0.00 in0.0 mm
03:51 AM 67.4°F19.7°C -23.0°F-30.6°C 1% Calm Calm -- 29.59 in1002.0 mb 0.00 in0.0 mm 0.00 in0.0 mm 0.00 in0.0 mm
03:50 AM 67.4°F19.7°C -23.0°F-30.6°C 1% Calm Calm -- 29.58 in1001.7 mb 0.00 in0.0 mm 0.00 in0.0 mm 0.00 in0.0 mm
03:49 AM 67.4°F19.7°C -23.0°F-30.6°C 1% Calm Calm -- 29.58 in1001.7 mb 0.00 in0.0 mm 0.00 in0.0 mm 0.00 in0.0 mm
03:48 AM 67.4°F19.7°C -23.0°F-30.6°C 1% Calm Calm -- 29.58 in1001.7 mb 0.00 in0.0 mm 0.00 in0.0 mm 0.00 in0.0 mm
03:47 AM 67.4°F19.7°C -23.0°F-30.6°C 1% Calm Calm -- 29.58 in1001.7 mb 0.00 in0.0 mm 0.00 in0.0 mm 0.00 in0.0 mm
03:46 AM 67.4°F19.7°C -23.0°F-30.6°C 1% Calm Calm -- 29.58 in1001.7 mb 0.00 in0.0 mm 0.00 in0.0 mm 0.00 in0.0 mm
03:45 AM 67.4°F19.7°C -23.0°F-30.6°C 1% Calm Calm -- 29.59 in1002.0 mb 0.00 in0.0 mm 0.00 in0.0 mm 0.00 in0.0 mm
03:44 AM 67.4°F19.7°C -23.0°F-30.6°C 1% Calm Calm -- 29.59 in1002.0 mb 0.00 in0.0 mm 0.00 in0.0 mm 0.00 in0.0 mm
03:43 AM 67.4°F19.7°C -23.0°F-30.6°C 1% Calm Calm -- 29.58 in1001.7 mb 0.00 in0.0 mm 0.00 in0.0 mm 0.00 in0.0 mm
03:42 AM 67.4°F19.7°C -23.0°F-30.6°C 1% Calm Calm -- 29.59 in1002.0 mb 0.00 in0.0 mm 0.00 in0.0 mm 0.00 in0.0 mm
03:41 AM 67.4°F19.7°C -23.0°F-30.6°C 1% Calm Calm -- 29.59 in1002.0 mb 0.00 in0.0 mm 0.00 in0.0 mm 0.00 in0.0 mm
03:40 AM 67.4°F19.7°C -23.0°F-30.6°C 1% Calm Calm -- 29.59 in1002.0 mb 0.00 in0.0 mm 0.00 in0.0 mm 0.00 in0.0 mm
03:39 AM 67.4°F19.7°C -23.0°F-30.6°C 1% Calm Calm -- 29.59 in1002.0 mb 0.00 in0.0 mm 0.00 in0.0 mm 0.00 in0.0 mm
03:38 AM 67.4°F19.7°C -23.0°F-30.6°C 1% Calm Calm -- 29.59 in1002.0 mb 0.00 in0.0 mm 0.00 in0.0 mm 0.00 in0.0 mm
03:37 AM 67.4°F19.7°C -23.0°F-30.6°C 1% Calm Calm -- 29.59 in1002.0 mb 0.00 in0.0 mm 0.00 in0.0 mm 0.00 in0.0 mm
03:36 AM 67.4°F19.7°C -23.0°F-30.6°C 1% Calm Calm -- 29.59 in1002.0 mb 0.00 in0.0 mm 0.00 in0.0 mm 0.00 in0.0 mm
03:35 AM 67.4°F19.7°C -23.0°F-30.6°C 1% Calm Calm -- 29.59 in1002.0 mb 0.00 in0.0 mm 0.00 in0.0 mm 0.00 in0.0 mm
03:34 AM 67.4°F19.7°C -23.0°F-30.6°C 1% Calm Calm -- 29.59 in1002.0 mb 0.00 in0.0 mm 0.00 in0.0 mm 0.00 in0.0 mm
03:33 AM 67.4°F19.7°C -23.0°F-30.6°C 1% Calm Calm -- 29.59 in1002.0 mb 0.00 in0.0 mm 0.00 in0.0 mm 0.00 in0.0 mm
03:32 AM 67.4°F19.7°C -23.0°F-30.6°C 1% Calm Calm -- 29.59 in1002.0 mb 0.00 in0.0 mm 0.00 in0.0 mm 0.00 in0.0 mm
03:31 AM 67.4°F19.7°C -23.0°F-30.6°C 1% Calm Calm -- 29.59 in1002.0 mb 0.00 in0.0 mm 0.00 in0.0 mm 0.00 in0.0 mm
03:30 AM 67.4°F19.7°C -23.0°F-30.6°C 1% Calm Calm -- 29.59 in1002.0 mb 0.00 in0.0 mm 0.00 in0.0 mm 0.00 in0.0 mm
03:29 AM 67.4°F19.7°C -23.0°F-30.6°C 1% Calm Calm -- 29.59 in1002.0 mb 0.00 in0.0 mm 0.00 in0.0 mm 0.00 in0.0 mm
03:28 AM 67.4°F19.7°C -23.0°F-30.6°C 1% Calm Calm -- 29.59 in1002.0 mb 0.00 in0.0 mm 0.00 in0.0 mm 0.00 in0.0 mm
03:27 AM 67.4°F19.7°C -23.0°F-30.6°C 1% Calm Calm -- 29.59 in1002.0 mb 0.00 in0.0 mm 0.00 in0.0 mm 0.00 in0.0 mm
03:26 AM 67.4°F19.7°C -23.0°F-30.6°C 1% Calm Calm -- 29.59 in1002.0 mb 0.00 in0.0 mm 0.00 in0.0 mm 0.00 in0.0 mm
03:25 AM 67.4°F19.7°C -23.0°F-30.6°C 1% Calm Calm -- 29.59 in1002.0 mb 0.00 in0.0 mm 0.00 in0.0 mm 0.00 in0.0 mm
03:24 AM 67.4°F19.7°C -23.0°F-30.6°C 1% Calm Calm -- 29.59 in1002.0 mb 0.00 in0.0 mm 0.00 in0.0 mm 0.00 in0.0 mm
03:23 AM 67.4°F19.7°C -23.0°F-30.6°C 1% Calm Calm -- 29.59 in1002.0 mb 0.00 in0.0 mm 0.00 in0.0 mm 0.00 in0.0 mm
03:22 AM 67.4°F19.7°C -23.0°F-30.6°C 1% Calm Calm -- 29.59 in1002.0 mb 0.00 in0.0 mm 0.00 in0.0 mm 0.00 in0.0 mm
03:21 AM 67.4°F19.7°C -23.0°F-30.6°C 1% Calm Calm -- 29.59 in1002.0 mb 0.00 in0.0 mm 0.00 in0.0 mm 0.00 in0.0 mm
03:20 AM 67.4°F19.7°C -23.0°F-30.6°C 1% Calm Calm -- 29.59 in1002.0 mb 0.00 in0.0 mm 0.00 in0.0 mm 0.00 in0.0 mm
03:19 AM 67.4°F19.7°C -23.0°F-30.6°C 1% Calm Calm -- 29.59 in1002.0 mb 0.00 in0.0 mm 0.00 in0.0 mm 0.00 in0.0 mm
03:18 AM 67.4°F19.7°C -23.0°F-30.6°C 1% Calm Calm -- 29.59 in1002.0 mb 0.00 in0.0 mm 0.00 in0.0 mm 0.00 in0.0 mm
03:17 AM 67.4°F19.7°C -23.0°F-30.6°C 1% Calm Calm -- 29.59 in1002.0 mb 0.00 in0.0 mm 0.00 in0.0 mm 0.00 in0.0 mm
03:16 AM 67.4°F19.7°C -23.0°F-30.6°C 1% Calm Calm -- 29.59 in1002.0 mb 0.00 in0.0 mm 0.00 in0.0 mm 0.00 in0.0 mm
03:15 AM 67.4°F19.7°C -23.0°F-30.6°C 1% Calm Calm -- 29.59 in1002.0 mb 0.00 in0.0 mm 0.00 in0.0 mm 0.00 in0.0 mm
03:14 AM 67.6°F19.8°C -22.9°F-30.5°C 1% Calm Calm -- 29.59 in1002.0 mb 0.00 in0.0 mm 0.00 in0.0 mm 0.00 in0.0 mm
03:13 AM 67.4°F19.7°C -23.0°F-30.6°C 1% Calm Calm -- 29.59 in1002.0 mb 0.00 in0.0 mm 0.00 in0.0 mm 0.00 in0.0 mm
03:12 AM 67.6°F19.8°C -22.9°F-30.5°C 1% Calm Calm -- 29.59 in1002.0 mb 0.00 in0.0 mm 0.00 in0.0 mm 0.00 in0.0 mm
03:11 AM 67.6°F19.8°C -22.9°F-30.5°C 1% Calm Calm -- 29.59 in1002.0 mb 0.00 in0.0 mm 0.00 in0.0 mm 0.00 in0.0 mm
03:10 AM 67.6°F19.8°C -22.9°F-30.5°C 1% Calm Calm -- 29.59 in1002.0 mb 0.00 in0.0 mm 0.00 in0.0 mm 0.00 in0.0 mm
03:09 AM 67.6°F19.8°C -22.9°F-30.5°C 1% Calm Calm -- 29.58 in1001.7 mb 0.00 in0.0 mm 0.00 in0.0 mm 0.00 in0.0 mm
03:08 AM 67.6°F19.8°C -22.9°F-30.5°C 1% Calm Calm -- 29.59 in1002.0 mb 0.00 in0.0 mm 0.00 in0.0 mm 0.00 in0.0 mm
03:07 AM 67.6°F19.8°C -22.9°F-30.5°C 1% Calm Calm -- 29.59 in1002.0 mb 0.00 in0.0 mm 0.00 in0.0 mm 0.00 in0.0 mm
03:06 AM 67.6°F19.8°C -22.9°F-30.5°C 1% Calm Calm -- 29.59 in1002.0 mb 0.00 in0.0 mm 0.00 in0.0 mm 0.00 in0.0 mm
03:05 AM 67.6°F19.8°C -22.9°F-30.5°C 1% Calm Calm -- 29.59 in1002.0 mb 0.00 in0.0 mm 0.00 in0.0 mm 0.00 in0.0 mm
03:04 AM 67.6°F19.8°C -22.9°F-30.5°C 1% Calm Calm -- 29.59 in1002.0 mb 0.00 in0.0 mm 0.00 in0.0 mm 0.00 in0.0 mm
03:03 AM 67.7°F19.8°C -22.8°F-30.4°C 1% Calm Calm -- 29.59 in1002.0 mb 0.00 in0.0 mm 0.00 in0.0 mm 0.00 in0.0 mm
03:02 AM 67.6°F19.8°C -22.9°F-30.5°C 1% Calm Calm -- 29.59 in1002.0 mb 0.00 in0.0 mm 0.00 in0.0 mm 0.00 in0.0 mm
03:01 AM 67.7°F19.8°C -22.8°F-30.4°C 1% Calm Calm -- 29.59 in1002.0 mb 0.00 in0.0 mm 0.00 in0.0 mm 0.00 in0.0 mm
03:00 AM 67.7°F19.8°C -22.8°F-30.4°C 1% Calm Calm -- 29.59 in1002.0 mb 0.00 in0.0 mm 0.00 in0.0 mm 0.00 in0.0 mm
02:59 AM 67.7°F19.8°C -22.8°F-30.4°C 1% Calm Calm -- 29.59 in1002.0 mb 0.00 in0.0 mm 0.00 in0.0 mm 0.00 in0.0 mm
02:58 AM 67.7°F19.8°C -22.8°F-30.4°C 1% Calm Calm -- 29.59 in1002.0 mb 0.00 in0.0 mm 0.00 in0.0 mm 0.00 in0.0 mm
02:57 AM 67.7°F19.8°C -22.8°F-30.4°C 1% Calm Calm -- 29.59 in1002.0 mb 0.00 in0.0 mm 0.00 in0.0 mm 0.00 in0.0 mm
02:56 AM 67.7°F19.8°C -22.8°F-30.4°C 1% Calm Calm -- 29.59 in1002.0 mb 0.00 in0.0 mm 0.00 in0.0 mm 0.00 in0.0 mm
02:55 AM 67.7°F19.8°C -22.8°F-30.4°C 1% Calm Calm -- 29.59 in1002.0 mb 0.00 in0.0 mm 0.00 in0.0 mm 0.00 in0.0 mm
02:54 AM 67.7°F19.8°C -22.8°F-30.4°C 1% Calm Calm -- 29.59 in1002.0 mb 0.00 in0.0 mm 0.00 in0.0 mm 0.00 in0.0 mm
02:53 AM 67.7°F19.8°C -22.8°F-30.4°C 1% Calm Calm -- 29.59 in1002.0 mb 0.00 in0.0 mm 0.00 in0.0 mm 0.00 in0.0 mm
02:52 AM 67.6°F19.8°C -22.9°F-30.5°C 1% Calm Calm -- 29.59 in1002.0 mb 0.00 in0.0 mm 0.00 in0.0 mm 0.00 in0.0 mm
02:51 AM 67.6°F19.8°C -22.9°F-30.5°C 1% Calm Calm -- 29.59 in1002.0 mb 0.00 in0.0 mm 0.00 in0.0 mm 0.00 in0.0 mm
02:50 AM 67.7°F19.8°C -22.8°F-30.4°C 1% Calm Calm -- 29.60 in1002.4 mb 0.00 in0.0 mm 0.00 in0.0 mm 0.00 in0.0 mm
02:49 AM 67.7°F19.8°C -22.8°F-30.4°C 1% Calm Calm -- 29.60 in1002.4 mb 0.00 in0.0 mm 0.00 in0.0 mm 0.00 in0.0 mm
02:48 AM 67.7°F19.8°C -22.8°F-30.4°C 1% Calm Calm -- 29.60 in1002.4 mb 0.00 in0.0 mm 0.00 in0.0 mm 0.00 in0.0 mm
02:47 AM 67.7°F19.8°C -22.8°F-30.4°C 1% Calm Calm -- 29.60 in1002.4 mb 0.00 in0.0 mm 0.00 in0.0 mm 0.00 in0.0 mm
02:46 AM 67.7°F19.8°C -22.8°F-30.4°C 1% Calm Calm -- 29.60 in1002.4 mb 0.00 in0.0 mm 0.00 in0.0 mm 0.00 in0.0 mm
02:45 AM 67.7°F19.8°C -22.8°F-30.4°C 1% Calm Calm -- 29.59 in1002.0 mb 0.00 in0.0 mm 0.00 in0.0 mm 0.00 in0.0 mm
02:44 AM 67.7°F19.8°C -22.8°F-30.4°C 1% Calm Calm -- 29.60 in1002.4 mb 0.00 in0.0 mm 0.00 in0.0 mm 0.00 in0.0 mm
02:43 AM 67.7°F19.8°C -22.8°F-30.4°C 1% Calm Calm -- 29.60 in1002.4 mb 0.00 in0.0 mm 0.00 in0.0 mm 0.00 in0.0 mm
02:42 AM 67.7°F19.8°C -22.8°F-30.4°C 1% Calm Calm -- 29.60 in1002.4 mb 0.00 in0.0 mm 0.00 in0.0 mm 0.00 in0.0 mm
02:41 AM 67.7°F19.8°C -22.8°F-30.4°C 1% Calm Calm -- 29.59 in1002.0 mb 0.00 in0.0 mm 0.00 in0.0 mm 0.00 in0.0 mm
02:40 AM 67.7°F19.8°C -22.8°F-30.4°C 1% Calm Calm -- 29.59 in1002.0 mb 0.00 in0.0 mm 0.00 in0.0 mm 0.00 in0.0 mm
02:39 AM 67.7°F19.8°C -22.8°F-30.4°C 1% Calm Calm -- 29.59 in1002.0 mb 0.00 in0.0 mm 0.00 in0.0 mm 0.00 in0.0 mm
02:38 AM 67.6°F19.8°C -22.9°F-30.5°C 1% Calm Calm -- 29.59 in1002.0 mb 0.00 in0.0 mm 0.00 in0.0 mm 0.00 in0.0 mm
02:37 AM 67.7°F19.8°C -22.8°F-30.4°C 1% Calm Calm -- 29.59 in1002.0 mb 0.00 in0.0 mm 0.00 in0.0 mm 0.00 in0.0 mm
02:36 AM 67.7°F19.8°C -22.8°F-30.4°C 1% Calm Calm -- 29.59 in1002.0 mb 0.00 in0.0 mm 0.00 in0.0 mm 0.00 in0.0 mm
02:35 AM 67.7°F19.8°C -22.8°F-30.4°C 1% Calm Calm -- 29.59 in1002.0 mb 0.00 in0.0 mm 0.00 in0.0 mm 0.00 in0.0 mm
02:34 AM 67.7°F19.8°C -22.8°F-30.4°C 1% Calm Calm -- 29.59 in1002.0 mb 0.00 in0.0 mm 0.00 in0.0 mm 0.00 in0.0 mm
02:33 AM 67.7°F19.8°C -22.8°F-30.4°C 1% Calm Calm -- 29.59 in1002.0 mb 0.00 in0.0 mm 0.00 in0.0 mm 0.00 in0.0 mm
02:32 AM 67.7°F19.8°C -22.8°F-30.4°C 1% Calm Calm -- 29.59 in1002.0 mb 0.00 in0.0 mm 0.00 in0.0 mm 0.00 in0.0 mm
02:31 AM 67.7°F19.8°C -22.8°F-30.4°C 1% Calm Calm -- 29.59 in1002.0 mb 0.00 in0.0 mm 0.00 in0.0 mm 0.00 in0.0 mm
02:30 AM 67.7°F19.8°C -22.8°F-30.4°C 1% Calm Calm -- 29.59 in1002.0 mb 0.00 in0.0 mm 0.00 in0.0 mm 0.00 in0.0 mm
02:29 AM 67.7°F19.8°C -22.8°F-30.4°C 1% Calm Calm -- 29.59 in1002.0 mb 0.00 in0.0 mm 0.00 in0.0 mm 0.00 in0.0 mm
02:28 AM 67.7°F19.8°C -22.8°F-30.4°C 1% Calm Calm -- 29.59 in1002.0 mb 0.00 in0.0 mm 0.00 in0.0 mm 0.00 in0.0 mm
02:27 AM 67.7°F19.8°C -22.8°F-30.4°C 1% Calm Calm -- 29.59 in1002.0 mb 0.00 in0.0 mm 0.00 in0.0 mm 0.00 in0.0 mm
02:26 AM 67.7°F19.8°C -22.8°F-30.4°C 1% Calm Calm -- 29.59 in1002.0 mb 0.00 in0.0 mm 0.00 in0.0 mm 0.00 in0.0 mm
02:25 AM 67.7°F19.8°C -22.8°F-30.4°C 1% Calm Calm -- 29.59 in1002.0 mb 0.00 in0.0 mm 0.00 in0.0 mm 0.00 in0.0 mm
02:24 AM 67.7°F19.8°C -22.8°F-30.4°C 1% Calm Calm -- 29.59 in1002.0 mb 0.00 in0.0 mm 0.00 in0.0 mm 0.00 in0.0 mm
02:23 AM 67.7°F19.8°C -22.8°F-30.4°C 1% Calm Calm -- 29.59 in1002.0 mb 0.00 in0.0 mm 0.00 in0.0 mm 0.00 in0.0 mm
02:22 AM 67.7°F19.8°C -22.8°F-30.4°C 1% Calm Calm -- 29.59 in1002.0 mb 0.00 in0.0 mm 0.00 in0.0 mm 0.00 in0.0 mm
02:21 AM 67.7°F19.8°C -22.8°F-30.4°C 1% Calm Calm -- 29.59 in1002.0 mb 0.00 in0.0 mm 0.00 in0.0 mm 0.00 in0.0 mm
02:20 AM 67.7°F19.8°C -22.8°F-30.4°C 1% Calm Calm -- 29.59 in1002.0 mb 0.00 in0.0 mm 0.00 in0.0 mm 0.00 in0.0 mm
02:19 AM 67.7°F19.8°C -22.8°F-30.4°C 1% Calm Calm -- 29.59 in1002.0 mb 0.00 in0.0 mm 0.00 in0.0 mm 0.00 in0.0 mm
02:18 AM 67.7°F19.8°C -22.8°F-30.4°C 1% Calm Calm -- 29.59 in1002.0 mb 0.00 in0.0 mm 0.00 in0.0 mm 0.00 in0.0 mm
02:17 AM 67.7°F19.8°C -22.8°F-30.4°C 1% Calm Calm -- 29.59 in1002.0 mb 0.00 in0.0 mm 0.00 in0.0 mm 0.00 in0.0 mm
02:16 AM 67.7°F19.8°C -22.8°F-30.4°C 1% Calm Calm -- 29.59 in1002.0 mb 0.00 in0.0 mm 0.00 in0.0 mm 0.00 in0.0 mm
02:15 AM 67.7°F19.8°C -22.8°F-30.4°C 1% Calm Calm -- 29.59 in1002.0 mb 0.00 in0.0 mm 0.00 in0.0 mm 0.00 in0.0 mm
02:14 AM 67.7°F19.8°C -22.8°F-30.4°C 1% Calm Calm -- 29.59 in1002.0 mb 0.00 in0.0 mm 0.00 in0.0 mm 0.00 in0.0 mm
02:13 AM 67.7°F19.8°C -22.8°F-30.4°C 1% Calm Calm -- 29.59 in1002.0 mb 0.00 in0.0 mm 0.00 in0.0 mm 0.00 in0.0 mm
02:12 AM 67.7°F19.8°C -22.8°F-30.4°C 1% Calm Calm -- 29.59 in1002.0 mb 0.00 in0.0 mm 0.00 in0.0 mm 0.00 in0.0 mm
02:11 AM 67.7°F19.8°C -22.8°F-30.4°C 1% Calm Calm -- 29.59 in1002.0 mb 0.00 in0.0 mm 0.00 in0.0 mm 0.00 in0.0 mm
02:10 AM 67.7°F19.8°C -22.8°F-30.4°C 1% Calm Calm -- 29.59 in1002.0 mb 0.00 in0.0 mm 0.00 in0.0 mm 0.00 in0.0 mm
02:09 AM 67.7°F19.8°C -22.8°F-30.4°C 1% Calm Calm -- 29.59 in1002.0 mb 0.00 in0.0 mm 0.00 in0.0 mm 0.00 in0.0 mm
02:08 AM 67.7°F19.8°C -22.8°F-30.4°C 1% Calm Calm -- 29.59 in1002.0 mb 0.00 in0.0 mm 0.00 in0.0 mm 0.00 in0.0 mm
02:07 AM 67.9°F19.9°C -22.7°F-30.4°C 1% Calm Calm -- 29.59 in1002.0 mb 0.00 in0.0 mm 0.00 in0.0 mm 0.00 in0.0 mm
02:06 AM 67.9°F19.9°C -22.7°F-30.4°C 1% Calm Calm -- 29.59 in1002.0 mb 0.00 in0.0 mm 0.00 in0.0 mm 0.00 in0.0 mm
02:05 AM 67.9°F19.9°C -22.7°F-30.4°C 1% Calm Calm -- 29.59 in1002.0 mb 0.00 in0.0 mm 0.00 in0.0 mm 0.00 in0.0 mm
02:04 AM 67.9°F19.9°C -22.7°F-30.4°C 1% Calm Calm -- 29.59 in1002.0 mb 0.00 in0.0 mm 0.00 in0.0 mm 0.00 in0.0 mm
02:03 AM 67.9°F19.9°C -22.7°F-30.4°C 1% Calm Calm -- 29.60 in1002.4 mb 0.00 in0.0 mm 0.00 in0.0 mm 0.00 in0.0 mm
02:02 AM 67.9°F19.9°C -22.7°F-30.4°C 1% Calm Calm -- 29.59 in1002.0 mb 0.00 in0.0 mm 0.00 in0.0 mm 0.00 in0.0 mm
02:01 AM 67.9°F19.9°C -22.7°F-30.4°C 1% Calm Calm -- 29.60 in1002.4 mb 0.00 in0.0 mm 0.00 in0.0 mm 0.00 in0.0 mm
02:00 AM 67.9°F19.9°C -22.7°F-30.4°C 1% Calm Calm -- 29.60 in1002.4 mb 0.00 in0.0 mm 0.00 in0.0 mm 0.00 in0.0 mm
01:59 AM 67.9°F19.9°C -22.7°F-30.4°C 1% Calm Calm -- 29.60 in1002.4 mb 0.00 in0.0 mm 0.00 in0.0 mm 0.00 in0.0 mm
01:58 AM 68.1°F20.1°C -22.6°F-30.3°C 1% Calm Calm -- 29.60 in1002.4 mb 0.00 in0.0 mm 0.00 in0.0 mm 0.00 in0.0 mm
01:57 AM 68.1°F20.1°C -22.6°F-30.3°C 1% Calm Calm -- 29.60 in1002.4 mb 0.00 in0.0 mm 0.00 in0.0 mm 0.00 in0.0 mm
01:56 AM 68.1°F20.1°C -22.6°F-30.3°C 1% Calm Calm -- 29.60 in1002.4 mb 0.00 in0.0 mm 0.00 in0.0 mm 0.00 in0.0 mm
01:55 AM 68.1°F20.1°C -22.6°F-30.3°C 1% Calm Calm -- 29.60 in1002.4 mb 0.00 in0.0 mm 0.00 in0.0 mm 0.00 in0.0 mm
01:54 AM 68.1°F20.1°C -22.6°F-30.3°C 1% Calm Calm -- 29.60 in1002.4 mb 0.00 in0.0 mm 0.00 in0.0 mm 0.00 in0.0 mm
01:53 AM 68.1°F20.1°C -22.6°F-30.3°C 1% Calm Calm -- 29.60 in1002.4 mb 0.00 in0.0 mm 0.00 in0.0 mm 0.00 in0.0 mm
01:52 AM 68.1°F20.1°C -22.6°F-30.3°C 1% Calm Calm -- 29.60 in1002.4 mb 0.00 in0.0 mm 0.00 in0.0 mm 0.00 in0.0 mm
01:51 AM 68.1°F20.1°C -22.6°F-30.3°C 1% Calm Calm -- 29.60 in1002.4 mb 0.00 in0.0 mm 0.00 in0.0 mm 0.00 in0.0 mm
01:50 AM 68.1°F20.1°C -22.6°F-30.3°C 1% Calm Calm -- 29.60 in1002.4 mb 0.00 in0.0 mm 0.00 in0.0 mm 0.00 in0.0 mm
01:49 AM 68.1°F20.1°C -22.6°F-30.3°C 1% Calm Calm -- 29.60 in1002.4 mb 0.00 in0.0 mm 0.00 in0.0 mm 0.00 in0.0 mm
01:48 AM 68.1°F20.1°C -22.6°F-30.3°C 1% Calm Calm -- 29.60 in1002.4 mb 0.00 in0.0 mm 0.00 in0.0 mm 0.00 in0.0 mm
01:47 AM 68.1°F20.1°C -22.6°F-30.3°C 1% Calm Calm -- 29.60 in1002.4 mb 0.00 in0.0 mm 0.00 in0.0 mm 0.00 in0.0 mm
01:46 AM 68.1°F20.1°C -22.6°F-30.3°C 1% Calm Calm -- 29.60 in1002.4 mb 0.00 in0.0 mm 0.00 in0.0 mm 0.00 in0.0 mm
01:45 AM 68.1°F20.1°C -22.6°F-30.3°C 1% Calm Calm -- 29.60 in1002.4 mb 0.00 in0.0 mm 0.00 in0.0 mm 0.00 in0.0 mm
01:44 AM 68.3°F20.2°C -22.5°F-30.3°C 1% Calm Calm -- 29.60 in1002.4 mb 0.00 in0.0 mm 0.00 in0.0 mm 0.00 in0.0 mm
01:43 AM 68.3°F20.2°C -22.5°F-30.3°C 1% Calm Calm -- 29.60 in1002.4 mb 0.00 in0.0 mm 0.00 in0.0 mm 0.00 in0.0 mm
01:42 AM 68.3°F20.2°C -22.5°F-30.3°C 1% Calm Calm -- 29.60 in1002.4 mb 0.00 in0.0 mm 0.00 in0.0 mm 0.00 in0.0 mm
01:41 AM 68.3°F20.2°C -22.5°F-30.3°C 1% Calm Calm -- 29.60 in1002.4 mb 0.00 in0.0 mm 0.00 in0.0 mm 0.00 in0.0 mm
01:40 AM 68.3°F20.2°C -22.5°F-30.3°C 1% Calm Calm -- 29.60 in1002.4 mb 0.00 in0.0 mm 0.00 in0.0 mm 0.00 in0.0 mm
01:39 AM 68.3°F20.2°C -22.5°F-30.3°C 1% Calm Calm -- 29.61 in1002.7 mb 0.00 in0.0 mm 0.00 in0.0 mm 0.00 in0.0 mm
01:38 AM 68.5°F20.3°C -22.3°F-30.2°C 1% Calm Calm -- 29.60 in1002.4 mb 0.00 in0.0 mm 0.00 in0.0 mm 0.00 in0.0 mm
01:37 AM 68.5°F20.3°C -22.3°F-30.2°C 1% Calm Calm -- 29.60 in1002.4 mb 0.00 in0.0 mm 0.00 in0.0 mm 0.00 in0.0 mm
01:36 AM 68.5°F20.3°C -22.3°F-30.2°C 1% Calm Calm -- 29.61 in1002.7 mb 0.00 in0.0 mm 0.00 in0.0 mm 0.00 in0.0 mm
01:35 AM 68.5°F20.3°C -22.3°F-30.2°C 1% Calm Calm -- 29.60 in1002.4 mb 0.00 in0.0 mm 0.00 in0.0 mm 0.00 in0.0 mm
01:34 AM 68.5°F20.3°C -22.3°F-30.2°C 1% Calm Calm -- 29.60 in1002.4 mb 0.00 in0.0 mm 0.00 in0.0 mm 0.00 in0.0 mm
01:33 AM 68.5°F20.3°C -22.3°F-30.2°C 1% Calm Calm -- 29.61 in1002.7 mb 0.00 in0.0 mm 0.00 in0.0 mm 0.00 in0.0 mm
01:32 AM 68.5°F20.3°C -22.3°F-30.2°C 1% Calm Calm -- 29.61 in1002.7 mb 0.00 in0.0 mm 0.00 in0.0 mm 0.00 in0.0 mm
01:31 AM 68.5°F20.3°C -22.3°F-30.2°C 1% Calm Calm -- 29.61 in1002.7 mb 0.00 in0.0 mm 0.00 in0.0 mm 0.00 in0.0 mm
01:30 AM 68.5°F20.3°C -22.3°F-30.2°C 1% Calm Calm -- 29.61 in1002.7 mb 0.00 in0.0 mm 0.00 in0.0 mm 0.00 in0.0 mm
01:29 AM 68.5°F20.3°C -22.3°F-30.2°C 1% Calm Calm -- 29.61 in1002.7 mb 0.00 in0.0 mm 0.00 in0.0 mm 0.00 in0.0 mm
01:28 AM 68.5°F20.3°C -22.3°F-30.2°C 1% Calm Calm -- 29.61 in1002.7 mb 0.00 in0.0 mm 0.00 in0.0 mm 0.00 in0.0 mm
01:27 AM 68.5°F20.3°C -22.3°F-30.2°C 1% Calm Calm -- 29.60 in1002.4 mb 0.00 in0.0 mm 0.00 in0.0 mm 0.00 in0.0 mm
01:26 AM 68.5°F20.3°C -22.3°F-30.2°C 1% Calm Calm -- 29.61 in1002.7 mb 0.00 in0.0 mm 0.00 in0.0 mm 0.00 in0.0 mm
01:25 AM 68.6°F20.3°C -22.3°F-30.2°C 1% Calm Calm -- 29.60 in1002.4 mb 0.00 in0.0 mm 0.00 in0.0 mm 0.00 in0.0 mm
01:24 AM 68.6°F20.3°C -22.3°F-30.2°C 1% Calm Calm -- 29.60 in1002.4 mb 0.00 in0.0 mm 0.00 in0.0 mm 0.00 in0.0 mm
01:23 AM 68.6°F20.3°C -22.3°F-30.2°C 1% Calm Calm -- 29.60 in1002.4 mb 0.00 in0.0 mm 0.00 in0.0 mm 0.00 in0.0 mm
01:22 AM 68.6°F20.3°C -22.3°F-30.2°C 1% Calm Calm -- 29.60 in1002.4 mb 0.00 in0.0 mm 0.00 in0.0 mm 0.00 in0.0 mm
01:21 AM 68.6°F20.3°C -22.3°F-30.2°C 1% Calm Calm -- 29.60 in1002.4 mb 0.00 in0.0 mm 0.00 in0.0 mm 0.00 in0.0 mm
01:20 AM 68.6°F20.3°C -22.3°F-30.2°C 1% Calm Calm -- 29.60 in1002.4 mb 0.00 in0.0 mm 0.00 in0.0 mm 0.00 in0.0 mm
01:19 AM 68.6°F20.3°C -22.3°F-30.2°C 1% Calm Calm -- 29.60 in1002.4 mb 0.00 in0.0 mm 0.00 in0.0 mm 0.00 in0.0 mm
01:18 AM 68.6°F20.3°C -22.3°F-30.2°C 1% Calm Calm -- 29.60 in1002.4 mb 0.00 in0.0 mm 0.00 in0.0 mm 0.00 in0.0 mm
01:17 AM 68.8°F20.4°C -22.2°F-30.1°C 1% Calm Calm -- 29.60 in1002.4 mb 0.00 in0.0 mm 0.00 in0.0 mm 0.00 in0.0 mm
01:16 AM 68.8°F20.4°C -22.2°F-30.1°C 1% Calm Calm -- 29.61 in1002.7 mb 0.00 in0.0 mm 0.00 in0.0 mm 0.00 in0.0 mm
01:15 AM 68.8°F20.4°C -22.2°F-30.1°C 1% Calm Calm -- 29.60 in1002.4 mb 0.00 in0.0 mm 0.00 in0.0 mm 0.00 in0.0 mm
01:14 AM 68.8°F20.4°C -22.2°F-30.1°C 1% Calm Calm -- 29.61 in1002.7 mb 0.00 in0.0 mm 0.00 in0.0 mm 0.00 in0.0 mm
01:13 AM 68.8°F20.4°C -22.2°F-30.1°C 1% Calm Calm -- 29.60 in1002.4 mb 0.00 in0.0 mm 0.00 in0.0 mm 0.00 in0.0 mm
01:12 AM 68.8°F20.4°C -22.2°F-30.1°C 1% Calm Calm -- 29.61 in1002.7 mb 0.00 in0.0 mm 0.00 in0.0 mm 0.00 in0.0 mm
01:11 AM 68.8°F20.4°C -22.2°F-30.1°C 1% Calm Calm -- 29.60 in1002.4 mb 0.00 in0.0 mm 0.00 in0.0 mm 0.00 in0.0 mm
01:10 AM 68.8°F20.4°C -22.2°F-30.1°C 1% Calm Calm -- 29.60 in1002.4 mb 0.00 in0.0 mm 0.00 in0.0 mm 0.00 in0.0 mm
01:09 AM 68.8°F20.4°C -22.2°F-30.1°C 1% Calm Calm -- 29.60 in1002.4 mb 0.00 in0.0 mm 0.00 in0.0 mm 0.00 in0.0 mm
01:08 AM 68.8°F20.4°C -22.2°F-30.1°C 1% Calm Calm -- 29.60 in1002.4 mb 0.00 in0.0 mm 0.00 in0.0 mm 0.00 in0.0 mm
01:07 AM 69.0°F20.6°C -22.0°F-30.0°C 1% Calm Calm -- 29.60 in1002.4 mb 0.00 in0.0 mm 0.00 in0.0 mm 0.00 in0.0 mm
01:06 AM 69.0°F20.6°C -22.0°F-30.0°C 1% Calm Calm -- 29.61 in1002.7 mb 0.00 in0.0 mm 0.00 in0.0 mm 0.00 in0.0 mm
01:05 AM 69.0°F20.6°C -22.0°F-30.0°C 1% Calm Calm -- 29.61 in1002.7 mb 0.00 in0.0 mm 0.00 in0.0 mm 0.00 in0.0 mm
01:04 AM 69.0°F20.6°C -22.0°F-30.0°C 1% Calm Calm -- 29.61 in1002.7 mb 0.00 in0.0 mm 0.00 in0.0 mm 0.00 in0.0 mm
01:03 AM 69.0°F20.6°C -22.0°F-30.0°C 1% Calm Calm -- 29.61 in1002.7 mb 0.00 in0.0 mm 0.00 in0.0 mm 0.00 in0.0 mm
01:02 AM 69.2°F20.7°C -21.9°F-29.9°C 1% Calm Calm -- 29.61 in1002.7 mb 0.00 in0.0 mm 0.00 in0.0 mm 0.00 in0.0 mm
01:01 AM 69.2°F20.7°C -21.9°F-29.9°C 1% Calm Calm -- 29.60 in1002.4 mb 0.00 in0.0 mm 0.00 in0.0 mm 0.00 in0.0 mm
01:00 AM 69.2°F20.7°C -21.9°F-29.9°C 1% Calm Calm -- 29.60 in1002.4 mb 0.00 in0.0 mm 0.00 in0.0 mm 0.00 in0.0 mm
12:59 AM 69.2°F20.7°C -21.9°F-29.9°C 1% Calm Calm -- 29.60 in1002.4 mb 0.00 in0.0 mm 0.00 in0.0 mm 0.00 in0.0 mm
12:58 AM 69.2°F20.7°C -21.9°F-29.9°C 1% Calm Calm -- 29.61 in1002.7 mb 0.00 in0.0 mm 0.00 in0.0 mm 0.00 in0.0 mm
12:57 AM 69.2°F20.7°C -21.9°F-29.9°C 1% Calm Calm -- 29.61 in1002.7 mb 0.00 in0.0 mm 0.00 in0.0 mm 0.00 in0.0 mm
12:56 AM 69.2°F20.7°C -21.9°F-29.9°C 1% Calm Calm -- 29.61 in1002.7 mb 0.00 in0.0 mm 0.00 in0.0 mm 0.00 in0.0 mm
12:55 AM 69.2°F20.7°C -21.9°F-29.9°C 1% Calm Calm -- 29.61 in1002.7 mb 0.00 in0.0 mm 0.00 in0.0 mm 0.00 in0.0 mm
12:54 AM 69.2°F20.7°C -21.9°F-29.9°C 1% Calm Calm -- 29.61 in1002.7 mb 0.00 in0.0 mm 0.00 in0.0 mm 0.00 in0.0 mm
12:53 AM 69.2°F20.7°C -21.9°F-29.9°C 1% Calm Calm -- 29.61 in1002.7 mb 0.00 in0.0 mm 0.00 in0.0 mm 0.00 in0.0 mm
12:52 AM 69.4°F20.8°C -21.8°F-29.9°C 1% Calm Calm -- 29.61 in1002.7 mb 0.00 in0.0 mm 0.00 in0.0 mm 0.00 in0.0 mm
12:51 AM 69.4°F20.8°C -21.8°F-29.9°C 1% Calm Calm -- 29.61 in1002.7 mb 0.00 in0.0 mm 0.00 in0.0 mm 0.00 in0.0 mm
12:50 AM 69.4°F20.8°C -21.8°F-29.9°C 1% Calm Calm -- 29.61 in1002.7 mb 0.00 in0.0 mm 0.00 in0.0 mm 0.00 in0.0 mm
12:49 AM 69.4°F20.8°C -21.8°F-29.9°C 1% Calm Calm -- 29.61 in1002.7 mb 0.00 in0.0 mm 0.00 in0.0 mm 0.00 in0.0 mm
12:48 AM 69.4°F20.8°C -21.8°F-29.9°C 1% Calm Calm -- 29.61 in1002.7 mb 0.00 in0.0 mm 0.00 in0.0 mm 0.00 in0.0 mm
12:47 AM 69.4°F20.8°C -21.8°F-29.9°C 1% Calm Calm -- 29.61 in1002.7 mb 0.00 in0.0 mm 0.00 in0.0 mm 0.00 in0.0 mm
12:46 AM 69.5°F20.8°C -21.7°F-29.8°C 1% Calm Calm -- 29.61 in1002.7 mb 0.00 in0.0 mm 0.00 in0.0 mm 0.00 in0.0 mm
12:45 AM 69.5°F20.8°C -21.7°F-29.8°C 1% Calm Calm -- 29.61 in1002.7 mb 0.00 in0.0 mm 0.00 in0.0 mm 0.00 in0.0 mm
12:44 AM 69.5°F20.8°C -21.7°F-29.8°C 1% Calm Calm -- 29.61 in1002.7 mb 0.00 in0.0 mm 0.00 in0.0 mm 0.00 in0.0 mm
12:43 AM 69.5°F20.8°C -21.7°F-29.8°C 1% Calm Calm -- 29.61 in1002.7 mb 0.00 in0.0 mm 0.00 in0.0 mm 0.00 in0.0 mm
12:42 AM 69.5°F20.8°C -21.7°F-29.8°C 1% Calm Calm -- 29.61 in1002.7 mb 0.00 in0.0 mm 0.00 in0.0 mm 0.00 in0.0 mm
12:41 AM 69.5°F20.8°C -21.7°F-29.8°C 1% Calm Calm -- 29.61 in1002.7 mb 0.00 in0.0 mm 0.00 in0.0 mm 0.00 in0.0 mm
12:40 AM 69.5°F20.8°C -21.7°F-29.8°C 1% Calm Calm -- 29.61 in1002.7 mb 0.00 in0.0 mm 0.00 in0.0 mm 0.00 in0.0 mm
12:39 AM 69.5°F20.8°C -21.7°F-29.8°C 1% Calm Calm -- 29.61 in1002.7 mb 0.00 in0.0 mm 0.00 in0.0 mm 0.00 in0.0 mm
12:38 AM 69.5°F20.8°C -21.7°F-29.8°C 1% Calm Calm -- 29.61 in1002.7 mb 0.00 in0.0 mm 0.00 in0.0 mm 0.00 in0.0 mm
12:37 AM 69.5°F20.8°C -21.7°F-29.8°C 1% Calm Calm -- 29.61 in1002.7 mb 0.00 in0.0 mm 0.00 in0.0 mm 0.00 in0.0 mm
12:36 AM 69.5°F20.8°C -21.7°F-29.8°C 1% Calm Calm -- 29.61 in1002.7 mb 0.00 in0.0 mm 0.00 in0.0 mm 0.00 in0.0 mm
12:35 AM 69.5°F20.8°C -21.7°F-29.8°C 1% Calm Calm -- 29.61 in1002.7 mb 0.00 in0.0 mm 0.00 in0.0 mm 0.00 in0.0 mm
12:34 AM 69.5°F20.8°C -21.7°F-29.8°C 1% Calm Calm -- 29.61 in1002.7 mb 0.00 in0.0 mm 0.00 in0.0 mm 0.00 in0.0 mm
12:33 AM 69.5°F20.8°C -21.7°F-29.8°C 1% Calm Calm -- 29.61 in1002.7 mb 0.00 in0.0 mm 0.00 in0.0 mm 0.00 in0.0 mm
12:32 AM 69.6°F20.9°C -21.6°F-29.8°C 1% Calm Calm -- 29.61 in1002.7 mb 0.00 in0.0 mm 0.00 in0.0 mm 0.00 in0.0 mm
12:31 AM 69.6°F20.9°C -21.6°F-29.8°C 1% Calm Calm -- 29.61 in1002.7 mb 0.00 in0.0 mm 0.00 in0.0 mm 0.00 in0.0 mm
12:30 AM 69.6°F20.9°C -21.6°F-29.8°C 1% Calm Calm -- 29.61 in1002.7 mb 0.00 in0.0 mm 0.00 in0.0 mm 0.00 in0.0 mm
12:29 AM 69.6°F20.9°C -21.6°F-29.8°C 1% Calm Calm -- 29.61 in1002.7 mb 0.00 in0.0 mm 0.00 in0.0 mm 0.00 in0.0 mm
12:28 AM 69.6°F20.9°C -21.6°F-29.8°C 1% Calm Calm -- 29.61 in1002.7 mb 0.00 in0.0 mm 0.00 in0.0 mm 0.00 in0.0 mm
12:27 AM 69.6°F20.9°C -21.6°F-29.8°C 1% Calm Calm -- 29.61 in1002.7 mb 0.00 in0.0 mm 0.00 in0.0 mm 0.00 in0.0 mm
12:26 AM 69.8°F21.0°C -21.5°F-29.7°C 1% Calm Calm -- 29.61 in1002.7 mb 0.00 in0.0 mm 0.00 in0.0 mm 0.00 in0.0 mm
12:25 AM 69.8°F21.0°C -21.5°F-29.7°C 1% Calm Calm -- 29.61 in1002.7 mb 0.00 in0.0 mm 0.00 in0.0 mm 0.00 in0.0 mm
12:24 AM 69.8°F21.0°C -21.5°F-29.7°C 1% Calm Calm -- 29.61 in1002.7 mb 0.00 in0.0 mm 0.00 in0.0 mm 0.00 in0.0 mm
12:23 AM 69.8°F21.0°C -21.5°F-29.7°C 1% Calm Calm -- 29.61 in1002.7 mb 0.00 in0.0 mm 0.00 in0.0 mm 0.00 in0.0 mm
12:22 AM 69.8°F21.0°C -21.5°F-29.7°C 1% Calm Calm -- 29.61 in1002.7 mb 0.00 in0.0 mm 0.00 in0.0 mm 0.00 in0.0 mm
12:21 AM 69.8°F21.0°C -21.5°F-29.7°C 1% Calm Calm -- 29.61 in1002.7 mb 0.00 in0.0 mm 0.00 in0.0 mm 0.00 in0.0 mm
12:20 AM 69.8°F21.0°C -21.5°F-29.7°C 1% Calm Calm -- 29.61 in1002.7 mb 0.00 in0.0 mm 0.00 in0.0 mm 0.00 in0.0 mm
12:19 AM 70.0°F21.1°C -21.3°F-29.6°C 1% Calm Calm -- 29.60 in1002.4 mb 0.00 in0.0 mm 0.00 in0.0 mm 0.00 in0.0 mm
12:18 AM 70.0°F21.1°C -21.3°F-29.6°C 1% Calm Calm -- 29.60 in1002.4 mb 0.00 in0.0 mm 0.00 in0.0 mm 0.00 in0.0 mm
12:17 AM 70.0°F21.1°C -21.3°F-29.6°C 1% Calm Calm -- 29.60 in1002.4 mb 0.00 in0.0 mm 0.00 in0.0 mm 0.00 in0.0 mm
12:16 AM 70.0°F21.1°C -21.3°F-29.6°C 1% Calm Calm -- 29.60 in1002.4 mb 0.00 in0.0 mm 0.00 in0.0 mm 0.00 in0.0 mm
12:15 AM 70.2°F21.2°C -21.2°F-29.6°C 1% Calm Calm -- 29.60 in1002.4 mb 0.00 in0.0 mm 0.00 in0.0 mm 0.00 in0.0 mm
12:14 AM 70.2°F21.2°C -21.2°F-29.6°C 1% Calm Calm -- 29.60 in1002.4 mb 0.00 in0.0 mm 0.00 in0.0 mm 0.00 in0.0 mm
12:13 AM 70.2°F21.2°C -21.2°F-29.6°C 1% Calm Calm -- 29.60 in1002.4 mb 0.00 in0.0 mm 0.00 in0.0 mm 0.00 in0.0 mm
12:12 AM 70.2°F21.2°C -21.2°F-29.6°C 1% Calm Calm -- 29.60 in1002.4 mb 0.00 in0.0 mm 0.00 in0.0 mm 0.00 in0.0 mm
12:11 AM 70.2°F21.2°C -21.2°F-29.6°C 1% Calm Calm -- 29.60 in1002.4 mb 0.00 in0.0 mm 0.00 in0.0 mm 0.00 in0.0 mm
12:10 AM 70.2°F21.2°C -21.2°F-29.6°C 1% Calm Calm -- 29.60 in1002.4 mb 0.00 in0.0 mm 0.00 in0.0 mm 0.00 in0.0 mm
12:09 AM 70.2°F21.2°C -21.2°F-29.6°C 1% Calm Calm -- 29.60 in1002.4 mb 0.00 in0.0 mm 0.00 in0.0 mm 0.00 in0.0 mm
12:08 AM 70.3°F21.3°C -21.2°F-29.6°C 1% Calm Calm -- 29.60 in1002.4 mb 0.00 in0.0 mm 0.00 in0.0 mm 0.00 in0.0 mm
12:07 AM 70.3°F21.3°C -21.2°F-29.6°C 1% Calm Calm -- 29.60 in1002.4 mb 0.00 in0.0 mm 0.00 in0.0 mm 0.00 in0.0 mm
12:06 AM 70.3°F21.3°C -21.2°F-29.6°C 1% Calm Calm -- 29.60 in1002.4 mb 0.00 in0.0 mm 0.00 in0.0 mm 0.00 in0.0 mm
12:05 AM 70.3°F21.3°C -21.2°F-29.6°C 1% Calm Calm -- 29.60 in1002.4 mb 0.00 in0.0 mm 0.00 in0.0 mm 0.00 in0.0 mm
12:04 AM 70.5°F21.4°C -21.0°F-29.4°C 1% Calm Calm -- 29.60 in1002.4 mb 0.00 in0.0 mm 0.00 in0.0 mm 0.00 in0.0 mm
12:03 AM 70.5°F21.4°C -21.0°F-29.4°C 1% Calm Calm -- 29.60 in1002.4 mb 0.00 in0.0 mm 0.00 in0.0 mm 0.00 in0.0 mm
12:02 AM 70.5°F21.4°C -21.0°F-29.4°C 1% Calm Calm -- 29.60 in1002.4 mb 0.00 in0.0 mm 0.00 in0.0 mm 0.00 in0.0 mm
12:01 AM 70.5°F21.4°C -21.0°F-29.4°C 1% Calm Calm -- 29.61 in1002.7 mb 0.00 in0.0 mm 0.00 in0.0 mm 0.00 in0.0 mm
12:00 AM 70.7°F21.5°C -20.9°F-29.4°C 1% Calm Calm -- 29.61 in1002.7 mb 0.00 in0.0 mm 0.00 in0.0 mm 0.00 in0.0 mm